Darstellungsparameter: Aktuell verwendete Einstellungen:
Skalierung der Graphiken ... ?
xyx+y,   Skalierungsfaktor:      Skalierung: Modus: x, Faktor: 1
Darstellungszeitraum ... ?
Vom - - bis: - -   Zeitraum: 06.08.2011 - 05.09.2011
Min/Max/Avg-Anzeige ... ?
Zeige MMA aktuell
Zeige MMA Monat
Zeige MMA alles
Zeige --A aktuell
Zeige --A Monat
Zeige --A alles
Keine MMA-Anzeige
MMA:
Keine MMA-Graphiken
MMA-Basis: 06.08.2011 - 05.09.2011
Quicknavigation für Darstellung... ?
Tage:      1T, 2T, 3T, 5T -1T -2T -3T -5T +1T +2T +3T +5T
Wochen: 1W, 2W, 3W -1W -2W -3W +1W +2W +3W
Monate: 1M, 3M, 6M -1M -3M -6M +1M +3M +6M
Jahre:    1J, 3J, 5J, 10J -1J -3J -5J -10J +1J +3J +5J +10J
Nutze für die Darstellung ... ?
Originaldaten oder Mittelwerte auf ...
Stundenbasis Tagesbasis Wochenbasis
Monatsbasis Jahresbasis      Datenbasis: Original-Daten
Darstellen als:
Statistik (Auto) Statistik J:M      Darstellung:
Zur Graphik,    zurück zur Übersicht aller Sensoren.
 
Tabellarische Datenbersicht: ?
 
Sensor: Nr:Datum:Temp:Feuchte:Taupunkt:
Aussen-T/F 1 06-08-2011 00:07:02 18.4 C 87 % 16.2 C
2 06-08-2011 00:19:02 18.1 C 87 % 15.9 C
3 06-08-2011 00:31:02 18.1 C 87 % 15.9 C
4 06-08-2011 00:43:02 18.2 C 87 % 16 C
5 06-08-2011 00:55:01 17.8 C 88 % 15.79 C
6 06-08-2011 01:07:01 17.8 C 88 % 15.79 C
7 06-08-2011 01:19:02 17.7 C 88 % 15.69 C
8 06-08-2011 01:31:01 17.6 C 88 % 15.59 C
9 06-08-2011 01:43:01 17.8 C 89 % 15.96 C
10 06-08-2011 01:55:01 18.1 C 88 % 16.08 C
11 06-08-2011 02:07:01 17.5 C 89 % 15.67 C
12 06-08-2011 02:19:02 17.5 C 89 % 15.67 C
13 06-08-2011 02:31:01 17.5 C 89 % 15.67 C
14 06-08-2011 02:43:01 17.1 C 88 % 15.1 C
15 06-08-2011 02:55:02 17.1 C 89 % 15.27 C
16 06-08-2011 03:07:02 17.5 C 89 % 15.67 C
17 06-08-2011 03:19:01 17.4 C 89 % 15.57 C
18 06-08-2011 03:31:01 17.2 C 89 % 15.37 C
19 06-08-2011 03:43:01 17.1 C 89 % 15.27 C
20 06-08-2011 03:55:01 17 C 89 % 15.17 C
21 06-08-2011 04:07:01 17.6 C 89 % 15.77 C
22 06-08-2011 04:19:01 17.7 C 89 % 15.86 C
23 06-08-2011 04:31:01 17.6 C 89 % 15.77 C
24 06-08-2011 04:43:01 17.8 C 90 % 16.14 C
25 06-08-2011 04:55:01 17.8 C 90 % 16.14 C
Sensor: Nr:Datum:Temp:Feuchte:Taupunkt:
Aussen-T/F 26 06-08-2011 05:07:01 17.5 C 90 % 15.84 C
27 06-08-2011 05:19:02 17.4 C 89 % 15.57 C
28 06-08-2011 05:31:01 17.1 C 89 % 15.27 C
29 06-08-2011 05:43:01 17 C 89 % 15.17 C
30 06-08-2011 05:55:02 16.6 C 90 % 14.95 C
31 06-08-2011 06:07:01 16.6 C 90 % 14.95 C
32 06-08-2011 06:19:02 16.9 C 90 % 15.25 C
33 06-08-2011 06:31:01 16.6 C 90 % 14.95 C
34 06-08-2011 06:43:01 17.1 C 89 % 15.27 C
35 06-08-2011 06:55:01 17.3 C 90 % 15.64 C
36 06-08-2011 07:07:01 17.7 C 90 % 16.04 C
37 06-08-2011 07:19:02 17.9 C 90 % 16.24 C
38 06-08-2011 07:31:01 18.1 C 89 % 16.26 C
39 06-08-2011 07:43:01 18 C 89 % 16.16 C
40 06-08-2011 07:55:01 18.4 C 89 % 16.55 C
41 06-08-2011 08:07:01 18.6 C 89 % 16.75 C
42 06-08-2011 08:19:02 19.1 C 88 % 17.07 C
43 06-08-2011 08:31:01 19.4 C 88 % 17.36 C
44 06-08-2011 08:43:01 19.5 C 88 % 17.46 C
45 06-08-2011 08:55:02 19.8 C 88 % 17.75 C
46 06-08-2011 09:07:01 20.3 C 86 % 17.88 C
47 06-08-2011 09:19:02 20.5 C 84 % 17.7 C
48 06-08-2011 09:31:03 21.2 C 81 % 17.81 C
49 06-08-2011 09:43:03 21.7 C 79 % 17.9 C
50 06-08-2011 09:55:04 22.6 C 69 % 16.62 C
Sensor: Nr:Datum:Temp:Feuchte:Taupunkt:
Aussen-T/F 51 06-08-2011 10:07:02 22.7 C 65 % 15.78 C
52 06-08-2011 10:19:01 23.4 C 64 % 16.2 C
53 06-08-2011 10:31:01 23.9 C 63 % 16.43 C
54 06-08-2011 10:43:01 23.6 C 60 % 15.38 C
55 06-08-2011 10:55:02 24.1 C 60 % 15.85 C
56 06-08-2011 11:07:02 24 C 61 % 16.02 C
57 06-08-2011 11:19:02 24.3 C 58 % 15.51 C
58 06-08-2011 11:31:01 24.4 C 57 % 15.33 C
59 06-08-2011 11:43:01 25 C 54 % 15.05 C
60 06-08-2011 11:55:01 25.2 C 54 % 15.23 C
61 06-08-2011 12:07:02 24.5 C 56 % 15.15 C
62 06-08-2011 12:19:01 24.7 C 56 % 15.33 C
63 06-08-2011 12:31:01 26.1 C 51 % 15.17 C
64 06-08-2011 12:43:02 25.8 C 50 % 14.59 C
65 06-08-2011 12:55:01 25.1 C 54 % 15.14 C
66 06-08-2011 13:07:02 25.4 C 52 % 14.83 C
67 06-08-2011 13:19:01 25.5 C 52 % 14.92 C
68 06-08-2011 13:31:03 26 C 51 % 15.08 C
69 06-08-2011 13:43:03 26.7 C 47 % 14.45 C
70 06-08-2011 13:55:01 26.6 C 48 % 14.69 C
71 06-08-2011 14:07:03 25.3 C 50 % 14.13 C
72 06-08-2011 14:19:01 24.1 C 57 % 15.05 C
73 06-08-2011 14:31:01 21.4 C 71 % 15.93 C
74 06-08-2011 14:43:02 19.8 C 78 % 15.85 C
75 06-08-2011 14:55:01 20.3 C 79 % 16.54 C
Sensor: Nr:Datum:Temp:Feuchte:Taupunkt:
Aussen-T/F 76 06-08-2011 15:07:02 21 C 76 % 16.61 C
77 06-08-2011 15:19:01 21.6 C 76 % 17.19 C
78 06-08-2011 15:31:01 20.7 C 78 % 16.73 C
79 06-08-2011 15:43:01 19.7 C 81 % 16.35 C
80 06-08-2011 15:55:01 18.7 C 83 % 15.75 C
81 06-08-2011 16:07:01 18 C 83 % 15.07 C
82 06-08-2011 16:19:02 17.8 C 85 % 15.25 C
83 06-08-2011 16:31:01 17.8 C 86 % 15.43 C
84 06-08-2011 16:43:01 18 C 86 % 15.62 C
85 06-08-2011 16:55:01 18.4 C 86 % 16.02 C
86 06-08-2011 17:07:01 18.7 C 85 % 16.13 C
87 06-08-2011 17:19:02 18.5 C 84 % 15.75 C
88 06-08-2011 17:31:01 18.5 C 84 % 15.75 C
89 06-08-2011 17:43:01 18.5 C 84 % 15.75 C
90 06-08-2011 17:55:02 18.6 C 84 % 15.84 C
91 06-08-2011 18:07:01 18.6 C 84 % 15.84 C
92 06-08-2011 18:19:01 18.5 C 85 % 15.93 C
93 06-08-2011 18:31:02 18.5 C 85 % 15.93 C
94 06-08-2011 18:43:02 18.6 C 86 % 16.21 C
95 06-08-2011 18:55:01 18.6 C 86 % 16.21 C
96 06-08-2011 19:07:01 18.4 C 86 % 16.02 C
97 06-08-2011 19:19:01 18.4 C 86 % 16.02 C
98 06-08-2011 19:31:02 18.3 C 86 % 15.92 C
99 06-08-2011 19:43:02 18.3 C 86 % 15.92 C
100 06-08-2011 19:55:02 18.3 C 87 % 16.1 C
Sensor: Nr:Datum:Temp:Feuchte:Taupunkt:
Aussen-T/F 101 06-08-2011 20:07:01 18.1 C 87 % 15.9 C
102 06-08-2011 20:19:02 18.1 C 87 % 15.9 C
103 06-08-2011 20:31:01 18 C 87 % 15.8 C
104 06-08-2011 20:43:01 18.1 C 87 % 15.9 C
105 06-08-2011 20:55:02 17.9 C 89 % 16.06 C
106 06-08-2011 21:07:01 18 C 88 % 15.98 C
107 06-08-2011 21:19:01 17.8 C 89 % 15.96 C
108 06-08-2011 21:31:02 17.6 C 89 % 15.77 C
109 06-08-2011 21:43:02 17.5 C 89 % 15.67 C
110 06-08-2011 21:55:01 17.4 C 89 % 15.57 C
111 06-08-2011 22:07:01 17.5 C 89 % 15.67 C
112 06-08-2011 22:19:01 17.6 C 89 % 15.77 C
113 06-08-2011 22:33:02 17.5 C 89 % 15.67 C
114 06-08-2011 22:45:02 17.5 C 89 % 15.67 C
115 06-08-2011 22:57:02 17.7 C 89 % 15.86 C
116 06-08-2011 23:09:02 17.4 C 87 % 15.21 C
117 06-08-2011 23:21:02 17 C 85 % 14.46 C
118 06-08-2011 23:33:02 16.8 C 86 % 14.45 C
119 06-08-2011 23:45:02 16.9 C 87 % 14.72 C
120 06-08-2011 23:57:02 16.8 C 87 % 14.62 C
121 07-08-2011 00:09:03 16.6 C 85 % 14.07 C
122 07-08-2011 00:21:03 16.5 C 85 % 13.97 C
123 07-08-2011 00:33:03 16.3 C 86 % 13.95 C
124 07-08-2011 00:45:03 16.3 C 86 % 13.95 C
125 07-08-2011 00:57:03 16.4 C 85 % 13.87 C
Sensor: Nr:Datum:Temp:Feuchte:Taupunkt:
Aussen-T/F 126 07-08-2011 01:09:03 16.4 C 85 % 13.87 C
127 07-08-2011 01:21:03 16.5 C 84 % 13.79 C
128 07-08-2011 01:33:03 16.4 C 84 % 13.69 C
129 07-08-2011 01:45:03 16.2 C 84 % 13.5 C
130 07-08-2011 01:57:03 16.1 C 85 % 13.58 C
131 07-08-2011 02:09:03 16 C 86 % 13.66 C
132 07-08-2011 02:21:03 16 C 87 % 13.84 C
133 07-08-2011 02:33:03 15.9 C 88 % 13.92 C
134 07-08-2011 02:45:03 15.8 C 88 % 13.82 C
135 07-08-2011 02:57:03 16 C 88 % 14.01 C
136 07-08-2011 03:09:03 16 C 88 % 14.01 C
137 07-08-2011 03:21:03 16 C 87 % 13.84 C
138 07-08-2011 03:33:03 16 C 87 % 13.84 C
139 07-08-2011 03:45:03 16.3 C 86 % 13.95 C
140 07-08-2011 03:57:03 16.2 C 86 % 13.86 C
141 07-08-2011 04:09:03 16.2 C 86 % 13.86 C
142 07-08-2011 04:21:04 16.1 C 86 % 13.76 C
143 07-08-2011 04:33:04 16.1 C 86 % 13.76 C
144 07-08-2011 04:45:04 16 C 87 % 13.84 C
145 07-08-2011 04:57:04 16 C 87 % 13.84 C
146 07-08-2011 05:09:04 16 C 87 % 13.84 C
147 07-08-2011 05:21:04 16 C 87 % 13.84 C
148 07-08-2011 05:33:04 15.9 C 87 % 13.74 C
149 07-08-2011 05:45:04 15.9 C 88 % 13.92 C
150 07-08-2011 05:57:04 15.4 C 88 % 13.42 C
Sensor: Nr:Datum:Temp:Feuchte:Taupunkt:
Aussen-T/F 151 07-08-2011 06:09:04 15.5 C 85 % 12.99 C
152 07-08-2011 06:21:04 15.4 C 84 % 12.71 C
153 07-08-2011 06:33:04 15.4 C 83 % 12.53 C
154 07-08-2011 06:45:04 15.4 C 83 % 12.53 C
155 07-08-2011 06:57:04 15.2 C 83 % 12.33 C
156 07-08-2011 07:09:02 15.1 C 79 % 11.49 C
157 07-08-2011 07:21:02 15 C 76 % 10.81 C
158 07-08-2011 07:33:02 14.9 C 74 % 10.31 C
159 07-08-2011 07:45:02 15 C 72 % 10 C
160 07-08-2011 07:57:02 15 C 75 % 10.61 C
161 07-08-2011 08:09:02 15.1 C 79 % 11.49 C
162 07-08-2011 08:21:03 15.6 C 78 % 11.78 C
163 07-08-2011 08:33:02 15.4 C 73 % 10.59 C
164 07-08-2011 08:45:02 14.8 C 75 % 10.42 C
165 07-08-2011 08:57:02 15.2 C 67 % 9.12 C
166 07-08-2011 09:09:02 16.1 C 63 % 9.06 C
167 07-08-2011 09:21:02 16.2 C 58 % 7.94 C
168 07-08-2011 09:33:02 15.9 C 61 % 8.4 C
169 07-08-2011 09:45:02 16.7 C 58 % 8.4 C
170 07-08-2011 09:57:02 16.7 C 54 % 7.36 C
171 07-08-2011 10:09:02 16.6 C 55 % 7.53 C
172 07-08-2011 10:21:01 17.1 C 52 % 7.18 C
173 07-08-2011 10:33:02 17.3 C 50 % 6.79 C
174 07-08-2011 10:45:01 17.4 C 50 % 6.88 C
175 07-08-2011 10:57:01 17.8 C 48 % 6.65 C
Sensor: Nr:Datum:Temp:Feuchte:Taupunkt:
Aussen-T/F 176 07-08-2011 11:09:02 18.3 C 47 % 6.8 C
177 07-08-2011 11:21:01 18.3 C 49 % 7.41 C
178 07-08-2011 11:33:01 18.3 C 49 % 7.41 C
179 07-08-2011 11:45:01 17.6 C 50 % 7.06 C
180 07-08-2011 11:57:01 17.7 C 50 % 7.16 C
181 07-08-2011 12:09:01 19.3 C 44 % 6.75 C
182 07-08-2011 12:21:02 19.9 C 42 % 6.62 C
183 07-08-2011 12:33:01 19.8 C 41 % 6.18 C
184 07-08-2011 12:45:02 20.2 C 41 % 6.54 C
185 07-08-2011 12:57:02 19.6 C 45 % 7.35 C
186 07-08-2011 13:09:02 20.1 C 40 % 6.09 C
187 07-08-2011 13:21:02 19.6 C 42 % 6.35 C
188 07-08-2011 13:33:02 20.4 C 42 % 7.07 C
189 07-08-2011 13:45:02 20.6 C 40 % 6.54 C
190 07-08-2011 13:57:02 21.7 C 36 % 5.99 C
191 07-08-2011 14:09:01 20.4 C 37 % 5.24 C
192 07-08-2011 14:21:02 21.5 C 36 % 5.81 C
193 07-08-2011 14:33:02 20.8 C 36 % 5.2 C
194 07-08-2011 14:45:02 20.9 C 38 % 6.06 C
195 07-08-2011 14:57:02 23.4 C 30 % 4.85 C
196 07-08-2011 15:09:02 21.1 C 36 % 5.46 C
197 07-08-2011 15:21:02 21.9 C 35 % 5.76 C
198 07-08-2011 15:33:02 21.3 C 40 % 7.16 C
199 07-08-2011 15:45:01 24.1 C 26 % 3.42 C
200 07-08-2011 15:57:01 25.1 C 24 % 3.13 C
Sensor: Nr:Datum:Temp:Feuchte:Taupunkt:
Aussen-T/F 201 07-08-2011 16:09:02 23.4 C 28 % 3.87 C
202 07-08-2011 16:21:01 22.9 C 30 % 4.42 C
203 07-08-2011 16:33:01 22.8 C 30 % 4.34 C
204 07-08-2011 16:45:01 25.4 C 23 % 2.78 C
205 07-08-2011 16:57:01 23.6 C 27 % 3.53 C
206 07-08-2011 17:09:02 21.8 C 31 % 3.94 C
207 07-08-2011 17:21:01 21.6 C 35 % 5.5 C
208 07-08-2011 17:33:03 21.4 C 35 % 5.32 C
209 07-08-2011 17:45:02 21.4 C 35 % 5.32 C
210 07-08-2011 17:57:02 22.5 C 30 % 4.08 C
211 07-08-2011 18:09:02 23.6 C 30 % 5.03 C
212 07-08-2011 18:21:02 24.6 C 27 % 4.38 C
213 07-08-2011 18:33:04 25.4 C 25 % 3.96 C
214 07-08-2011 18:45:02 21.2 C 33 % 4.3 C
215 07-08-2011 18:57:02 24.2 C 30 % 5.54 C
216 07-08-2011 19:09:03 21.6 C 34 % 5.08 C
217 07-08-2011 19:21:03 21.6 C 34 % 5.08 C
218 07-08-2011 19:33:03 21.6 C 34 % 5.08 C
219 07-08-2011 19:45:01 19.3 C 52 % 9.21 C
220 07-08-2011 19:57:01 19.3 C 52 % 9.21 C
221 07-08-2011 20:09:03 19.7 C 47 % 8.08 C
222 07-08-2011 20:21:02 18.9 C 50 % 8.26 C
223 07-08-2011 20:33:02 18.7 C 55 % 9.48 C
224 07-08-2011 20:45:02 18.2 C 55 % 9.02 C
225 07-08-2011 20:57:02 17 C 62 % 9.67 C
Sensor: Nr:Datum:Temp:Feuchte:Taupunkt:
Aussen-T/F 226 07-08-2011 21:09:01 16.2 C 65 % 9.62 C
227 07-08-2011 21:21:02 16 C 65 % 9.43 C
228 07-08-2011 21:33:02 15.8 C 68 % 9.91 C
229 07-08-2011 21:45:02 15.4 C 69 % 9.75 C
230 07-08-2011 21:57:02 15.1 C 69 % 9.46 C
231 07-08-2011 22:10:03 15.4 C 69 % 9.75 C
232 07-08-2011 22:22:03 15.4 C 69 % 9.75 C
233 07-08-2011 22:34:03 15.2 C 70 % 9.77 C
234 07-08-2011 22:46:03 14.6 C 72 % 9.61 C
235 07-08-2011 22:58:03 14.2 C 73 % 9.43 C
236 07-08-2011 23:10:03 14.7 C 70 % 9.29 C
237 07-08-2011 23:22:03 14.8 C 69 % 9.17 C
238 07-08-2011 23:34:03 14.7 C 68 % 8.86 C
239 07-08-2011 23:46:03 14.4 C 70 % 9 C
240 07-08-2011 23:58:03 14.7 C 71 % 9.5 C
241 08-08-2011 00:10:03 14.7 C 71 % 9.5 C
242 08-08-2011 00:22:03 15 C 68 % 9.15 C
243 08-08-2011 00:34:03 15.4 C 66 % 9.09 C
244 08-08-2011 00:46:04 14.7 C 70 % 9.29 C
245 08-08-2011 00:58:04 13.7 C 73 % 8.95 C
246 08-08-2011 01:10:04 13.2 C 76 % 9.07 C
247 08-08-2011 01:22:04 13.2 C 78 % 9.45 C
248 08-08-2011 01:34:04 13.1 C 78 % 9.36 C
249 08-08-2011 01:46:04 13.1 C 78 % 9.36 C
250 08-08-2011 01:58:04 12.8 C 79 % 9.25 C
Sensor: Nr:Datum:Temp:Feuchte:Taupunkt:
Aussen-T/F 251 08-08-2011 02:10:04 12.6 C 80 % 9.25 C
252 08-08-2011 02:22:04 12.8 C 81 % 9.62 C
253 08-08-2011 02:34:04 12.8 C 81 % 9.62 C
254 08-08-2011 02:46:04 13 C 80 % 9.63 C
255 08-08-2011 02:58:04 13.6 C 79 % 10.03 C
256 08-08-2011 03:10:04 13.7 C 77 % 9.75 C
257 08-08-2011 03:22:04 13.7 C 74 % 9.15 C
258 08-08-2011 03:34:04 14 C 71 % 8.83 C
259 08-08-2011 03:46:04 14 C 73 % 9.24 C
260 08-08-2011 03:58:04 13.9 C 74 % 9.35 C
261 08-08-2011 04:10:04 13.7 C 75 % 9.35 C
262 08-08-2011 04:22:04 13.5 C 76 % 9.36 C
263 08-08-2011 04:34:04 13.5 C 77 % 9.55 C
264 08-08-2011 04:46:04 13.8 C 77 % 9.84 C
265 08-08-2011 04:58:05 14 C 75 % 9.64 C
266 08-08-2011 05:10:05 13.8 C 75 % 9.45 C
267 08-08-2011 05:22:05 13.8 C 76 % 9.65 C
268 08-08-2011 05:34:05 14.1 C 72 % 9.13 C
269 08-08-2011 05:46:05 13.5 C 76 % 9.36 C
270 08-08-2011 05:58:05 13.2 C 80 % 9.83 C
271 08-08-2011 06:10:05 12.8 C 83 % 9.99 C
272 08-08-2011 06:22:05 12.5 C 84 % 9.87 C
273 08-08-2011 06:34:02 12.3 C 86 % 10.03 C
274 08-08-2011 06:46:02 12.3 C 86 % 10.03 C
275 08-08-2011 06:58:02 12.2 C 87 % 10.1 C
Sensor: Nr:Datum:Temp:Feuchte:Taupunkt:
Aussen-T/F 276 08-08-2011 07:10:02 12.2 C 87 % 10.1 C
277 08-08-2011 07:22:02 11.9 C 88 % 9.98 C
278 08-08-2011 07:34:02 12.2 C 88 % 10.27 C
279 08-08-2011 07:46:01 12.1 C 88 % 10.17 C
280 08-08-2011 07:58:01 12.2 C 88 % 10.27 C
281 08-08-2011 08:10:01 12.2 C 88 % 10.27 C
282 08-08-2011 08:22:02 12.2 C 88 % 10.27 C
283 08-08-2011 08:34:01 12.2 C 88 % 10.27 C
284 08-08-2011 08:46:01 12.2 C 88 % 10.27 C
285 08-08-2011 08:58:01 12.2 C 88 % 10.27 C
286 08-08-2011 09:10:01 12.2 C 88 % 10.27 C
287 08-08-2011 09:22:01 14.9 C 69 % 9.27 C
288 08-08-2011 09:34:02 15 C 66 % 8.71 C
289 08-08-2011 09:46:02 15 C 66 % 8.71 C
290 08-08-2011 09:58:02 15 C 66 % 8.71 C
291 08-08-2011 10:10:02 15 C 66 % 8.71 C
292 08-08-2011 10:22:02 15 C 66 % 8.71 C
293 08-08-2011 10:34:02 15 C 66 % 8.71 C
294 08-08-2011 10:46:02 15.4 C 60 % 7.68 C
295 08-08-2011 10:58:02 15.6 C 61 % 8.11 C
296 08-08-2011 11:10:02 16.6 C 59 % 8.56 C
297 08-08-2011 11:22:02 17 C 56 % 8.17 C
298 08-08-2011 11:34:02 15.8 C 61 % 8.3 C
299 08-08-2011 11:46:01 16.4 C 60 % 8.62 C
300 08-08-2011 11:58:01 16.4 C 60 % 8.62 C
Sensor: Nr:Datum:Temp:Feuchte:Taupunkt:
Aussen-T/F 301 08-08-2011 12:10:01 16.6 C 55 % 7.53 C
302 08-08-2011 12:22:01 17 C 56 % 8.17 C
303 08-08-2011 12:34:01 17 C 56 % 8.17 C
304 08-08-2011 12:46:01 17.3 C 53 % 7.64 C
305 08-08-2011 12:58:01 17.3 C 53 % 7.64 C
306 08-08-2011 13:10:01 17.3 C 53 % 7.64 C
307 08-08-2011 13:22:02 17.3 C 53 % 7.64 C
308 08-08-2011 13:34:01 17.3 C 53 % 7.64 C
309 08-08-2011 13:46:03 17.3 C 53 % 7.64 C
310 08-08-2011 13:58:03 17.3 C 53 % 7.64 C
311 08-08-2011 14:10:02 19.1 C 50 % 8.44 C
312 08-08-2011 14:22:02 19.1 C 50 % 8.44 C
313 08-08-2011 14:34:02 19.1 C 50 % 8.44 C
314 08-08-2011 14:46:02 19.1 C 50 % 8.44 C
315 08-08-2011 14:58:02 19.1 C 50 % 8.44 C
316 08-08-2011 15:10:02 19.1 C 50 % 8.44 C
317 08-08-2011 15:22:02 19.1 C 50 % 8.44 C
318 08-08-2011 15:34:01 19.1 C 50 % 8.44 C
319 08-08-2011 15:46:02 19.1 C 50 % 8.44 C
320 08-08-2011 15:58:03 19.1 C 50 % 8.44 C
321 08-08-2011 16:10:01 19.1 C 50 % 8.44 C
322 08-08-2011 16:22:02 19.1 C 50 % 8.44 C
323 08-08-2011 16:34:02 19.1 C 50 % 8.44 C
324 08-08-2011 16:46:02 19.1 C 50 % 8.44 C
325 08-08-2011 16:58:02 20.8 C 36 % 5.2 C
Sensor: Nr:Datum:Temp:Feuchte:Taupunkt:
Aussen-T/F 326 08-08-2011 17:10:02 20.3 C 35 % 4.35 C
327 08-08-2011 17:22:02 20.7 C 36 % 5.11 C
328 08-08-2011 17:34:02 20.2 C 36 % 4.67 C
329 08-08-2011 17:46:01 20.2 C 36 % 4.67 C
330 08-08-2011 17:58:01 23.9 C 30 % 5.28 C
331 08-08-2011 18:10:02 21.4 C 33 % 4.48 C
332 08-08-2011 18:22:01 19.8 C 39 % 5.46 C
333 08-08-2011 18:34:02 19.6 C 40 % 5.64 C
334 08-08-2011 18:46:02 19.6 C 40 % 5.64 C
335 08-08-2011 18:58:02 19.6 C 40 % 5.64 C
336 08-08-2011 19:10:02 19.6 C 40 % 5.64 C
337 08-08-2011 19:22:02 18.5 C 42 % 5.36 C
338 08-08-2011 19:34:02 18.3 C 43 % 5.52 C
339 08-08-2011 19:46:02 18.3 C 43 % 5.52 C
340 08-08-2011 19:58:02 18.3 C 43 % 5.52 C
341 08-08-2011 20:10:02 18.3 C 43 % 5.52 C
342 08-08-2011 20:22:02 18.3 C 43 % 5.52 C
343 08-08-2011 20:34:01 18.3 C 43 % 5.52 C
344 08-08-2011 20:46:02 18.3 C 43 % 5.52 C
345 08-08-2011 20:58:02 18.3 C 43 % 5.52 C
346 08-08-2011 21:10:01 18.3 C 43 % 5.52 C
347 08-08-2011 21:22:02 13.3 C 83 % 10.48 C
348 08-08-2011 21:34:01 13.3 C 83 % 10.48 C
349 08-08-2011 21:46:02 13.3 C 83 % 10.48 C
350 08-08-2011 21:58:02 13.3 C 83 % 10.48 C
Sensor: Nr:Datum:Temp:Feuchte:Taupunkt:
Aussen-T/F 351 08-08-2011 22:10:01 13.3 C 83 % 10.48 C
352 08-08-2011 22:22:02 13.3 C 83 % 10.48 C
353 08-08-2011 22:35:03 12.7 C 82 % 9.71 C
354 08-08-2011 22:47:03 12.6 C 83 % 9.79 C
355 08-08-2011 22:59:03 12.6 C 83 % 9.79 C
356 08-08-2011 23:11:03 12.6 C 84 % 9.97 C
357 08-08-2011 23:23:04 12.7 C 83 % 9.89 C
358 08-08-2011 23:35:04 12.8 C 81 % 9.62 C
359 08-08-2011 23:47:04 12.8 C 81 % 9.62 C
360 08-08-2011 23:59:04 12.7 C 82 % 9.71 C
361 09-08-2011 00:11:04 12.7 C 82 % 9.71 C
362 09-08-2011 00:23:04 12.9 C 82 % 9.9 C
363 09-08-2011 00:35:04 13.2 C 79 % 9.64 C
364 09-08-2011 00:47:04 13.3 C 77 % 9.36 C
365 09-08-2011 00:59:04 13.3 C 77 % 9.36 C
366 09-08-2011 01:11:04 13.1 C 79 % 9.54 C
367 09-08-2011 01:23:04 13.5 C 78 % 9.74 C
368 09-08-2011 01:35:04 13.7 C 76 % 9.55 C
369 09-08-2011 01:47:04 13.6 C 76 % 9.45 C
370 09-08-2011 01:59:04 13.6 C 76 % 9.45 C
371 09-08-2011 02:11:04 13.4 C 77 % 9.45 C
372 09-08-2011 02:23:05 13.4 C 77 % 9.45 C
373 09-08-2011 02:35:05 13.8 C 73 % 9.05 C
374 09-08-2011 02:47:05 13.9 C 72 % 8.94 C
375 09-08-2011 02:59:05 13.9 C 72 % 8.94 C
Sensor: Nr:Datum:Temp:Feuchte:Taupunkt:
Aussen-T/F 376 09-08-2011 03:11:05 13.9 C 71 % 8.73 C
377 09-08-2011 03:23:05 13.9 C 71 % 8.73 C
378 09-08-2011 03:35:05 13.9 C 71 % 8.73 C
379 09-08-2011 03:47:05 13.9 C 71 % 8.73 C
380 09-08-2011 03:59:05 13.9 C 71 % 8.73 C
381 09-08-2011 04:11:05 13.9 C 71 % 8.73 C
382 09-08-2011 04:23:05 13.9 C 71 % 8.73 C
383 09-08-2011 04:35:05 13.6 C 69 % 8.03 C
384 09-08-2011 04:47:05 13.6 C 69 % 8.03 C
385 09-08-2011 04:59:05 13.7 C 69 % 8.12 C
386 09-08-2011 05:11:05 13.7 C 68 % 7.91 C
387 09-08-2011 05:23:05 13.6 C 68 % 7.81 C
388 09-08-2011 05:35:05 13.6 C 68 % 7.81 C
389 09-08-2011 05:47:05 13.6 C 68 % 7.81 C
390 09-08-2011 05:59:05 13.8 C 68 % 8 C
391 09-08-2011 06:11:05 13.8 C 68 % 8 C
392 09-08-2011 06:23:05 13.6 C 70 % 8.24 C
393 09-08-2011 06:35:05 13.7 C 69 % 8.12 C
394 09-08-2011 06:47:06 13.7 C 69 % 8.12 C
395 09-08-2011 06:59:06 13.7 C 69 % 8.12 C
396 09-08-2011 07:11:06 13.6 C 70 % 8.24 C
397 09-08-2011 07:23:03 13.6 C 70 % 8.24 C
398 09-08-2011 07:35:02 13.7 C 69 % 8.12 C
399 09-08-2011 07:47:03 13.7 C 69 % 8.12 C
400 09-08-2011 07:59:03 14.2 C 66 % 7.95 C
Sensor: Nr:Datum:Temp:Feuchte:Taupunkt:
Aussen-T/F 401 09-08-2011 08:11:02 14.2 C 66 % 7.95 C
402 09-08-2011 08:23:02 14.2 C 66 % 7.95 C
403 09-08-2011 08:35:02 14.2 C 66 % 7.95 C
404 09-08-2011 08:47:02 14.2 C 66 % 7.95 C
405 09-08-2011 08:59:02 14.2 C 66 % 7.95 C
406 09-08-2011 09:11:02 14.9 C 64 % 8.16 C
407 09-08-2011 09:23:02 14.9 C 66 % 8.61 C
408 09-08-2011 09:35:02 14.9 C 65 % 8.39 C
409 09-08-2011 09:47:02 14.6 C 66 % 8.33 C
410 09-08-2011 09:59:02 13.5 C 76 % 9.36 C
411 09-08-2011 10:11:02 13.2 C 80 % 9.83 C
412 09-08-2011 10:23:02 13.1 C 82 % 10.1 C
413 09-08-2011 10:35:02 13.4 C 84 % 10.75 C
414 09-08-2011 10:47:02 13.3 C 84 % 10.66 C
415 09-08-2011 10:59:02 13.3 C 84 % 10.66 C
416 09-08-2011 11:11:02 14.4 C 80 % 11 C
417 09-08-2011 11:23:02 14.2 C 79 % 10.61 C
418 09-08-2011 11:35:02 14.8 C 79 % 11.2 C
419 09-08-2011 11:47:02 16.3 C 71 % 11.04 C
420 09-08-2011 11:59:02 16.2 C 72 % 11.15 C
421 09-08-2011 12:11:02 16.2 C 72 % 11.15 C
422 09-08-2011 12:23:01 16.2 C 72 % 11.15 C
423 09-08-2011 12:35:02 16.2 C 72 % 11.15 C
424 09-08-2011 12:47:02 16.2 C 72 % 11.15 C
425 09-08-2011 12:59:02 16.2 C 72 % 11.15 C
Sensor: Nr:Datum:Temp:Feuchte:Taupunkt:
Aussen-T/F 426 09-08-2011 13:11:02 16.2 C 72 % 11.15 C
427 09-08-2011 13:23:01 16.2 C 72 % 11.15 C
428 09-08-2011 13:35:02 16.2 C 72 % 11.15 C
429 09-08-2011 13:47:02 16.2 C 72 % 11.15 C
430 09-08-2011 13:59:02 16.2 C 72 % 11.15 C
431 09-08-2011 14:11:02 16.2 C 72 % 11.15 C
432 09-08-2011 14:23:02 16.2 C 72 % 11.15 C
433 09-08-2011 14:35:02 16.2 C 72 % 11.15 C
434 09-08-2011 14:47:02 16.2 C 72 % 11.15 C
435 09-08-2011 14:59:02 16.2 C 72 % 11.15 C
436 09-08-2011 15:11:02 16.2 C 72 % 11.15 C
437 09-08-2011 15:23:03 16.2 C 72 % 11.15 C
438 09-08-2011 15:35:02 16.2 C 72 % 11.15 C
439 09-08-2011 15:47:02 16.2 C 72 % 11.15 C
440 09-08-2011 15:59:02 16.2 C 72 % 11.15 C
441 09-08-2011 16:11:01 16.2 C 72 % 11.15 C
442 09-08-2011 16:23:01 16.2 C 72 % 11.15 C
443 09-08-2011 16:35:01 16.2 C 72 % 11.15 C
444 09-08-2011 16:47:02 16.2 C 72 % 11.15 C
445 09-08-2011 16:59:02 16.2 C 72 % 11.15 C
446 09-08-2011 17:11:02 16.2 C 72 % 11.15 C
447 09-08-2011 17:23:02 16.2 C 72 % 11.15 C
448 09-08-2011 17:35:02 16.2 C 72 % 11.15 C
449 09-08-2011 17:47:02 16.2 C 72 % 11.15 C
450 09-08-2011 17:59:02 17.8 C 50 % 7.25 C
Sensor: Nr:Datum:Temp:Feuchte:Taupunkt:
Aussen-T/F 451 09-08-2011 18:11:01 17.8 C 50 % 7.25 C
452 09-08-2011 18:23:02 17.8 C 50 % 7.25 C
453 09-08-2011 18:35:02 19.1 C 37 % 4.08 C
454 09-08-2011 18:47:02 18.7 C 38 % 4.11 C
455 09-08-2011 18:59:02 17.4 C 41 % 4.03 C
456 09-08-2011 19:11:03 16.6 C 45 % 4.63 C
457 09-08-2011 19:23:02 16.7 C 46 % 5.04 C
458 09-08-2011 19:35:02 16.7 C 46 % 5.04 C
459 09-08-2011 19:47:01 16.7 C 46 % 5.04 C
460 09-08-2011 19:59:01 16.7 C 46 % 5.04 C
461 09-08-2011 20:11:02 16.7 C 46 % 5.04 C
462 09-08-2011 20:23:01 16.7 C 46 % 5.04 C
463 09-08-2011 20:35:02 16.7 C 46 % 5.04 C
464 09-08-2011 20:47:01 16.7 C 46 % 5.04 C
465 09-08-2011 20:59:01 16.7 C 46 % 5.04 C
466 09-08-2011 21:11:02 16.7 C 46 % 5.04 C
467 09-08-2011 21:23:01 16.7 C 46 % 5.04 C
468 09-08-2011 21:35:02 16.7 C 46 % 5.04 C
469 09-08-2011 21:47:01 16.7 C 46 % 5.04 C
470 09-08-2011 21:59:01 16.7 C 46 % 5.04 C
471 09-08-2011 22:11:02 16.7 C 46 % 5.04 C
472 09-08-2011 22:23:02 16.7 C 46 % 5.04 C
473 09-08-2011 22:36:03 16.7 C 46 % 5.04 C
474 09-08-2011 22:48:03 16.7 C 46 % 5.04 C
475 09-08-2011 23:00:03 16.7 C 46 % 5.04 C
Sensor: Nr:Datum:Temp:Feuchte:Taupunkt:
Aussen-T/F 476 09-08-2011 23:12:03 16.7 C 46 % 5.04 C
477 09-08-2011 23:24:03 16.7 C 46 % 5.04 C
478 09-08-2011 23:36:03 16.7 C 46 % 5.04 C
479 09-08-2011 23:48:03 16.7 C 46 % 5.04 C
480 10-08-2011 00:00:03 16.7 C 46 % 5.04 C
481 10-08-2011 00:12:03 16.7 C 46 % 5.04 C
482 10-08-2011 00:24:03 16.7 C 46 % 5.04 C
483 10-08-2011 00:36:03 16.7 C 46 % 5.04 C
484 10-08-2011 00:48:03 16.7 C 46 % 5.04 C
485 10-08-2011 01:00:03 16.7 C 46 % 5.04 C
486 10-08-2011 01:12:03 16.7 C 46 % 5.04 C
487 10-08-2011 01:24:03 16.7 C 46 % 5.04 C
488 10-08-2011 01:36:03 16.7 C 46 % 5.04 C
489 10-08-2011 01:48:03 16.7 C 46 % 5.04 C
490 10-08-2011 02:00:03 16.7 C 46 % 5.04 C
491 10-08-2011 02:12:03 16.7 C 46 % 5.04 C
492 10-08-2011 02:24:03 16.7 C 46 % 5.04 C
493 10-08-2011 02:36:03 16.7 C 46 % 5.04 C
494 10-08-2011 02:48:04 16.7 C 46 % 5.04 C
495 10-08-2011 03:00:04 16.7 C 46 % 5.04 C
496 10-08-2011 03:12:04 16.7 C 46 % 5.04 C
497 10-08-2011 03:24:04 16.7 C 46 % 5.04 C
498 10-08-2011 03:36:04 16.7 C 46 % 5.04 C
499 10-08-2011 03:48:04 16.7 C 46 % 5.04 C
500 10-08-2011 04:00:04 16.7 C 46 % 5.04 C
Sensor: Nr:Datum:Temp:Feuchte:Taupunkt:
Aussen-T/F 501 10-08-2011 04:12:04 16.7 C 46 % 5.04 C
502 10-08-2011 04:24:04 16.7 C 46 % 5.04 C
503 10-08-2011 04:36:04 16.7 C 46 % 5.04 C
504 10-08-2011 04:48:04 16.7 C 46 % 5.04 C
505 10-08-2011 05:00:04 16.7 C 46 % 5.04 C
506 10-08-2011 05:12:04 16.7 C 46 % 5.04 C
507 10-08-2011 05:24:04 16.7 C 46 % 5.04 C
508 10-08-2011 05:36:04 16.7 C 46 % 5.04 C
509 10-08-2011 05:48:04 16.7 C 46 % 5.04 C
510 10-08-2011 06:00:04 16.7 C 46 % 5.04 C
511 10-08-2011 06:12:04 16.7 C 46 % 5.04 C
512 10-08-2011 06:24:04 16.7 C 46 % 5.04 C
513 10-08-2011 06:36:04 9.3 C 80 % 6.03 C
514 10-08-2011 06:48:04 9.1 C 82 % 6.19 C
515 10-08-2011 07:00:05 9 C 83 % 6.27 C
516 10-08-2011 07:12:03 9 C 83 % 6.27 C
517 10-08-2011 07:24:03 9 C 83 % 6.27 C
518 10-08-2011 07:36:03 9 C 83 % 6.27 C
519 10-08-2011 07:48:02 9 C 83 % 6.27 C
520 10-08-2011 08:00:02 9 C 83 % 6.27 C
521 10-08-2011 08:12:02 9 C 83 % 6.27 C
522 10-08-2011 08:24:02 9 C 83 % 6.27 C
523 10-08-2011 08:36:02 9 C 83 % 6.27 C
524 10-08-2011 08:48:02 9 C 83 % 6.27 C
525 10-08-2011 09:00:02 9 C 83 % 6.27 C
Sensor: Nr:Datum:Temp:Feuchte:Taupunkt:
Aussen-T/F 526 10-08-2011 09:12:02 9 C 83 % 6.27 C
527 10-08-2011 09:24:02 9 C 83 % 6.27 C
528 10-08-2011 09:36:01 9 C 83 % 6.27 C
529 10-08-2011 09:48:02 9 C 83 % 6.27 C
530 10-08-2011 10:00:02 9 C 83 % 6.27 C
531 10-08-2011 10:12:01 9 C 83 % 6.27 C
532 10-08-2011 10:24:01 9 C 83 % 6.27 C
533 10-08-2011 10:36:02 9 C 83 % 6.27 C
534 10-08-2011 10:48:02 9 C 83 % 6.27 C
535 10-08-2011 11:00:02 9 C 83 % 6.27 C
536 10-08-2011 11:12:02 9 C 83 % 6.27 C
537 10-08-2011 11:24:02 9 C 83 % 6.27 C
538 10-08-2011 11:36:02 9 C 83 % 6.27 C
539 10-08-2011 11:48:02 9 C 83 % 6.27 C
540 10-08-2011 12:00:02 9 C 83 % 6.27 C
541 10-08-2011 12:12:02 9 C 83 % 6.27 C
542 10-08-2011 12:24:02 9 C 83 % 6.27 C
543 10-08-2011 12:36:02 9 C 83 % 6.27 C
544 10-08-2011 12:48:02 9 C 83 % 6.27 C
545 10-08-2011 13:00:02 9 C 83 % 6.27 C
546 10-08-2011 13:12:02 9 C 83 % 6.27 C
547 10-08-2011 13:24:02 9 C 83 % 6.27 C
548 10-08-2011 13:36:02 9 C 83 % 6.27 C
549 10-08-2011 13:48:02 9 C 83 % 6.27 C
550 10-08-2011 14:00:02 9 C 83 % 6.27 C
Sensor: Nr:Datum:Temp:Feuchte:Taupunkt:
Aussen-T/F 551 10-08-2011 14:12:02 9 C 83 % 6.27 C
552 10-08-2011 14:24:02 9 C 83 % 6.27 C
553 10-08-2011 14:36:01 9 C 83 % 6.27 C
554 10-08-2011 14:48:02 9 C 83 % 6.27 C
555 10-08-2011 15:00:02 9 C 83 % 6.27 C
556 10-08-2011 15:12:01 9 C 83 % 6.27 C
557 10-08-2011 15:24:02 9 C 83 % 6.27 C
558 10-08-2011 15:36:02 9 C 83 % 6.27 C
559 10-08-2011 15:48:02 9 C 83 % 6.27 C
560 10-08-2011 16:00:03 9 C 83 % 6.27 C
561 10-08-2011 16:12:02 9 C 83 % 6.27 C
562 10-08-2011 16:24:02 9 C 83 % 6.27 C
563 10-08-2011 16:36:02 9 C 83 % 6.27 C
564 10-08-2011 16:48:01 9 C 83 % 6.27 C
565 10-08-2011 17:00:01 9 C 83 % 6.27 C
566 10-08-2011 17:12:02 9 C 83 % 6.27 C
567 10-08-2011 17:24:01 9 C 83 % 6.27 C
568 10-08-2011 17:36:01 9 C 83 % 6.27 C
569 10-08-2011 17:48:01 9 C 83 % 6.27 C
570 10-08-2011 18:00:01 9 C 83 % 6.27 C
571 10-08-2011 18:12:02 9 C 83 % 6.27 C
572 10-08-2011 18:24:01 9 C 83 % 6.27 C
573 10-08-2011 18:36:01 9 C 83 % 6.27 C
574 10-08-2011 22:49:02 9 C 83 % 6.27 C
575 10-08-2011 23:01:02 9 C 83 % 6.27 C
Sensor: Nr:Datum:Temp:Feuchte:Taupunkt:
Aussen-T/F 576 10-08-2011 23:13:02 9 C 83 % 6.27 C
577 10-08-2011 23:25:02 9 C 83 % 6.27 C
578 10-08-2011 23:37:02 9 C 83 % 6.27 C
579 10-08-2011 23:49:02 9 C 83 % 6.27 C
580 11-08-2011 00:01:02 9 C 83 % 6.27 C
581 11-08-2011 00:13:02 9 C 83 % 6.27 C
582 11-08-2011 00:25:03 9 C 83 % 6.27 C
583 11-08-2011 00:37:03 9 C 83 % 6.27 C
584 11-08-2011 00:49:03 9 C 83 % 6.27 C
585 11-08-2011 01:01:03 9 C 83 % 6.27 C
586 11-08-2011 01:13:03 9 C 83 % 6.27 C
587 11-08-2011 01:25:03 9 C 83 % 6.27 C
588 11-08-2011 01:37:03 9 C 83 % 6.27 C
589 11-08-2011 01:49:03 9 C 83 % 6.27 C
590 11-08-2011 02:01:03 9 C 83 % 6.27 C
591 11-08-2011 02:13:03 9 C 83 % 6.27 C
592 11-08-2011 02:25:03 9 C 83 % 6.27 C
593 11-08-2011 02:37:03 9 C 83 % 6.27 C
594 11-08-2011 02:49:03 9 C 83 % 6.27 C
595 11-08-2011 03:01:03 9 C 83 % 6.27 C
596 11-08-2011 03:13:03 9 C 83 % 6.27 C
597 11-08-2011 03:25:03 9 C 83 % 6.27 C
598 11-08-2011 03:37:03 9 C 83 % 6.27 C
599 11-08-2011 03:49:03 9 C 83 % 6.27 C
600 11-08-2011 04:01:03 9 C 83 % 6.27 C
Sensor: Nr:Datum:Temp:Feuchte:Taupunkt:
Aussen-T/F 601 11-08-2011 04:13:03 9 C 83 % 6.27 C
602 11-08-2011 04:25:03 9 C 83 % 6.27 C
603 11-08-2011 04:37:03 9 C 83 % 6.27 C
604 11-08-2011 04:49:04 9 C 83 % 6.27 C
605 11-08-2011 05:01:04 9 C 83 % 6.27 C
606 11-08-2011 05:13:04 9 C 83 % 6.27 C
607 11-08-2011 05:25:04 9 C 83 % 6.27 C
608 11-08-2011 05:37:04 9 C 83 % 6.27 C
609 11-08-2011 05:49:04 9 C 83 % 6.27 C
610 11-08-2011 06:01:04 9 C 83 % 6.27 C
611 11-08-2011 06:13:04 9 C 83 % 6.27 C
612 11-08-2011 06:25:04 9 C 83 % 6.27 C
613 11-08-2011 06:37:04 9 C 83 % 6.27 C
614 11-08-2011 06:49:04 16.3 C 49 % 5.58 C
615 11-08-2011 07:01:04 16.4 C 49 % 5.67 C
616 11-08-2011 07:13:04 16.4 C 49 % 5.67 C
617 11-08-2011 07:25:04 16.5 C 49 % 5.76 C
618 11-08-2011 07:37:02 16.4 C 50 % 5.96 C
619 11-08-2011 07:49:02 16.4 C 50 % 5.96 C
620 11-08-2011 08:01:02 16.4 C 50 % 5.96 C
621 11-08-2011 08:13:02 16.4 C 50 % 5.96 C
622 11-08-2011 08:25:03 16.4 C 50 % 5.96 C
623 11-08-2011 08:37:02 16.4 C 50 % 5.96 C
624 11-08-2011 08:49:02 16.4 C 50 % 5.96 C
625 11-08-2011 09:01:02 16.4 C 50 % 5.96 C
Sensor: Nr:Datum:Temp:Feuchte:Taupunkt:
Aussen-T/F 626 11-08-2011 09:13:02 16.4 C 50 % 5.96 C
627 11-08-2011 09:25:02 16.4 C 50 % 5.96 C
628 11-08-2011 09:37:02 16.4 C 50 % 5.96 C
629 11-08-2011 09:49:02 16.4 C 50 % 5.96 C
630 11-08-2011 10:01:01 16.4 C 50 % 5.96 C
631 11-08-2011 10:13:01 16.4 C 50 % 5.96 C
632 11-08-2011 10:25:02 16.4 C 50 % 5.96 C
633 11-08-2011 10:37:02 16.4 C 50 % 5.96 C
634 11-08-2011 10:49:02 16.4 C 50 % 5.96 C
635 11-08-2011 11:01:02 16.4 C 50 % 5.96 C
636 11-08-2011 11:13:02 16.4 C 50 % 5.96 C
637 11-08-2011 11:25:02 16.4 C 50 % 5.96 C
638 11-08-2011 11:37:02 16.4 C 50 % 5.96 C
639 11-08-2011 11:49:02 16.4 C 50 % 5.96 C
640 11-08-2011 12:01:01 16.4 C 50 % 5.96 C
641 11-08-2011 12:13:01 16.4 C 50 % 5.96 C
642 11-08-2011 12:25:02 16.4 C 50 % 5.96 C
643 11-08-2011 12:37:02 16.4 C 50 % 5.96 C
644 11-08-2011 12:49:01 16.4 C 50 % 5.96 C
645 11-08-2011 13:01:02 16.4 C 50 % 5.96 C
646 11-08-2011 13:13:02 16.4 C 50 % 5.96 C
647 11-08-2011 13:25:01 16.4 C 50 % 5.96 C
648 11-08-2011 13:37:02 16.4 C 50 % 5.96 C
649 11-08-2011 13:49:02 16.4 C 50 % 5.96 C
650 11-08-2011 14:01:02 16.4 C 50 % 5.96 C
Sensor: Nr:Datum:Temp:Feuchte:Taupunkt:
Aussen-T/F 651 11-08-2011 14:13:02 16.4 C 50 % 5.96 C
652 11-08-2011 14:25:01 16.4 C 50 % 5.96 C
653 11-08-2011 14:37:02 16.4 C 50 % 5.96 C
654 11-08-2011 14:49:02 16.4 C 50 % 5.96 C
655 11-08-2011 15:01:02 16.4 C 50 % 5.96 C
656 11-08-2011 15:13:02 16.4 C 50 % 5.96 C
657 11-08-2011 15:25:01 16.4 C 50 % 5.96 C
658 11-08-2011 15:37:02 16.4 C 50 % 5.96 C
659 11-08-2011 15:49:01 16.4 C 50 % 5.96 C
660 11-08-2011 16:01:02 16.4 C 50 % 5.96 C
661 11-08-2011 16:13:02 16.4 C 50 % 5.96 C
662 11-08-2011 16:25:02 16.4 C 50 % 5.96 C
663 11-08-2011 16:37:02 16.4 C 50 % 5.96 C
664 11-08-2011 16:49:02 16.4 C 50 % 5.96 C
665 11-08-2011 17:01:02 24.2 C 36 % 8.2 C
666 11-08-2011 17:13:02 24.5 C 39 % 9.65 C
667 11-08-2011 17:25:02 23.7 C 45 % 11.07 C
668 11-08-2011 17:37:01 23.2 C 45 % 10.62 C
669 11-08-2011 17:49:02 24 C 44 % 11 C
670 11-08-2011 18:01:01 25.1 C 41 % 10.93 C
671 11-08-2011 18:13:01 25.8 C 36 % 9.61 C
672 11-08-2011 18:25:02 23.3 C 41 % 9.32 C
673 11-08-2011 18:37:02 23.3 C 41 % 9.32 C
674 11-08-2011 18:49:02 21.4 C 45 % 8.99 C
675 11-08-2011 19:01:02 21.7 C 35 % 5.58 C
Sensor: Nr:Datum:Temp:Feuchte:Taupunkt:
Aussen-T/F 676 11-08-2011 19:13:02 22.5 C 30 % 4.08 C
677 11-08-2011 19:25:02 21.2 C 40 % 7.08 C
678 11-08-2011 19:37:02 20.4 C 44 % 7.75 C
679 11-08-2011 19:49:01 20.5 C 45 % 8.17 C
680 11-08-2011 20:01:02 20.7 C 40 % 6.63 C
681 11-08-2011 20:13:02 19.9 C 48 % 8.57 C
682 11-08-2011 20:25:01 18.9 C 51 % 8.55 C
683 11-08-2011 20:37:01 18.1 C 54 % 8.65 C
684 11-08-2011 20:49:01 17.7 C 57 % 9.08 C
685 11-08-2011 21:01:02 17.6 C 57 % 8.99 C
686 11-08-2011 21:13:02 17.4 C 57 % 8.8 C
687 11-08-2011 21:25:01 17 C 60 % 9.19 C
688 11-08-2011 21:37:01 16.6 C 61 % 9.06 C
689 11-08-2011 21:49:01 16.3 C 63 % 9.25 C
690 11-08-2011 22:01:02 16.5 C 65 % 9.9 C
691 11-08-2011 22:13:02 16.5 C 65 % 9.9 C
692 11-08-2011 22:26:02 16.4 C 66 % 10.04 C
693 11-08-2011 22:38:02 16.6 C 67 % 10.45 C
694 11-08-2011 22:50:02 17.1 C 64 % 10.24 C
695 11-08-2011 23:02:02 16.8 C 65 % 10.19 C
696 11-08-2011 23:14:03 16.1 C 67 % 9.98 C
697 11-08-2011 23:26:03 16.2 C 69 % 10.51 C
698 11-08-2011 23:38:03 16.6 C 68 % 10.67 C
699 11-08-2011 23:50:03 16.7 C 68 % 10.77 C
700 12-08-2011 00:02:03 16.7 C 67 % 10.55 C
Sensor: Nr:Datum:Temp:Feuchte:Taupunkt:
Aussen-T/F 701 12-08-2011 00:14:03 16.7 C 67 % 10.55 C
702 12-08-2011 00:26:03 16.6 C 67 % 10.45 C
703 12-08-2011 00:38:03 16.9 C 66 % 10.51 C
704 12-08-2011 00:50:03 16.9 C 67 % 10.74 C
705 12-08-2011 01:02:03 16.9 C 65 % 10.28 C
706 12-08-2011 01:14:03 16.6 C 67 % 10.45 C
707 12-08-2011 01:26:03 16.9 C 66 % 10.51 C
708 12-08-2011 01:38:03 17 C 65 % 10.38 C
709 12-08-2011 01:50:04 17 C 65 % 10.38 C
710 12-08-2011 02:02:04 17.1 C 64 % 10.24 C
711 12-08-2011 02:14:04 17 C 65 % 10.38 C
712 12-08-2011 02:26:04 16.8 C 66 % 10.42 C
713 12-08-2011 02:38:04 16.5 C 66 % 10.13 C
714 12-08-2011 02:50:04 16.4 C 66 % 10.04 C
715 12-08-2011 03:02:04 16.7 C 66 % 10.32 C
716 12-08-2011 03:14:04 17.1 C 60 % 9.28 C
717 12-08-2011 03:26:04 17.1 C 61 % 9.53 C
718 12-08-2011 03:38:05 17.2 C 60 % 9.37 C
719 12-08-2011 03:50:05 17 C 62 % 9.67 C
720 12-08-2011 04:02:05 16.9 C 63 % 9.82 C
721 12-08-2011 04:14:05 16.8 C 61 % 9.24 C
722 12-08-2011 04:26:05 15.7 C 70 % 10.25 C
723 12-08-2011 04:38:05 15.2 C 76 % 11 C
724 12-08-2011 04:50:05 15.2 C 78 % 11.39 C
725 12-08-2011 05:02:05 15 C 79 % 11.39 C
Sensor: Nr:Datum:Temp:Feuchte:Taupunkt:
Aussen-T/F 726 12-08-2011 05:14:05 14.7 C 81 % 11.48 C
727 12-08-2011 05:26:05 14.7 C 82 % 11.66 C
728 12-08-2011 05:38:05 14.8 C 83 % 11.94 C
729 12-08-2011 05:50:05 14.8 C 82 % 11.76 C
730 12-08-2011 06:02:05 14.8 C 82 % 11.76 C
731 12-08-2011 06:14:05 15 C 81 % 11.77 C
732 12-08-2011 06:26:05 14.8 C 81 % 11.57 C
733 12-08-2011 06:38:02 14.9 C 81 % 11.67 C
734 12-08-2011 06:50:02 15.1 C 80 % 11.68 C
735 12-08-2011 07:02:03 15.5 C 79 % 11.88 C
736 12-08-2011 07:14:03 15.8 C 77 % 11.78 C
737 12-08-2011 07:26:02 16.2 C 74 % 11.56 C
738 12-08-2011 07:38:02 16.3 C 74 % 11.66 C
739 12-08-2011 07:50:01 16.9 C 71 % 11.61 C
740 12-08-2011 08:02:01 17 C 67 % 10.83 C
741 12-08-2011 08:14:01 17 C 68 % 11.06 C
742 12-08-2011 08:26:01 16.8 C 70 % 11.3 C
743 12-08-2011 08:38:01 17.3 C 69 % 11.56 C
744 12-08-2011 08:50:01 17.8 C 67 % 11.6 C
745 12-08-2011 09:02:01 17.8 C 67 % 11.6 C
746 12-08-2011 09:14:01 17.9 C 67 % 11.69 C
747 12-08-2011 09:26:02 17.9 C 66 % 11.46 C
748 12-08-2011 09:38:01 18.3 C 65 % 11.61 C
749 12-08-2011 09:50:02 18.3 C 64 % 11.38 C
750 12-08-2011 10:02:02 18.8 C 63 % 11.61 C
Sensor: Nr:Datum:Temp:Feuchte:Taupunkt:
Aussen-T/F 751 12-08-2011 10:14:02 18.9 C 62 % 11.47 C
752 12-08-2011 10:26:02 19.1 C 61 % 11.41 C
753 12-08-2011 10:38:02 18.7 C 63 % 11.52 C
754 12-08-2011 10:50:02 18.8 C 63 % 11.61 C
755 12-08-2011 11:02:01 19.1 C 61 % 11.41 C
756 12-08-2011 11:14:01 18.9 C 63 % 11.71 C
757 12-08-2011 11:26:02 18.8 C 63 % 11.61 C
758 12-08-2011 11:38:02 18.9 C 63 % 11.71 C
759 12-08-2011 11:50:02 19.1 C 62 % 11.65 C
760 12-08-2011 12:02:02 18.6 C 65 % 11.9 C
761 12-08-2011 12:14:02 18.5 C 67 % 12.26 C
762 12-08-2011 12:26:02 18.5 C 69 % 12.71 C
763 12-08-2011 12:38:02 17.9 C 75 % 13.41 C
764 12-08-2011 12:50:02 17.7 C 78 % 13.82 C
765 12-08-2011 13:02:02 18 C 77 % 13.91 C
766 12-08-2011 13:14:02 18.3 C 76 % 14 C
767 12-08-2011 13:26:02 18.7 C 72 % 13.55 C
768 12-08-2011 13:38:02 19 C 71 % 13.63 C
769 12-08-2011 13:50:02 19.3 C 70 % 13.69 C
770 12-08-2011 14:02:02 19.7 C 67 % 13.4 C
771 12-08-2011 14:14:02 20.6 C 62 % 13.07 C
772 12-08-2011 14:26:03 21 C 60 % 12.94 C
773 12-08-2011 14:38:02 20.3 C 62 % 12.79 C
774 12-08-2011 14:50:02 19.2 C 69 % 13.38 C
775 12-08-2011 15:02:02 19.3 C 72 % 14.13 C
Sensor: Nr:Datum:Temp:Feuchte:Taupunkt:
Aussen-T/F 776 12-08-2011 15:14:02 19.9 C 72 % 14.7 C
777 12-08-2011 15:26:02 20.5 C 66 % 13.93 C
778 12-08-2011 15:38:02 22.4 C 61 % 14.51 C
779 12-08-2011 15:50:02 22.1 C 58 % 13.45 C
780 12-08-2011 16:02:02 21.2 C 58 % 12.61 C
781 12-08-2011 16:14:02 21.9 C 58 % 13.27 C
782 12-08-2011 16:26:01 22.4 C 54 % 12.64 C
783 12-08-2011 16:38:02 22.2 C 54 % 12.45 C
784 12-08-2011 16:50:01 21.5 C 56 % 12.36 C
785 12-08-2011 17:02:02 20.1 C 62 % 12.6 C
786 12-08-2011 17:14:02 18.9 C 73 % 13.96 C
787 12-08-2011 17:26:02 18.6 C 79 % 14.89 C
788 12-08-2011 17:38:02 19 C 79 % 15.28 C
789 12-08-2011 17:50:02 20 C 75 % 15.43 C
790 12-08-2011 18:02:01 19.3 C 76 % 14.97 C
791 12-08-2011 18:14:01 18.6 C 77 % 14.49 C
792 12-08-2011 18:26:02 18.9 C 79 % 15.18 C
793 12-08-2011 18:38:01 18.8 C 81 % 15.47 C
794 12-08-2011 18:50:01 18.6 C 82 % 15.47 C
795 12-08-2011 19:02:01 18.5 C 82 % 15.37 C
796 12-08-2011 19:14:01 18.2 C 81 % 14.89 C
797 12-08-2011 19:26:01 18 C 81 % 14.69 C
798 12-08-2011 19:38:02 18 C 80 % 14.5 C
799 12-08-2011 19:50:02 18.2 C 78 % 14.3 C
800 12-08-2011 20:02:02 18 C 79 % 14.31 C
Sensor: Nr:Datum:Temp:Feuchte:Taupunkt:
Aussen-T/F 801 12-08-2011 20:14:02 18.1 C 78 % 14.21 C
802 12-08-2011 20:26:02 17.6 C 82 % 14.49 C
803 12-08-2011 20:38:02 17.3 C 83 % 14.39 C
804 12-08-2011 20:50:02 17.2 C 84 % 14.47 C
805 12-08-2011 21:02:02 17.1 C 85 % 14.56 C
806 12-08-2011 21:14:02 17 C 85 % 14.46 C
807 12-08-2011 21:26:01 17.1 C 85 % 14.56 C
808 12-08-2011 21:38:02 16.9 C 85 % 14.36 C
809 12-08-2011 21:50:02 16.8 C 85 % 14.26 C
810 12-08-2011 22:02:02 16.8 C 84 % 14.08 C
811 12-08-2011 22:14:02 16.6 C 84 % 13.89 C
812 12-08-2011 22:26:02 16.5 C 85 % 13.97 C
813 12-08-2011 22:39:02 16.6 C 85 % 14.07 C
814 12-08-2011 22:51:02 16.6 C 85 % 14.07 C
815 12-08-2011 23:03:02 17 C 83 % 14.09 C
816 12-08-2011 23:15:02 16.6 C 84 % 13.89 C
817 12-08-2011 23:27:02 16.5 C 85 % 13.97 C
818 12-08-2011 23:39:02 16.5 C 85 % 13.97 C
819 12-08-2011 23:51:02 16.9 C 83 % 14 C
820 13-08-2011 00:03:02 16.6 C 83 % 13.7 C
821 13-08-2011 00:15:02 16.3 C 83 % 13.41 C
822 13-08-2011 00:27:02 16.3 C 84 % 13.59 C
823 13-08-2011 00:39:02 16.4 C 84 % 13.69 C
824 13-08-2011 00:51:03 16.5 C 83 % 13.6 C
825 13-08-2011 01:03:03 16.4 C 83 % 13.51 C
Sensor: Nr:Datum:Temp:Feuchte:Taupunkt:
Aussen-T/F 826 13-08-2011 01:15:03 16.3 C 83 % 13.41 C
827 13-08-2011 01:27:03 16.4 C 84 % 13.69 C
828 13-08-2011 01:39:03 16.3 C 84 % 13.59 C
829 13-08-2011 01:51:03 16.3 C 83 % 13.41 C
830 13-08-2011 02:03:03 16.3 C 83 % 13.41 C
831 13-08-2011 02:15:03 16.2 C 82 % 13.13 C
832 13-08-2011 02:27:03 16.2 C 83 % 13.31 C
833 13-08-2011 02:39:03 15.8 C 84 % 13.1 C
834 13-08-2011 02:51:03 15.8 C 85 % 13.28 C
835 13-08-2011 03:03:03 15.9 C 85 % 13.38 C
836 13-08-2011 03:15:03 16.2 C 83 % 13.31 C
837 13-08-2011 03:27:03 16.2 C 83 % 13.31 C
838 13-08-2011 03:39:03 16.3 C 82 % 13.22 C
839 13-08-2011 03:51:03 16.4 C 81 % 13.13 C
840 13-08-2011 04:03:03 16.2 C 81 % 12.94 C
841 13-08-2011 04:15:03 16.1 C 81 % 12.84 C
842 13-08-2011 04:27:03 15.9 C 83 % 13.02 C
843 13-08-2011 04:39:03 16.1 C 83 % 13.21 C
844 13-08-2011 04:51:04 16.5 C 82 % 13.42 C
845 13-08-2011 05:03:04 16.2 C 82 % 13.13 C
846 13-08-2011 05:15:04 16.4 C 81 % 13.13 C
847 13-08-2011 05:27:04 16.4 C 81 % 13.13 C
848 13-08-2011 05:39:04 16.5 C 79 % 12.85 C
849 13-08-2011 05:51:04 16.4 C 80 % 12.94 C
850 13-08-2011 06:03:04 16.2 C 81 % 12.94 C
Sensor: Nr:Datum:Temp:Feuchte:Taupunkt:
Aussen-T/F 851 13-08-2011 06:15:04 16.2 C 82 % 13.13 C
852 13-08-2011 06:27:04 16.1 C 83 % 13.21 C
853 13-08-2011 06:39:04 16.2 C 83 % 13.31 C
854 13-08-2011 06:51:04 16.1 C 82 % 13.03 C
855 13-08-2011 07:03:04 16.1 C 83 % 13.21 C
856 13-08-2011 07:15:04 16.3 C 83 % 13.41 C
857 13-08-2011 07:27:04 16.5 C 83 % 13.6 C
858 13-08-2011 07:39:04 16.6 C 82 % 13.52 C
859 13-08-2011 07:51:01 17 C 79 % 13.33 C
860 13-08-2011 08:03:02 17.6 C 75 % 13.12 C
861 13-08-2011 08:15:01 17.7 C 73 % 12.8 C
862 13-08-2011 08:27:01 17.7 C 74 % 13.01 C
863 13-08-2011 08:39:02 17.7 C 74 % 13.01 C
864 13-08-2011 08:51:03 17.7 C 76 % 13.42 C
865 13-08-2011 09:03:02 17.7 C 76 % 13.42 C
866 13-08-2011 09:15:03 17.9 C 74 % 13.2 C
867 13-08-2011 09:27:03 18.2 C 72 % 13.07 C
868 13-08-2011 09:39:02 18.3 C 71 % 12.95 C
869 13-08-2011 09:51:03 18.8 C 68 % 12.77 C
870 13-08-2011 10:03:02 18.6 C 69 % 12.8 C
871 13-08-2011 10:15:02 18.8 C 68 % 12.77 C
872 13-08-2011 10:27:02 18.9 C 68 % 12.87 C
873 13-08-2011 10:39:02 19.9 C 61 % 12.16 C
874 13-08-2011 10:51:02 19.9 C 62 % 12.41 C
875 13-08-2011 11:03:02 19.8 C 62 % 12.31 C
Sensor: Nr:Datum:Temp:Feuchte:Taupunkt:
Aussen-T/F 876 13-08-2011 11:15:02 20.4 C 61 % 12.63 C
877 13-08-2011 11:27:03 20.3 C 59 % 12.03 C
878 13-08-2011 11:39:01 20.2 C 60 % 12.19 C
879 13-08-2011 11:51:02 20.3 C 60 % 12.29 C
880 13-08-2011 12:03:01 20.6 C 59 % 12.31 C
881 13-08-2011 12:15:02 21.7 C 56 % 12.54 C
882 13-08-2011 12:27:02 22 C 56 % 12.82 C
883 13-08-2011 12:39:01 22.7 C 52 % 12.34 C
884 13-08-2011 12:51:02 23.1 C 49 % 11.81 C
885 13-08-2011 13:03:02 23 C 48 % 11.41 C
886 13-08-2011 13:15:02 24.1 C 45 % 11.43 C
887 13-08-2011 13:27:02 23 C 46 % 10.76 C
888 13-08-2011 13:39:03 24.1 C 43 % 10.75 C
889 13-08-2011 13:51:02 24.2 C 43 % 10.84 C
890 13-08-2011 14:03:01 24.7 C 42 % 10.93 C
891 13-08-2011 14:15:02 24.6 C 41 % 10.48 C
892 13-08-2011 14:27:02 24.1 C 43 % 10.75 C
893 13-08-2011 14:39:01 24.1 C 46 % 11.76 C
894 13-08-2011 14:51:01 24 C 43 % 10.66 C
895 13-08-2011 15:03:02 24.7 C 41 % 10.57 C
896 13-08-2011 15:15:02 24.3 C 41 % 10.21 C
897 13-08-2011 15:27:02 24.1 C 41 % 10.03 C
898 13-08-2011 15:39:02 25 C 43 % 11.56 C
899 13-08-2011 15:51:01 25.7 C 39 % 10.71 C
900 13-08-2011 16:03:02 24.7 C 39 % 9.82 C
Sensor: Nr:Datum:Temp:Feuchte:Taupunkt:
Aussen-T/F 901 13-08-2011 16:15:02 24.4 C 43 % 11.02 C
902 13-08-2011 16:27:02 24.3 C 44 % 11.27 C
903 13-08-2011 16:39:01 23.3 C 45 % 10.71 C
904 13-08-2011 16:51:01 22.9 C 52 % 12.53 C
905 13-08-2011 17:03:01 21.6 C 63 % 14.26 C
906 13-08-2011 17:15:02 20.3 C 67 % 13.97 C
907 13-08-2011 17:27:02 21.2 C 68 % 15.06 C
908 13-08-2011 17:39:01 22.2 C 66 % 15.55 C
909 13-08-2011 17:51:02 21.9 C 62 % 14.29 C
910 13-08-2011 18:03:01 21.4 C 70 % 15.7 C
911 13-08-2011 18:15:01 21 C 72 % 15.76 C
912 13-08-2011 18:27:02 20.3 C 75 % 15.72 C
913 13-08-2011 18:39:01 20 C 78 % 16.05 C
914 13-08-2011 18:51:02 19.9 C 81 % 16.54 C
915 13-08-2011 19:03:02 20 C 80 % 16.44 C
916 13-08-2011 19:15:02 19.9 C 81 % 16.54 C
917 13-08-2011 19:27:02 19.7 C 82 % 16.54 C
918 13-08-2011 19:39:02 19.4 C 83 % 16.44 C
919 13-08-2011 19:51:02 19.4 C 83 % 16.44 C
920 13-08-2011 20:03:02 19 C 83 % 16.05 C
921 13-08-2011 20:15:01 18.9 C 84 % 16.14 C
922 13-08-2011 20:27:01 18.7 C 85 % 16.13 C
923 13-08-2011 20:39:02 18.5 C 85 % 15.93 C
924 13-08-2011 20:51:02 18.4 C 85 % 15.83 C
925 13-08-2011 21:03:02 18.3 C 86 % 15.92 C
Sensor: Nr:Datum:Temp:Feuchte:Taupunkt:
Aussen-T/F 926 13-08-2011 21:15:01 18.2 C 86 % 15.82 C
927 13-08-2011 21:27:01 18.2 C 86 % 15.82 C
928 13-08-2011 21:39:02 18.1 C 87 % 15.9 C
929 13-08-2011 21:51:02 18.1 C 87 % 15.9 C
930 13-08-2011 22:03:02 18 C 87 % 15.8 C
931 13-08-2011 22:15:02 18 C 87 % 15.8 C
932 13-08-2011 22:27:02 17.9 C 88 % 15.88 C
933 13-08-2011 22:39:02 17.7 C 88 % 15.69 C
934 13-08-2011 22:51:02 17.7 C 88 % 15.69 C
935 13-08-2011 23:03:02 17.6 C 88 % 15.59 C
936 13-08-2011 23:15:02 17.6 C 88 % 15.59 C
937 13-08-2011 23:27:02 17.7 C 88 % 15.69 C
938 13-08-2011 23:39:02 17.5 C 88 % 15.49 C
939 13-08-2011 23:51:02 17.4 C 88 % 15.39 C
940 14-08-2011 00:03:02 17.5 C 88 % 15.49 C
941 14-08-2011 00:15:02 17.5 C 88 % 15.49 C
942 14-08-2011 00:27:03 17.5 C 89 % 15.67 C
943 14-08-2011 00:39:02 17.5 C 89 % 15.67 C
944 14-08-2011 00:51:02 17.5 C 89 % 15.67 C
945 14-08-2011 01:03:01 17.5 C 89 % 15.67 C
946 14-08-2011 01:15:02 17.5 C 89 % 15.67 C
947 14-08-2011 01:27:02 17.5 C 89 % 15.67 C
948 14-08-2011 01:39:02 17.5 C 89 % 15.67 C
949 14-08-2011 01:51:01 17.4 C 89 % 15.57 C
950 14-08-2011 02:03:02 17.5 C 89 % 15.67 C
Sensor: Nr:Datum:Temp:Feuchte:Taupunkt:
Aussen-T/F 951 14-08-2011 02:15:01 17.5 C 89 % 15.67 C
952 14-08-2011 02:27:01 17.4 C 89 % 15.57 C
953 14-08-2011 02:39:01 17.2 C 89 % 15.37 C
954 14-08-2011 02:52:03 17.2 C 89 % 15.37 C
955 14-08-2011 03:04:03 17.1 C 89 % 15.27 C
956 14-08-2011 03:16:03 17 C 89 % 15.17 C
957 14-08-2011 03:28:03 17.1 C 89 % 15.27 C
958 14-08-2011 03:40:02 17.2 C 89 % 15.37 C
959 14-08-2011 03:52:03 17.2 C 89 % 15.37 C
960 14-08-2011 04:04:01 17.2 C 89 % 15.37 C
961 14-08-2011 04:16:02 17.2 C 89 % 15.37 C
962 14-08-2011 04:28:02 17.2 C 89 % 15.37 C
963 14-08-2011 04:40:02 17.2 C 89 % 15.37 C
964 14-08-2011 04:52:02 16.9 C 89 % 15.08 C
965 14-08-2011 05:04:02 16.8 C 89 % 14.98 C
966 14-08-2011 05:16:02 16.7 C 89 % 14.88 C
967 14-08-2011 05:28:02 17 C 89 % 15.17 C
968 14-08-2011 05:40:02 17 C 89 % 15.17 C
969 14-08-2011 05:52:01 17.1 C 89 % 15.27 C
970 14-08-2011 06:04:02 17.2 C 89 % 15.37 C
971 14-08-2011 06:16:01 17.2 C 89 % 15.37 C
972 14-08-2011 06:28:01 17.2 C 89 % 15.37 C
973 14-08-2011 06:40:01 17.2 C 89 % 15.37 C
974 14-08-2011 06:52:01 17.4 C 89 % 15.57 C
975 14-08-2011 07:04:01 17.5 C 89 % 15.67 C
Sensor: Nr:Datum:Temp:Feuchte:Taupunkt:
Aussen-T/F 976 14-08-2011 07:16:02 17.5 C 89 % 15.67 C
977 14-08-2011 07:28:02 17.6 C 89 % 15.77 C
978 14-08-2011 07:40:01 17.9 C 89 % 16.06 C
979 14-08-2011 07:52:03 18.1 C 87 % 15.9 C
980 14-08-2011 08:04:02 18.5 C 87 % 16.3 C
981 14-08-2011 08:16:02 18.9 C 86 % 16.51 C
982 14-08-2011 08:28:02 19.1 C 85 % 16.52 C
983 14-08-2011 08:40:02 19.4 C 83 % 16.44 C
984 14-08-2011 08:52:02 19.7 C 77 % 15.56 C
985 14-08-2011 09:04:01 19.8 C 75 % 15.24 C
986 14-08-2011 09:16:02 19.7 C 77 % 15.56 C
987 14-08-2011 09:28:02 19.3 C 78 % 15.37 C
988 14-08-2011 09:40:02 19.1 C 81 % 15.76 C
989 14-08-2011 09:52:01 19.3 C 82 % 16.15 C
990 14-08-2011 10:04:01 19.7 C 79 % 15.96 C
991 14-08-2011 10:16:02 20.6 C 76 % 16.22 C
992 14-08-2011 10:28:02 20.3 C 74 % 15.51 C
993 14-08-2011 10:40:01 19.9 C 78 % 15.95 C
994 14-08-2011 10:52:02 19.8 C 78 % 15.85 C
995 14-08-2011 11:04:01 20.3 C 76 % 15.93 C
996 14-08-2011 11:16:02 20.8 C 69 % 14.91 C
997 14-08-2011 11:28:02 21.7 C 63 % 14.35 C
998 14-08-2011 11:40:01 21.6 C 64 % 14.5 C
999 14-08-2011 11:52:02 21.9 C 62 % 14.29 C
1000 14-08-2011 12:04:02 21.9 C 61 % 14.04 C
Sensor: Nr:Datum:Temp:Feuchte:Taupunkt:
Aussen-T/F 1001 14-08-2011 12:16:02 21.6 C 62 % 14.01 C
1002 14-08-2011 12:28:02 22 C 61 % 14.14 C
1003 14-08-2011 12:40:06 22 C 61 % 14.14 C
1004 14-08-2011 12:52:02 22 C 61 % 14.14 C
1005 14-08-2011 13:04:02 23.1 C 55 % 13.57 C
1006 14-08-2011 13:16:02 22.2 C 57 % 13.28 C
1007 14-08-2011 13:28:02 22.5 C 57 % 13.56 C
1008 14-08-2011 13:40:02 23.3 C 55 % 13.76 C
1009 14-08-2011 13:52:02 23.2 C 54 % 13.38 C
1010 14-08-2011 14:04:03 23.4 C 54 % 13.57 C
1011 14-08-2011 14:16:02 23.4 C 54 % 13.57 C
1012 14-08-2011 14:28:02 24.7 C 49 % 13.27 C
1013 14-08-2011 14:40:02 22.8 C 55 % 13.29 C
1014 14-08-2011 14:52:01 23.5 C 54 % 13.66 C
1015 14-08-2011 15:04:01 24.2 C 50 % 13.12 C
1016 14-08-2011 15:16:01 21 C 59 % 12.69 C
1017 14-08-2011 15:28:01 19.3 C 73 % 14.34 C
1018 14-08-2011 15:40:01 19.6 C 76 % 15.26 C
1019 14-08-2011 15:52:01 19.7 C 78 % 15.76 C
1020 14-08-2011 16:04:01 19.4 C 79 % 15.66 C
1021 14-08-2011 16:16:02 19.4 C 81 % 16.06 C
1022 14-08-2011 16:28:02 19.1 C 81 % 15.76 C
1023 14-08-2011 16:40:01 18.9 C 82 % 15.76 C
1024 14-08-2011 16:52:01 19.2 C 80 % 15.67 C
1025 14-08-2011 17:04:01 19 C 74 % 14.26 C
Sensor: Nr:Datum:Temp:Feuchte:Taupunkt:
Aussen-T/F 1026 14-08-2011 17:16:02 19 C 75 % 14.47 C
1027 14-08-2011 17:28:02 19.8 C 72 % 14.61 C
1028 14-08-2011 17:40:01 19.3 C 76 % 14.97 C
1029 14-08-2011 17:52:02 19.2 C 75 % 14.66 C
1030 14-08-2011 18:04:02 19.1 C 75 % 14.57 C
1031 14-08-2011 18:16:02 18.9 C 78 % 14.98 C
1032 14-08-2011 18:28:03 19.3 C 78 % 15.37 C
1033 14-08-2011 18:40:02 19.5 C 77 % 15.36 C
1034 14-08-2011 18:52:02 19.5 C 76 % 15.16 C
1035 14-08-2011 19:04:01 19.1 C 74 % 14.36 C
1036 14-08-2011 19:16:02 21.6 C 68 % 15.44 C
1037 14-08-2011 19:28:02 19.5 C 69 % 13.66 C
1038 14-08-2011 19:40:02 19.1 C 73 % 14.15 C
1039 14-08-2011 19:52:02 18.7 C 75 % 14.18 C
1040 14-08-2011 20:04:03 18.1 C 78 % 14.21 C
1041 14-08-2011 20:16:02 17.5 C 81 % 14.2 C
1042 14-08-2011 20:28:02 17.3 C 83 % 14.39 C
1043 14-08-2011 20:40:02 17.3 C 84 % 14.57 C
1044 14-08-2011 20:52:02 17 C 84 % 14.28 C
1045 14-08-2011 21:04:02 16.7 C 84 % 13.98 C
1046 14-08-2011 21:16:01 16.6 C 85 % 14.07 C
1047 14-08-2011 21:28:01 16.4 C 85 % 13.87 C
1048 14-08-2011 21:40:02 16.3 C 86 % 13.95 C
1049 14-08-2011 21:52:02 16.3 C 86 % 13.95 C
1050 14-08-2011 22:04:01 16.4 C 86 % 14.05 C
Sensor: Nr:Datum:Temp:Feuchte:Taupunkt:
Aussen-T/F 1051 14-08-2011 22:17:03 16.3 C 87 % 14.13 C
1052 14-08-2011 22:29:03 16.2 C 87 % 14.03 C
1053 14-08-2011 22:41:03 16.3 C 87 % 14.13 C
1054 14-08-2011 22:53:03 16.3 C 87 % 14.13 C
1055 14-08-2011 23:05:03 16.2 C 87 % 14.03 C
1056 14-08-2011 23:17:03 16 C 87 % 13.84 C
1057 14-08-2011 23:29:03 16 C 87 % 13.84 C
1058 14-08-2011 23:41:03 15.9 C 88 % 13.92 C
1059 14-08-2011 23:53:03 16.1 C 88 % 14.11 C
1060 15-08-2011 00:05:03 16.2 C 88 % 14.21 C
1061 15-08-2011 00:17:03 16.1 C 87 % 13.94 C
1062 15-08-2011 00:29:04 16.2 C 87 % 14.03 C
1063 15-08-2011 00:41:04 16.2 C 87 % 14.03 C
1064 15-08-2011 00:53:04 16 C 87 % 13.84 C
1065 15-08-2011 01:05:04 15.9 C 88 % 13.92 C
1066 15-08-2011 01:17:04 15.9 C 88 % 13.92 C
1067 15-08-2011 01:29:04 15.8 C 88 % 13.82 C
1068 15-08-2011 01:41:04 15.9 C 88 % 13.92 C
1069 15-08-2011 01:53:04 15.9 C 88 % 13.92 C
1070 15-08-2011 02:05:04 15.8 C 88 % 13.82 C
1071 15-08-2011 02:17:04 15.8 C 88 % 13.82 C
1072 15-08-2011 02:29:04 15.8 C 88 % 13.82 C
1073 15-08-2011 02:41:04 15.6 C 88 % 13.62 C
1074 15-08-2011 02:53:04 15.8 C 88 % 13.82 C
1075 15-08-2011 03:05:04 15.8 C 88 % 13.82 C
Sensor: Nr:Datum:Temp:Feuchte:Taupunkt:
Aussen-T/F 1076 15-08-2011 03:17:04 15.8 C 88 % 13.82 C
1077 15-08-2011 03:29:04 15.8 C 88 % 13.82 C
1078 15-08-2011 03:41:04 15.8 C 88 % 13.82 C
1079 15-08-2011 03:53:04 15.8 C 88 % 13.82 C
1080 15-08-2011 04:05:04 15.6 C 88 % 13.62 C
1081 15-08-2011 04:17:04 15.2 C 88 % 13.23 C
1082 15-08-2011 04:29:04 15.2 C 88 % 13.23 C
1083 15-08-2011 04:41:05 14.9 C 89 % 13.1 C
1084 15-08-2011 04:53:05 14.5 C 88 % 12.54 C
1085 15-08-2011 05:05:05 14.3 C 88 % 12.34 C
1086 15-08-2011 05:17:05 14.6 C 89 % 12.81 C
1087 15-08-2011 05:29:05 14.7 C 89 % 12.91 C
1088 15-08-2011 05:41:05 14.8 C 89 % 13.01 C
1089 15-08-2011 05:53:05 14.6 C 89 % 12.81 C
1090 15-08-2011 06:05:05 14.7 C 89 % 12.91 C
1091 15-08-2011 06:17:05 14.6 C 89 % 12.81 C
1092 15-08-2011 06:29:05 14.5 C 89 % 12.71 C
1093 15-08-2011 06:41:05 14.4 C 89 % 12.61 C
1094 15-08-2011 06:53:05 14.5 C 89 % 12.71 C
1095 15-08-2011 07:05:05 14.7 C 89 % 12.91 C
1096 15-08-2011 07:17:03 15.1 C 89 % 13.3 C
1097 15-08-2011 07:29:03 15.3 C 88 % 13.33 C
1098 15-08-2011 07:41:02 15.2 C 88 % 13.23 C
1099 15-08-2011 07:53:02 15.5 C 88 % 13.52 C
1100 15-08-2011 08:05:01 16 C 86 % 13.66 C
Sensor: Nr:Datum:Temp:Feuchte:Taupunkt:
Aussen-T/F 1101 15-08-2011 08:17:02 16.6 C 84 % 13.89 C
1102 15-08-2011 08:29:02 16.8 C 83 % 13.9 C
1103 15-08-2011 08:41:01 17.2 C 81 % 13.91 C
1104 15-08-2011 08:53:03 16.8 C 80 % 13.33 C
1105 15-08-2011 09:05:02 16.7 C 82 % 13.61 C
1106 15-08-2011 09:17:03 16.9 C 80 % 13.43 C
1107 15-08-2011 09:29:03 17.1 C 77 % 13.04 C
1108 15-08-2011 09:41:02 17.6 C 75 % 13.12 C
1109 15-08-2011 09:53:01 17.4 C 74 % 12.72 C
1110 15-08-2011 10:05:01 17.4 C 75 % 12.93 C
1111 15-08-2011 10:17:02 18.2 C 73 % 13.28 C
1112 15-08-2011 10:29:02 19 C 68 % 12.96 C
1113 15-08-2011 10:41:01 19.6 C 64 % 12.61 C
1114 15-08-2011 10:53:03 21.1 C 55 % 11.71 C
1115 15-08-2011 11:05:02 20.5 C 59 % 12.22 C
1116 15-08-2011 11:17:02 20.9 C 58 % 12.33 C
1117 15-08-2011 11:29:03 20.5 C 58 % 11.96 C
1118 15-08-2011 11:41:02 20.4 C 56 % 11.33 C
1119 15-08-2011 11:53:02 19.8 C 56 % 10.78 C
1120 15-08-2011 12:05:02 21.2 C 49 % 10.07 C
1121 15-08-2011 12:17:02 21.4 C 48 % 9.94 C
1122 15-08-2011 12:29:02 21.5 C 48 % 10.04 C
1123 15-08-2011 12:41:02 21.1 C 46 % 9.04 C
1124 15-08-2011 12:53:02 22 C 42 % 8.51 C
1125 15-08-2011 13:05:01 21.4 C 42 % 7.97 C
Sensor: Nr:Datum:Temp:Feuchte:Taupunkt:
Aussen-T/F 1126 15-08-2011 13:17:01 21.9 C 40 % 7.7 C
1127 15-08-2011 13:29:01 22.3 C 35 % 6.11 C
1128 15-08-2011 13:41:02 23.3 C 32 % 5.69 C
1129 15-08-2011 13:53:02 24.4 C 30 % 5.72 C
1130 15-08-2011 14:05:02 26.3 C 26 % 5.28 C
1131 15-08-2011 14:17:02 27.2 C 25 % 5.48 C
1132 15-08-2011 14:29:02 28.1 C 21 % 3.74 C
1133 15-08-2011 14:41:02 23.1 C 32 % 5.52 C
1134 15-08-2011 14:53:02 26 C 25 % 4.47 C
1135 15-08-2011 15:05:02 29.4 C 21 % 4.81 C
1136 15-08-2011 15:17:02 28 C 20 % 2.97 C
1137 15-08-2011 15:29:02 27.5 C 21 % 3.24 C
1138 15-08-2011 15:41:02 30.3 C 20 % 4.85 C
1139 15-08-2011 15:53:02 24.9 C 26 % 4.09 C
1140 15-08-2011 16:05:02 24.3 C 31 % 6.1 C
1141 15-08-2011 16:17:03 26.1 C 26 % 5.11 C
1142 15-08-2011 16:29:03 24.3 C 30 % 5.63 C
1143 15-08-2011 16:41:02 23.7 C 33 % 6.49 C
1144 15-08-2011 16:53:02 24.2 C 32 % 6.48 C
1145 15-08-2011 17:05:02 24.8 C 30 % 6.06 C
1146 15-08-2011 17:17:03 24.4 C 32 % 6.65 C
1147 15-08-2011 17:29:03 23.8 C 34 % 7.01 C
1148 15-08-2011 17:41:02 23.5 C 35 % 7.17 C
1149 15-08-2011 17:53:03 23.9 C 36 % 7.93 C
1150 15-08-2011 18:05:02 23.2 C 37 % 7.71 C
Sensor: Nr:Datum:Temp:Feuchte:Taupunkt:
Aussen-T/F 1151 15-08-2011 18:17:02 24.9 C 35 % 8.4 C
1152 15-08-2011 18:29:02 25.4 C 31 % 7.05 C
1153 15-08-2011 18:41:02 24.2 C 35 % 7.78 C
1154 15-08-2011 18:53:02 23.5 C 38 % 8.37 C
1155 15-08-2011 19:05:02 23.4 C 38 % 8.28 C
1156 15-08-2011 19:17:02 22.4 C 46 % 10.22 C
1157 15-08-2011 19:29:02 21.2 C 55 % 11.81 C
1158 15-08-2011 19:41:01 21.2 C 57 % 12.35 C
1159 15-08-2011 19:53:01 20 C 59 % 11.75 C
1160 15-08-2011 20:05:02 19.2 C 63 % 11.99 C
1161 15-08-2011 20:17:02 18.8 C 64 % 11.85 C
1162 15-08-2011 20:29:02 18.2 C 63 % 11.05 C
1163 15-08-2011 20:41:02 17.7 C 67 % 11.5 C
1164 15-08-2011 20:53:01 17.6 C 65 % 10.95 C
1165 15-08-2011 21:05:02 17.4 C 66 % 10.99 C
1166 15-08-2011 21:17:02 17.5 C 66 % 11.08 C
1167 15-08-2011 21:29:02 17.8 C 67 % 11.6 C
1168 15-08-2011 21:41:02 17.8 C 68 % 11.82 C
1169 15-08-2011 21:54:48 17.6 C 70 % 12.07 C
1170 15-08-2011 22:06:48 16.6 C 72 % 11.54 C
1171 15-08-2011 22:18:48 16.6 C 72 % 11.54 C
1172 15-08-2011 22:30:48 17 C 66 % 10.61 C
1173 15-08-2011 22:42:48 16.8 C 69 % 11.09 C
1174 15-08-2011 22:54:48 16.5 C 71 % 11.23 C
1175 15-08-2011 23:06:48 16.4 C 69 % 10.7 C
Sensor: Nr:Datum:Temp:Feuchte:Taupunkt:
Aussen-T/F 1176 15-08-2011 23:18:49 16.3 C 68 % 10.39 C
1177 15-08-2011 23:30:49 16.4 C 70 % 10.92 C
1178 15-08-2011 23:42:49 16.2 C 69 % 10.51 C
1179 15-08-2011 23:54:49 16.1 C 70 % 10.63 C
1180 16-08-2011 00:06:49 15.8 C 71 % 10.56 C
1181 16-08-2011 00:18:49 15.9 C 73 % 11.07 C
1182 16-08-2011 00:30:49 15.6 C 73 % 10.78 C
1183 16-08-2011 00:42:49 15.6 C 74 % 10.99 C
1184 16-08-2011 00:54:49 15.8 C 75 % 11.38 C
1185 16-08-2011 01:06:49 15.4 C 74 % 10.79 C
1186 16-08-2011 01:18:49 15.1 C 75 % 10.71 C
1187 16-08-2011 01:30:49 15 C 75 % 10.61 C
1188 16-08-2011 01:42:49 14.6 C 75 % 10.22 C
1189 16-08-2011 01:54:49 14.4 C 77 % 10.42 C
1190 16-08-2011 02:06:49 14.2 C 77 % 10.23 C
1191 16-08-2011 02:18:49 14.4 C 79 % 10.81 C
1192 16-08-2011 02:30:49 14.2 C 79 % 10.61 C
1193 16-08-2011 02:42:49 14.3 C 80 % 10.9 C
1194 16-08-2011 02:54:49 14.4 C 80 % 11 C
1195 16-08-2011 03:06:49 14.1 C 80 % 10.71 C
1196 16-08-2011 03:18:50 14.1 C 80 % 10.71 C
1197 16-08-2011 03:30:50 14.2 C 81 % 10.99 C
1198 16-08-2011 03:42:50 14.2 C 81 % 10.99 C
1199 16-08-2011 03:54:50 14.2 C 81 % 10.99 C
1200 16-08-2011 04:06:50 14.1 C 81 % 10.89 C
Sensor: Nr:Datum:Temp:Feuchte:Taupunkt:
Aussen-T/F 1201 16-08-2011 04:18:50 14.2 C 81 % 10.99 C
1202 16-08-2011 04:30:50 14.2 C 81 % 10.99 C
1203 16-08-2011 04:42:50 14.2 C 82 % 11.17 C
1204 16-08-2011 04:54:50 14.2 C 82 % 11.17 C
1205 16-08-2011 05:06:50 14.1 C 82 % 11.08 C
1206 16-08-2011 05:18:50 14 C 81 % 10.79 C
1207 16-08-2011 05:30:50 13.9 C 82 % 10.88 C
1208 16-08-2011 05:42:50 13.7 C 82 % 10.69 C
1209 16-08-2011 05:54:50 13.8 C 83 % 10.97 C
1210 16-08-2011 06:06:50 13.7 C 83 % 10.87 C
1211 16-08-2011 06:18:50 13.7 C 83 % 10.87 C
1212 16-08-2011 06:30:50 14 C 83 % 11.16 C
1213 16-08-2011 06:42:50 14.2 C 83 % 11.36 C
1214 16-08-2011 06:54:50 14.2 C 82 % 11.17 C
1215 16-08-2011 07:06:50 14.3 C 82 % 11.27 C
1216 16-08-2011 07:18:50 14.5 C 82 % 11.47 C
1217 16-08-2011 07:30:51 14.7 C 82 % 11.66 C
1218 16-08-2011 07:42:03 15 C 79 % 11.39 C
1219 16-08-2011 07:54:02 15.2 C 78 % 11.39 C
1220 16-08-2011 08:06:02 15.4 C 77 % 11.39 C
1221 16-08-2011 08:18:02 15.9 C 74 % 11.28 C
1222 16-08-2011 08:30:02 16 C 71 % 10.75 C
1223 16-08-2011 08:42:02 16.3 C 71 % 11.04 C
1224 16-08-2011 08:54:01 16.3 C 69 % 10.61 C
1225 16-08-2011 09:06:02 16.6 C 68 % 10.67 C
Sensor: Nr:Datum:Temp:Feuchte:Taupunkt:
Aussen-T/F 1226 16-08-2011 09:18:01 17 C 66 % 10.61 C
1227 16-08-2011 09:30:01 16.7 C 69 % 10.99 C
1228 16-08-2011 09:42:01 16.9 C 68 % 10.96 C
1229 16-08-2011 09:54:01 17.8 C 65 % 11.14 C
1230 16-08-2011 10:06:02 18 C 60 % 10.13 C
1231 16-08-2011 10:18:01 18.3 C 59 % 10.16 C
1232 16-08-2011 10:30:01 18.3 C 61 % 10.66 C
1233 16-08-2011 10:42:01 17.6 C 66 % 11.18 C
1234 16-08-2011 10:54:01 18.1 C 67 % 11.88 C
1235 16-08-2011 11:06:01 18.7 C 64 % 11.76 C
1236 16-08-2011 11:18:02 18.6 C 63 % 11.42 C
1237 16-08-2011 11:30:02 19 C 62 % 11.56 C
1238 16-08-2011 11:42:01 19.5 C 63 % 12.27 C
1239 16-08-2011 11:54:03 19.9 C 60 % 11.91 C
1240 16-08-2011 12:06:02 20.6 C 57 % 11.79 C
1241 16-08-2011 12:18:02 22.1 C 53 % 12.08 C
1242 16-08-2011 12:30:02 21.1 C 50 % 10.28 C
1243 16-08-2011 12:42:02 22 C 48 % 10.49 C
1244 16-08-2011 12:54:02 23 C 42 % 9.41 C
1245 16-08-2011 13:06:02 22.5 C 45 % 9.98 C
1246 16-08-2011 13:18:02 22.8 C 45 % 10.25 C
1247 16-08-2011 13:30:02 22.8 C 43 % 9.58 C
1248 16-08-2011 13:42:02 23.7 C 36 % 7.75 C
1249 16-08-2011 13:54:02 24.7 C 30 % 5.97 C
1250 16-08-2011 14:06:01 24.5 C 31 % 6.28 C
Sensor: Nr:Datum:Temp:Feuchte:Taupunkt:
Aussen-T/F 1251 16-08-2011 14:18:01 28 C 25 % 6.15 C
1252 16-08-2011 14:30:01 24.6 C 31 % 6.36 C
1253 16-08-2011 14:42:02 24.8 C 32 % 7 C
1254 16-08-2011 14:54:02 25.9 C 32 % 7.95 C
1255 16-08-2011 15:06:02 25.5 C 31 % 7.14 C
1256 16-08-2011 15:18:02 26.7 C 31 % 8.18 C
1257 16-08-2011 15:30:02 24.5 C 30 % 5.8 C
1258 16-08-2011 15:42:01 24.4 C 31 % 6.19 C
1259 16-08-2011 15:54:02 24.6 C 32 % 6.82 C
1260 16-08-2011 16:06:01 25.7 C 25 % 4.21 C
1261 16-08-2011 16:18:02 24.5 C 30 % 5.8 C
1262 16-08-2011 16:30:02 23.9 C 38 % 8.73 C
1263 16-08-2011 16:42:02 25.7 C 29 % 6.34 C
1264 16-08-2011 16:54:02 26 C 25 % 4.47 C
1265 16-08-2011 17:06:02 25 C 30 % 6.23 C
1266 16-08-2011 17:18:02 24.4 C 30 % 5.72 C
1267 16-08-2011 17:30:02 25.4 C 30 % 6.58 C
1268 16-08-2011 17:42:02 27.5 C 25 % 5.73 C
1269 16-08-2011 17:54:01 28.4 C 25 % 6.49 C
1270 16-08-2011 18:06:02 28.7 C 23 % 5.53 C
1271 16-08-2011 18:18:01 25.5 C 33 % 8.06 C
1272 16-08-2011 18:30:01 26.6 C 30 % 7.61 C
1273 16-08-2011 18:42:01 24.9 C 34 % 7.97 C
1274 16-08-2011 18:54:01 23 C 45 % 10.43 C
1275 16-08-2011 19:06:02 21.5 C 51 % 10.94 C
Sensor: Nr:Datum:Temp:Feuchte:Taupunkt:
Aussen-T/F 1276 16-08-2011 19:18:01 20.9 C 53 % 10.97 C
1277 16-08-2011 19:30:01 20.4 C 55 % 11.06 C
1278 16-08-2011 19:42:01 20.2 C 54 % 10.6 C
1279 16-08-2011 19:54:01 20 C 55 % 10.69 C
1280 16-08-2011 20:06:02 19.8 C 56 % 10.78 C
1281 16-08-2011 20:18:02 19.5 C 56 % 10.5 C
1282 16-08-2011 20:30:02 19.3 C 57 % 10.58 C
1283 16-08-2011 20:42:01 18.9 C 58 % 10.46 C
1284 16-08-2011 20:54:02 18.7 C 61 % 11.03 C
1285 16-08-2011 21:06:01 18.8 C 60 % 10.88 C
1286 16-08-2011 21:18:02 18.7 C 60 % 10.78 C
1287 16-08-2011 21:30:02 18.4 C 60 % 10.5 C
1288 16-08-2011 21:42:01 18.3 C 59 % 10.16 C
1289 16-08-2011 21:54:03 18.2 C 62 % 10.81 C
1290 16-08-2011 22:06:02 18.1 C 62 % 10.71 C
1291 16-08-2011 22:18:03 17.9 C 64 % 11 C
1292 16-08-2011 22:30:03 17.5 C 61 % 9.9 C
1293 16-08-2011 22:42:02 16.4 C 67 % 10.26 C
1294 16-08-2011 22:55:02 16.2 C 67 % 10.07 C
1295 16-08-2011 23:07:02 15.8 C 71 % 10.56 C
1296 16-08-2011 23:19:02 15.6 C 72 % 10.57 C
1297 16-08-2011 23:31:02 15 C 74 % 10.41 C
1298 16-08-2011 23:43:02 14.8 C 76 % 10.61 C
1299 16-08-2011 23:55:02 14.5 C 77 % 10.52 C
1300 17-08-2011 00:07:02 14.3 C 77 % 10.33 C
Sensor: Nr:Datum:Temp:Feuchte:Taupunkt:
Aussen-T/F 1301 17-08-2011 00:19:02 14 C 77 % 10.04 C
1302 17-08-2011 00:31:02 13.8 C 78 % 10.03 C
1303 17-08-2011 00:43:02 13.5 C 80 % 10.12 C
1304 17-08-2011 00:55:02 13.3 C 80 % 9.93 C
1305 17-08-2011 01:07:02 13.5 C 81 % 10.31 C
1306 17-08-2011 01:19:02 13.1 C 81 % 9.92 C
1307 17-08-2011 01:31:03 12.9 C 83 % 10.09 C
1308 17-08-2011 01:43:03 12.8 C 83 % 9.99 C
1309 17-08-2011 01:55:03 12.9 C 84 % 10.26 C
1310 17-08-2011 02:07:03 13 C 84 % 10.36 C
1311 17-08-2011 02:19:03 13 C 84 % 10.36 C
1312 17-08-2011 02:31:03 12.4 C 85 % 9.95 C
1313 17-08-2011 02:43:03 12.5 C 85 % 10.05 C
1314 17-08-2011 02:55:03 12.2 C 85 % 9.76 C
1315 17-08-2011 03:07:03 12.5 C 86 % 10.22 C
1316 17-08-2011 03:19:03 12.4 C 86 % 10.13 C
1317 17-08-2011 03:31:03 12.3 C 87 % 10.2 C
1318 17-08-2011 03:43:03 12.1 C 87 % 10 C
1319 17-08-2011 03:55:03 12 C 87 % 9.91 C
1320 17-08-2011 04:07:03 12.1 C 87 % 10 C
1321 17-08-2011 04:19:03 12.2 C 87 % 10.1 C
1322 17-08-2011 04:31:03 12.3 C 87 % 10.2 C
1323 17-08-2011 04:43:03 12.3 C 88 % 10.37 C
1324 17-08-2011 04:55:03 12.1 C 87 % 10 C
1325 17-08-2011 05:07:03 12 C 87 % 9.91 C
Sensor: Nr:Datum:Temp:Feuchte:Taupunkt:
Aussen-T/F 1326 17-08-2011 05:19:03 11.7 C 88 % 9.78 C
1327 17-08-2011 05:31:03 11.7 C 88 % 9.78 C
1328 17-08-2011 05:43:03 11.7 C 88 % 9.78 C
1329 17-08-2011 05:55:04 11.7 C 88 % 9.78 C
1330 17-08-2011 06:07:04 11.5 C 88 % 9.58 C
1331 17-08-2011 06:19:04 11.6 C 88 % 9.68 C
1332 17-08-2011 06:31:04 11.8 C 88 % 9.88 C
1333 17-08-2011 06:43:04 11.9 C 89 % 10.15 C
1334 17-08-2011 06:55:04 12.1 C 88 % 10.17 C
1335 17-08-2011 07:07:04 12.1 C 88 % 10.17 C
1336 17-08-2011 07:19:04 12 C 88 % 10.08 C
1337 17-08-2011 07:31:04 12.1 C 88 % 10.17 C
1338 17-08-2011 07:43:04 12.6 C 88 % 10.67 C
1339 17-08-2011 07:55:04 12.7 C 89 % 10.94 C
1340 17-08-2011 08:07:04 12.7 C 88 % 10.77 C
1341 17-08-2011 08:19:04 12.8 C 88 % 10.86 C
1342 17-08-2011 08:31:04 12.9 C 88 % 10.96 C
1343 17-08-2011 08:43:04 13.2 C 88 % 11.26 C
1344 17-08-2011 08:55:01 13.5 C 88 % 11.55 C
1345 17-08-2011 09:07:02 13.5 C 88 % 11.55 C
1346 17-08-2011 09:19:01 13.8 C 88 % 11.85 C
1347 17-08-2011 09:31:02 14.1 C 87 % 11.97 C
1348 17-08-2011 09:43:02 14.2 C 87 % 12.07 C
1349 17-08-2011 09:55:01 14.6 C 87 % 12.46 C
1350 17-08-2011 10:07:02 15 C 86 % 12.68 C
Sensor: Nr:Datum:Temp:Feuchte:Taupunkt:
Aussen-T/F 1351 17-08-2011 10:19:02 15.6 C 86 % 13.27 C
1352 17-08-2011 10:31:01 16.3 C 85 % 13.77 C
1353 17-08-2011 10:43:01 16.5 C 85 % 13.97 C
1354 17-08-2011 10:55:01 16.5 C 85 % 13.97 C
1355 17-08-2011 11:07:02 18.2 C 77 % 14.1 C
1356 17-08-2011 11:19:02 18.5 C 75 % 13.99 C
1357 17-08-2011 11:31:01 18.9 C 75 % 14.37 C
1358 17-08-2011 11:43:01 19.7 C 70 % 14.08 C
1359 17-08-2011 11:55:02 20.4 C 61 % 12.63 C
1360 17-08-2011 12:07:01 20.9 C 59 % 12.59 C
1361 17-08-2011 12:19:02 22.1 C 51 % 11.5 C
1362 17-08-2011 12:31:01 23 C 46 % 10.76 C
1363 17-08-2011 12:43:01 23.2 C 49 % 11.9 C
1364 17-08-2011 12:55:02 23.1 C 52 % 12.71 C
1365 17-08-2011 13:07:02 25.4 C 35 % 8.84 C
1366 17-08-2011 13:19:02 26.8 C 30 % 7.78 C
1367 17-08-2011 13:31:03 26.8 C 31 % 8.27 C
1368 17-08-2011 13:43:03 26.2 C 31 % 7.75 C
1369 17-08-2011 13:55:02 29.3 C 28 % 8.91 C
1370 17-08-2011 14:07:02 27.5 C 38 % 11.92 C
1371 17-08-2011 14:19:02 27.5 C 38 % 11.92 C
1372 17-08-2011 14:31:02 24.7 C 49 % 13.27 C
1373 17-08-2011 14:43:02 24.8 C 49 % 13.36 C
1374 17-08-2011 14:55:02 24.8 C 49 % 13.36 C
1375 17-08-2011 15:07:02 24.8 C 49 % 13.36 C
Sensor: Nr:Datum:Temp:Feuchte:Taupunkt:
Aussen-T/F 1376 17-08-2011 15:19:02 29.2 C 30 % 9.85 C
1377 17-08-2011 15:31:02 31.5 C 24 % 8.49 C
1378 17-08-2011 15:43:02 32.1 C 22 % 7.71 C
1379 17-08-2011 15:55:02 31.5 C 20 % 5.83 C
1380 17-08-2011 16:07:02 28.4 C 37 % 12.31 C
1381 17-08-2011 16:19:02 32.3 C 20 % 6.49 C
1382 17-08-2011 16:31:02 31 C 21 % 6.13 C
1383 17-08-2011 16:43:02 31 C 23 % 7.45 C
1384 17-08-2011 16:55:01 31.2 C 21 % 6.29 C
1385 17-08-2011 17:07:01 30.3 C 30 % 10.79 C
1386 17-08-2011 17:19:02 30.4 C 32 % 11.85 C
1387 17-08-2011 17:31:01 30.4 C 32 % 11.85 C
1388 17-08-2011 17:43:01 25.2 C 46 % 12.76 C
1389 17-08-2011 17:55:02 24.8 C 49 % 13.36 C
1390 17-08-2011 18:07:02 24.3 C 50 % 13.22 C
1391 17-08-2011 18:19:02 24.2 C 51 % 13.43 C
1392 17-08-2011 18:31:02 24.1 C 51 % 13.34 C
1393 17-08-2011 18:43:02 24.1 C 51 % 13.34 C
1394 17-08-2011 18:55:02 24.1 C 51 % 13.34 C
1395 17-08-2011 19:07:02 24.1 C 51 % 13.34 C
1396 17-08-2011 19:19:02 24.1 C 51 % 13.34 C
1397 17-08-2011 19:31:02 22.5 C 56 % 13.29 C
1398 17-08-2011 19:43:02 22.5 C 56 % 13.29 C
1399 17-08-2011 19:55:02 21.7 C 59 % 13.34 C
1400 17-08-2011 20:07:02 21.6 C 59 % 13.25 C
Sensor: Nr:Datum:Temp:Feuchte:Taupunkt:
Aussen-T/F 1401 17-08-2011 20:19:02 21.4 C 59 % 13.06 C
1402 17-08-2011 20:31:01 21 C 59 % 12.69 C
1403 17-08-2011 20:43:01 20.8 C 60 % 12.76 C
1404 17-08-2011 20:55:02 20.4 C 60 % 12.38 C
1405 17-08-2011 21:07:01 20.2 C 60 % 12.19 C
1406 17-08-2011 21:19:02 20.1 C 59 % 11.84 C
1407 17-08-2011 21:31:02 20.1 C 58 % 11.58 C
1408 17-08-2011 21:43:02 20.1 C 60 % 12.1 C
1409 17-08-2011 21:55:02 20.1 C 60 % 12.1 C
1410 17-08-2011 22:08:03 20.1 C 60 % 12.1 C
1411 17-08-2011 22:20:03 20 C 59 % 11.75 C
1412 17-08-2011 22:32:03 19.7 C 64 % 12.7 C
1413 17-08-2011 22:44:03 19.6 C 64 % 12.61 C
1414 17-08-2011 22:56:03 19.9 C 63 % 12.65 C
1415 17-08-2011 23:08:03 19.7 C 64 % 12.7 C
1416 17-08-2011 23:20:03 19.5 C 67 % 13.21 C
1417 17-08-2011 23:32:03 19.3 C 69 % 13.47 C
1418 17-08-2011 23:44:03 19 C 70 % 13.41 C
1419 17-08-2011 23:56:03 18.7 C 71 % 13.34 C
1420 18-08-2011 00:08:03 18.5 C 73 % 13.57 C
1421 18-08-2011 00:20:03 18.7 C 73 % 13.76 C
1422 18-08-2011 00:32:03 18.5 C 73 % 13.57 C
1423 18-08-2011 00:44:03 18.3 C 74 % 13.59 C
1424 18-08-2011 00:56:03 18.1 C 76 % 13.81 C
1425 18-08-2011 01:08:03 18.3 C 77 % 14.2 C
Sensor: Nr:Datum:Temp:Feuchte:Taupunkt:
Aussen-T/F 1426 18-08-2011 01:20:03 18.1 C 77 % 14.01 C
1427 18-08-2011 01:32:04 17.8 C 78 % 13.91 C
1428 18-08-2011 01:44:04 17.2 C 78 % 13.33 C
1429 18-08-2011 01:56:04 16.9 C 80 % 13.43 C
1430 18-08-2011 02:08:04 16.6 C 81 % 13.33 C
1431 18-08-2011 02:20:04 16.9 C 83 % 14 C
1432 18-08-2011 02:32:04 17.1 C 83 % 14.19 C
1433 18-08-2011 02:44:04 17.2 C 83 % 14.29 C
1434 18-08-2011 02:56:04 17.2 C 83 % 14.29 C
1435 18-08-2011 03:08:04 16.8 C 83 % 13.9 C
1436 18-08-2011 03:20:04 16.4 C 82 % 13.32 C
1437 18-08-2011 03:32:04 16.4 C 83 % 13.51 C
1438 18-08-2011 03:44:04 16.4 C 84 % 13.69 C
1439 18-08-2011 03:56:04 16.2 C 84 % 13.5 C
1440 18-08-2011 04:08:04 16.4 C 85 % 13.87 C
1441 18-08-2011 04:20:04 16 C 85 % 13.48 C
1442 18-08-2011 04:32:04 16 C 85 % 13.48 C
1443 18-08-2011 04:44:04 15.6 C 86 % 13.27 C
1444 18-08-2011 04:56:04 15.4 C 86 % 13.07 C
1445 18-08-2011 05:08:04 15.4 C 86 % 13.07 C
1446 18-08-2011 05:20:04 15 C 86 % 12.68 C
1447 18-08-2011 05:32:04 14.9 C 87 % 12.76 C
1448 18-08-2011 05:44:04 14.9 C 87 % 12.76 C
1449 18-08-2011 05:56:05 14.8 C 87 % 12.66 C
1450 18-08-2011 06:08:05 14.8 C 88 % 12.83 C
Sensor: Nr:Datum:Temp:Feuchte:Taupunkt:
Aussen-T/F 1451 18-08-2011 06:20:05 14.7 C 88 % 12.73 C
1452 18-08-2011 06:32:05 14.7 C 88 % 12.73 C
1453 18-08-2011 06:44:05 15.2 C 87 % 13.05 C
1454 18-08-2011 06:56:05 15.4 C 88 % 13.42 C
1455 18-08-2011 07:08:05 15.5 C 88 % 13.52 C
1456 18-08-2011 07:20:05 15.7 C 88 % 13.72 C
1457 18-08-2011 07:32:05 16.3 C 88 % 14.31 C
1458 18-08-2011 07:44:05 16.5 C 88 % 14.51 C
1459 18-08-2011 07:56:02 16.5 C 87 % 14.33 C
1460 18-08-2011 08:08:02 16.3 C 86 % 13.95 C
1461 18-08-2011 08:20:01 16.2 C 86 % 13.86 C
1462 18-08-2011 08:32:02 16.2 C 86 % 13.86 C
1463 18-08-2011 08:44:02 16.3 C 86 % 13.95 C
1464 18-08-2011 08:56:02 16.7 C 87 % 14.53 C
1465 18-08-2011 09:08:02 16.9 C 86 % 14.54 C
1466 18-08-2011 09:20:02 16.8 C 86 % 14.45 C
1467 18-08-2011 09:32:02 16.8 C 86 % 14.45 C
1468 18-08-2011 09:44:02 17.5 C 85 % 14.95 C
1469 18-08-2011 09:56:02 17.7 C 85 % 15.15 C
1470 18-08-2011 10:08:01 18.2 C 84 % 15.45 C
1471 18-08-2011 10:20:01 18.7 C 83 % 15.75 C
1472 18-08-2011 10:32:02 19.3 C 81 % 15.96 C
1473 18-08-2011 10:44:02 19.7 C 80 % 16.15 C
1474 18-08-2011 10:56:02 20.6 C 75 % 16.01 C
1475 18-08-2011 11:08:03 21.5 C 74 % 16.67 C
Sensor: Nr:Datum:Temp:Feuchte:Taupunkt:
Aussen-T/F 1476 18-08-2011 11:20:02 22.4 C 63 % 15.01 C
1477 18-08-2011 11:32:02 23.9 C 55 % 14.31 C
1478 18-08-2011 11:44:02 24.6 C 50 % 13.49 C
1479 18-08-2011 11:56:01 25.6 C 46 % 13.12 C
1480 18-08-2011 12:08:02 26.3 C 45 % 13.42 C
1481 18-08-2011 12:20:01 26.4 C 41 % 12.09 C
1482 18-08-2011 12:32:01 26.9 C 41 % 12.54 C
1483 18-08-2011 12:44:01 27.5 C 41 % 13.08 C
1484 18-08-2011 12:56:01 27.3 C 39 % 12.13 C
1485 18-08-2011 13:08:02 27.2 C 42 % 13.18 C
1486 18-08-2011 13:20:01 27.2 C 42 % 13.18 C
1487 18-08-2011 13:32:02 27.2 C 48 % 15.24 C
1488 18-08-2011 13:44:02 27.5 C 47 % 15.18 C
1489 18-08-2011 13:56:01 29.3 C 36 % 12.68 C
1490 18-08-2011 14:08:02 31.1 C 30 % 11.48 C
1491 18-08-2011 14:20:02 30.4 C 35 % 13.22 C
1492 18-08-2011 14:32:01 30.7 C 32 % 12.11 C
1493 18-08-2011 14:44:01 31.8 C 28 % 11.04 C
1494 18-08-2011 14:56:02 32.3 C 25 % 9.77 C
1495 18-08-2011 15:08:01 33.1 C 25 % 10.44 C
1496 18-08-2011 15:20:02 31.8 C 25 % 9.35 C
1497 18-08-2011 15:32:01 32.8 C 32 % 13.93 C
1498 18-08-2011 15:44:01 32.4 C 21 % 7.28 C
1499 18-08-2011 15:56:01 33.3 C 23 % 9.36 C
1500 18-08-2011 16:08:01 31 C 30 % 11.4 C
Sensor: Nr:Datum:Temp:Feuchte:Taupunkt:
Aussen-T/F 1501 18-08-2011 16:20:02 32.4 C 22 % 7.96 C
1502 18-08-2011 16:32:01 33.3 C 21 % 8.02 C
1503 18-08-2011 16:44:01 33.3 C 20 % 7.3 C
1504 18-08-2011 16:56:03 33 C 23 % 9.11 C
1505 18-08-2011 17:08:02 32.6 C 22 % 8.13 C
1506 18-08-2011 17:20:02 32.7 C 22 % 8.21 C
1507 18-08-2011 17:32:02 32.7 C 26 % 10.69 C
1508 18-08-2011 17:44:02 32.4 C 28 % 11.55 C
1509 18-08-2011 17:56:02 32.9 C 23 % 9.03 C
1510 18-08-2011 18:08:02 32.4 C 23 % 8.61 C
1511 18-08-2011 18:20:02 31.8 C 25 % 9.35 C
1512 18-08-2011 18:32:02 32.1 C 27 % 10.75 C
1513 18-08-2011 18:44:02 31.3 C 31 % 12.15 C
1514 18-08-2011 18:56:02 31 C 33 % 12.84 C
1515 18-08-2011 19:08:02 30.9 C 34 % 13.21 C
1516 18-08-2011 19:20:01 30.4 C 36 % 13.65 C
1517 18-08-2011 19:32:02 28.6 C 42 % 14.43 C
1518 18-08-2011 19:44:02 27.1 C 46 % 14.49 C
1519 18-08-2011 19:56:02 26.3 C 49 % 14.74 C
1520 18-08-2011 20:08:02 25.4 C 52 % 14.83 C
1521 18-08-2011 20:20:01 24.5 C 55 % 14.87 C
1522 18-08-2011 20:32:02 24 C 56 % 14.68 C
1523 18-08-2011 20:44:02 23.6 C 58 % 14.86 C
1524 18-08-2011 20:56:02 23.1 C 59 % 14.65 C
1525 18-08-2011 21:08:02 22.7 C 62 % 15.05 C
Sensor: Nr:Datum:Temp:Feuchte:Taupunkt:
Aussen-T/F 1526 18-08-2011 21:20:01 22.5 C 63 % 15.11 C
1527 18-08-2011 21:32:02 22.6 C 63 % 15.2 C
1528 18-08-2011 21:44:02 22.7 C 62 % 15.05 C
1529 18-08-2011 21:56:02 22.6 C 61 % 14.7 C
1530 18-08-2011 22:08:02 22.5 C 62 % 14.86 C
1531 18-08-2011 22:20:01 22.2 C 63 % 14.82 C
1532 18-08-2011 22:32:02 22.4 C 63 % 15.01 C
1533 18-08-2011 22:44:02 23.2 C 56 % 13.94 C
1534 18-08-2011 22:56:02 23 C 55 % 13.48 C
1535 18-08-2011 23:08:02 22.7 C 56 % 13.47 C
1536 18-08-2011 23:20:02 22 C 58 % 13.36 C
1537 18-08-2011 23:32:02 21.9 C 61 % 14.04 C
1538 18-08-2011 23:44:02 21.9 C 59 % 13.53 C
1539 18-08-2011 23:56:02 20.4 C 68 % 14.3 C
1540 19-08-2011 00:08:02 19.1 C 75 % 14.57 C
1541 19-08-2011 00:20:02 18.6 C 79 % 14.89 C
1542 19-08-2011 00:32:02 18.4 C 81 % 15.08 C
1543 19-08-2011 00:44:02 18.5 C 81 % 15.18 C
1544 19-08-2011 00:56:02 18.4 C 81 % 15.08 C
1545 19-08-2011 01:08:01 18.4 C 81 % 15.08 C
1546 19-08-2011 01:20:02 18.4 C 81 % 15.08 C
1547 19-08-2011 01:32:02 18.7 C 80 % 15.18 C
1548 19-08-2011 01:44:02 18.3 C 80 % 14.79 C
1549 19-08-2011 01:56:02 18.1 C 81 % 14.79 C
1550 19-08-2011 02:08:03 18.3 C 81 % 14.98 C
Sensor: Nr:Datum:Temp:Feuchte:Taupunkt:
Aussen-T/F 1551 19-08-2011 02:20:02 18 C 81 % 14.69 C
1552 19-08-2011 02:32:02 17.7 C 82 % 14.59 C
1553 19-08-2011 02:44:02 17.6 C 83 % 14.68 C
1554 19-08-2011 02:56:01 17.5 C 83 % 14.58 C
1555 19-08-2011 03:08:01 17.5 C 84 % 14.77 C
1556 19-08-2011 03:20:02 17.5 C 84 % 14.77 C
1557 19-08-2011 03:32:01 17.7 C 85 % 15.15 C
1558 19-08-2011 03:44:01 17.5 C 85 % 14.95 C
1559 19-08-2011 03:56:02 17.7 C 85 % 15.15 C
1560 19-08-2011 04:08:01 17.6 C 85 % 15.05 C
1561 19-08-2011 04:20:01 17.7 C 85 % 15.15 C
1562 19-08-2011 04:32:02 18 C 84 % 15.26 C
1563 19-08-2011 04:44:02 18.7 C 84 % 15.94 C
1564 19-08-2011 04:56:01 18.9 C 81 % 15.57 C
1565 19-08-2011 05:08:02 19 C 79 % 15.28 C
1566 19-08-2011 05:20:01 18.5 C 79 % 14.79 C
1567 19-08-2011 05:32:01 17.9 C 81 % 14.59 C
1568 19-08-2011 05:44:02 17.5 C 83 % 14.58 C
1569 19-08-2011 05:56:01 17.2 C 84 % 14.47 C
1570 19-08-2011 06:08:01 17.2 C 84 % 14.47 C
1571 19-08-2011 06:20:01 17.7 C 85 % 15.15 C
1572 19-08-2011 06:32:02 17.7 C 86 % 15.33 C
1573 19-08-2011 06:44:02 18.3 C 86 % 15.92 C
1574 19-08-2011 06:56:01 19.5 C 85 % 16.91 C
1575 19-08-2011 07:08:02 20 C 81 % 16.64 C
Sensor: Nr:Datum:Temp:Feuchte:Taupunkt:
Aussen-T/F 1576 19-08-2011 07:20:01 20.4 C 77 % 16.23 C
1577 19-08-2011 07:32:02 21.6 C 68 % 15.44 C
1578 19-08-2011 07:44:02 22 C 64 % 14.88 C
1579 19-08-2011 07:56:01 21.8 C 66 % 15.17 C
1580 19-08-2011 08:08:02 21.8 C 65 % 14.93 C
1581 19-08-2011 08:20:01 22 C 65 % 15.12 C
1582 19-08-2011 08:32:02 22.1 C 64 % 14.97 C
1583 19-08-2011 08:44:02 22.4 C 62 % 14.76 C
1584 19-08-2011 08:56:01 22.5 C 61 % 14.61 C
1585 19-08-2011 09:08:02 22.8 C 60 % 14.63 C
1586 19-08-2011 09:20:01 23 C 58 % 14.29 C
1587 19-08-2011 09:32:01 23.6 C 56 % 14.31 C
1588 19-08-2011 09:44:01 23.8 C 54 % 13.94 C
1589 19-08-2011 09:56:01 19.8 C 61 % 12.07 C
1590 19-08-2011 10:08:01 19 C 79 % 15.28 C
1591 19-08-2011 10:20:01 18.8 C 82 % 15.66 C
1592 19-08-2011 10:32:01 18.7 C 84 % 15.94 C
1593 19-08-2011 10:44:01 18.1 C 84 % 15.35 C
1594 19-08-2011 10:56:01 17.7 C 84 % 14.96 C
1595 19-08-2011 11:08:01 17.9 C 84 % 15.16 C
1596 19-08-2011 11:20:02 17.7 C 83 % 14.78 C
1597 19-08-2011 11:32:01 17.7 C 83 % 14.78 C
1598 19-08-2011 11:44:01 18.5 C 81 % 15.18 C
1599 19-08-2011 11:56:02 18.7 C 78 % 14.79 C
1600 19-08-2011 12:08:01 17.8 C 78 % 13.91 C
Sensor: Nr:Datum:Temp:Feuchte:Taupunkt:
Aussen-T/F 1601 19-08-2011 12:20:01 18 C 77 % 13.91 C
1602 19-08-2011 12:32:01 17.7 C 77 % 13.62 C
1603 19-08-2011 12:44:01 17.6 C 77 % 13.52 C
1604 19-08-2011 12:56:02 17.7 C 77 % 13.62 C
1605 19-08-2011 13:08:01 17.8 C 75 % 13.31 C
1606 19-08-2011 13:20:02 18.2 C 73 % 13.28 C
1607 19-08-2011 13:32:01 18.3 C 71 % 12.95 C
1608 19-08-2011 13:44:01 18.7 C 69 % 12.9 C
1609 19-08-2011 13:56:02 19.3 C 63 % 12.09 C
1610 19-08-2011 14:08:01 19.5 C 61 % 11.78 C
1611 19-08-2011 14:20:01 19.7 C 60 % 11.72 C
1612 19-08-2011 14:32:02 21.1 C 55 % 11.71 C
1613 19-08-2011 14:44:02 20 C 59 % 11.75 C
1614 19-08-2011 14:56:01 20.3 C 57 % 11.51 C
1615 19-08-2011 15:08:01 19.8 C 60 % 11.82 C
1616 19-08-2011 15:20:01 20 C 57 % 11.23 C
1617 19-08-2011 15:32:02 20.6 C 56 % 11.52 C
1618 19-08-2011 15:44:02 21.7 C 52 % 11.42 C
1619 19-08-2011 15:56:02 23.3 C 45 % 10.71 C
1620 19-08-2011 16:08:01 23.2 C 39 % 8.49 C
1621 19-08-2011 16:20:01 23.7 C 37 % 8.16 C
1622 19-08-2011 16:32:02 24.6 C 36 % 8.55 C
1623 19-08-2011 16:44:02 24.7 C 35 % 8.22 C
1624 19-08-2011 16:56:01 26.5 C 31 % 8.01 C
1625 19-08-2011 17:08:02 25.4 C 33 % 7.97 C
Sensor: Nr:Datum:Temp:Feuchte:Taupunkt:
Aussen-T/F 1626 19-08-2011 17:20:01 26 C 31 % 7.57 C
1627 19-08-2011 17:32:02 26.1 C 28 % 6.18 C
1628 19-08-2011 17:44:02 24.3 C 30 % 5.63 C
1629 19-08-2011 17:56:01 25.8 C 31 % 7.4 C
1630 19-08-2011 18:08:02 24.7 C 32 % 6.91 C
1631 19-08-2011 18:20:02 25.3 C 32 % 7.43 C
1632 19-08-2011 18:32:01 24.4 C 36 % 8.37 C
1633 19-08-2011 18:44:01 22.4 C 40 % 8.15 C
1634 19-08-2011 18:56:01 23.2 C 37 % 7.71 C
1635 19-08-2011 19:08:01 23.3 C 38 % 8.19 C
1636 19-08-2011 19:20:02 23.3 C 40 % 8.95 C
1637 19-08-2011 19:32:01 21.1 C 46 % 9.04 C
1638 19-08-2011 19:44:01 20.1 C 49 % 9.06 C
1639 19-08-2011 19:56:02 19.6 C 51 % 9.2 C
1640 19-08-2011 20:08:01 19.3 C 52 % 9.21 C
1641 19-08-2011 20:20:01 18.3 C 58 % 9.9 C
1642 19-08-2011 20:32:01 16.7 C 71 % 11.42 C
1643 19-08-2011 20:44:01 16.2 C 73 % 11.36 C
1644 19-08-2011 20:56:02 15.5 C 76 % 11.29 C
1645 19-08-2011 21:08:01 15.4 C 77 % 11.39 C
1646 19-08-2011 21:20:01 15.4 C 78 % 11.59 C
1647 19-08-2011 21:32:02 15.4 C 77 % 11.39 C
1648 19-08-2011 21:44:02 15.1 C 78 % 11.3 C
1649 19-08-2011 21:56:01 14.9 C 79 % 11.29 C
1650 19-08-2011 22:08:01 14.5 C 79 % 10.91 C
Sensor: Nr:Datum:Temp:Feuchte:Taupunkt:
Aussen-T/F 1651 19-08-2011 22:21:05 14.3 C 80 % 10.9 C
1652 19-08-2011 22:33:05 14.7 C 82 % 11.66 C
1653 19-08-2011 22:45:05 14.4 C 82 % 11.37 C
1654 19-08-2011 22:57:05 14 C 83 % 11.16 C
1655 19-08-2011 23:09:05 13.4 C 84 % 10.75 C
1656 19-08-2011 23:21:05 13.3 C 84 % 10.66 C
1657 19-08-2011 23:33:05 12.9 C 85 % 10.44 C
1658 19-08-2011 23:45:05 12.7 C 85 % 10.25 C
1659 19-08-2011 23:57:05 12.7 C 86 % 10.42 C
1660 20-08-2011 00:09:05 12.9 C 86 % 10.62 C
1661 20-08-2011 00:21:05 12.7 C 86 % 10.42 C
1662 20-08-2011 00:33:05 12.8 C 87 % 10.69 C
1663 20-08-2011 00:45:05 13 C 86 % 10.72 C
1664 20-08-2011 00:57:05 12.9 C 87 % 10.79 C
1665 20-08-2011 01:09:05 12.7 C 87 % 10.59 C
1666 20-08-2011 01:21:05 12.6 C 87 % 10.5 C
1667 20-08-2011 01:33:05 12.2 C 87 % 10.1 C
1668 20-08-2011 01:45:06 12.1 C 87 % 10 C
1669 20-08-2011 01:57:06 12.2 C 87 % 10.1 C
1670 20-08-2011 02:09:06 12 C 88 % 10.08 C
1671 20-08-2011 02:21:06 12 C 87 % 9.91 C
1672 20-08-2011 02:33:06 12 C 88 % 10.08 C
1673 20-08-2011 02:45:06 12 C 88 % 10.08 C
1674 20-08-2011 02:57:06 11.6 C 88 % 9.68 C
1675 20-08-2011 03:09:06 11.9 C 88 % 9.98 C
Sensor: Nr:Datum:Temp:Feuchte:Taupunkt:
Aussen-T/F 1676 20-08-2011 03:21:06 11.8 C 89 % 10.05 C
1677 20-08-2011 03:33:06 11.4 C 88 % 9.49 C
1678 20-08-2011 03:45:06 11.5 C 89 % 9.75 C
1679 20-08-2011 03:57:06 11.7 C 89 % 9.95 C
1680 20-08-2011 04:09:06 11.6 C 89 % 9.85 C
1681 20-08-2011 04:21:06 11.7 C 89 % 9.95 C
1682 20-08-2011 04:33:06 11.5 C 89 % 9.75 C
1683 20-08-2011 04:45:06 11 C 89 % 9.26 C
1684 20-08-2011 04:57:06 10.8 C 89 % 9.06 C
1685 20-08-2011 05:09:06 11.1 C 89 % 9.36 C
1686 20-08-2011 05:21:06 11.2 C 89 % 9.46 C
1687 20-08-2011 05:33:06 10.8 C 89 % 9.06 C
1688 20-08-2011 05:45:06 10.8 C 89 % 9.06 C
1689 20-08-2011 05:57:06 10.5 C 89 % 8.77 C
1690 20-08-2011 06:09:07 10.4 C 89 % 8.67 C
1691 20-08-2011 06:21:07 10.5 C 89 % 8.77 C
1692 20-08-2011 06:33:07 10.9 C 90 % 9.33 C
1693 20-08-2011 06:45:07 11.5 C 90 % 9.92 C
1694 20-08-2011 06:57:07 11.6 C 90 % 10.02 C
1695 20-08-2011 07:09:07 11.5 C 90 % 9.92 C
1696 20-08-2011 07:21:07 11.7 C 90 % 10.12 C
1697 20-08-2011 07:33:07 11.9 C 90 % 10.31 C
1698 20-08-2011 07:45:07 11.9 C 90 % 10.31 C
1699 20-08-2011 07:57:07 11.8 C 90 % 10.21 C
1700 20-08-2011 08:09:07 11.9 C 90 % 10.31 C
Sensor: Nr:Datum:Temp:Feuchte:Taupunkt:
Aussen-T/F 1701 20-08-2011 08:21:07 12.3 C 90 % 10.71 C
1702 20-08-2011 08:33:07 12.2 C 89 % 10.44 C
1703 20-08-2011 08:45:02 12.6 C 89 % 10.84 C
1704 20-08-2011 08:57:02 12.8 C 89 % 11.03 C
1705 20-08-2011 09:09:03 12.5 C 88 % 10.57 C
1706 20-08-2011 09:21:02 12.5 C 88 % 10.57 C
1707 20-08-2011 09:33:02 12.8 C 88 % 10.86 C
1708 20-08-2011 09:45:03 13 C 88 % 11.06 C
1709 20-08-2011 09:57:03 13.2 C 88 % 11.26 C
1710 20-08-2011 10:09:03 13.5 C 88 % 11.55 C
1711 20-08-2011 10:21:02 14.2 C 88 % 12.24 C
1712 20-08-2011 10:33:03 14.7 C 88 % 12.73 C
1713 20-08-2011 10:45:02 15.1 C 87 % 12.95 C
1714 20-08-2011 10:57:02 15.4 C 87 % 13.25 C
1715 20-08-2011 11:09:02 15.7 C 87 % 13.54 C
1716 20-08-2011 11:21:02 16.2 C 85 % 13.68 C
1717 20-08-2011 11:33:02 16.7 C 85 % 14.17 C
1718 20-08-2011 11:45:02 17.3 C 81 % 14.01 C
1719 20-08-2011 11:57:02 17.7 C 76 % 13.42 C
1720 20-08-2011 12:09:02 19.1 C 65 % 12.37 C
1721 20-08-2011 12:21:02 19.6 C 59 % 11.37 C
1722 20-08-2011 12:33:02 20.1 C 57 % 11.32 C
1723 20-08-2011 12:45:02 20.3 C 57 % 11.51 C
1724 20-08-2011 12:57:02 20.3 C 57 % 11.51 C
1725 20-08-2011 13:09:02 20.9 C 54 % 11.25 C
Sensor: Nr:Datum:Temp:Feuchte:Taupunkt:
Aussen-T/F 1726 20-08-2011 13:21:02 21.9 C 50 % 11.01 C
1727 20-08-2011 13:33:02 22.3 C 49 % 11.08 C
1728 20-08-2011 13:45:02 23.7 C 41 % 9.68 C
1729 20-08-2011 13:57:02 28.8 C 32 % 10.47 C
1730 20-08-2011 14:09:02 31 C 25 % 8.67 C
1731 20-08-2011 14:21:02 29.4 C 25 % 7.33 C
1732 20-08-2011 14:33:02 30.8 C 24 % 7.91 C
1733 20-08-2011 14:45:02 31 C 22 % 6.8 C
1734 20-08-2011 14:57:02 31 C 20 % 5.42 C
1735 20-08-2011 15:09:02 31.3 C 21 % 6.37 C
1736 20-08-2011 15:21:02 31.4 C 23 % 7.78 C
1737 20-08-2011 15:33:01 30.1 C 25 % 7.92 C
1738 20-08-2011 15:45:02 32.1 C 20 % 6.32 C
1739 20-08-2011 15:57:02 32.1 C 20 % 6.32 C
1740 20-08-2011 16:09:01 31.2 C 21 % 6.29 C
1741 20-08-2011 16:21:02 31.9 C 23 % 8.2 C
1742 20-08-2011 16:33:01 31.2 C 20 % 5.59 C
1743 20-08-2011 16:45:02 31.3 C 20 % 5.67 C
1744 20-08-2011 16:57:02 32.5 C 20 % 6.65 C
1745 20-08-2011 17:09:01 31.8 C 20 % 6.08 C
1746 20-08-2011 17:21:01 31.7 C 22 % 7.38 C
1747 20-08-2011 17:33:01 31.5 C 26 % 9.68 C
1748 20-08-2011 17:45:02 31.2 C 27 % 9.99 C
1749 20-08-2011 17:57:02 30.8 C 27 % 9.65 C
1750 20-08-2011 18:09:02 31.9 C 22 % 7.55 C
Sensor: Nr:Datum:Temp:Feuchte:Taupunkt:
Aussen-T/F 1751 20-08-2011 18:21:02 30 C 30 % 10.54 C
1752 20-08-2011 18:33:02 30.8 C 23 % 7.28 C
1753 20-08-2011 18:45:02 29.7 C 31 % 10.77 C
1754 20-08-2011 18:57:02 30.3 C 31 % 11.29 C
1755 20-08-2011 19:09:01 27.8 C 37 % 11.78 C
1756 20-08-2011 19:21:01 26.5 C 36 % 10.22 C
1757 20-08-2011 19:33:02 24.4 C 45 % 11.7 C
1758 20-08-2011 19:45:02 23.1 C 49 % 11.81 C
1759 20-08-2011 19:57:02 22.5 C 50 % 11.56 C
1760 20-08-2011 20:09:02 21.8 C 51 % 11.22 C
1761 20-08-2011 20:21:02 20.9 C 54 % 11.25 C
1762 20-08-2011 20:33:02 20.2 C 56 % 11.15 C
1763 20-08-2011 20:45:02 19.6 C 58 % 11.12 C
1764 20-08-2011 20:57:02 19.1 C 60 % 11.16 C
1765 20-08-2011 21:09:02 18.7 C 61 % 11.03 C
1766 20-08-2011 21:21:02 18.6 C 62 % 11.18 C
1767 20-08-2011 21:33:02 18.7 C 62 % 11.28 C
1768 20-08-2011 21:45:01 18.3 C 62 % 10.9 C
1769 20-08-2011 21:57:01 18.2 C 63 % 11.05 C
1770 20-08-2011 22:09:01 18.2 C 65 % 11.52 C
1771 20-08-2011 22:22:02 18.2 C 64 % 11.28 C
1772 20-08-2011 22:34:03 17.9 C 66 % 11.46 C
1773 20-08-2011 22:46:03 17.4 C 66 % 10.99 C
1774 20-08-2011 22:58:03 16.8 C 70 % 11.3 C
1775 20-08-2011 23:10:03 16.5 C 70 % 11.01 C
Sensor: Nr:Datum:Temp:Feuchte:Taupunkt:
Aussen-T/F 1776 20-08-2011 23:22:03 16.2 C 71 % 10.94 C
1777 20-08-2011 23:34:03 15.8 C 73 % 10.97 C
1778 20-08-2011 23:46:03 15.4 C 74 % 10.79 C
1779 20-08-2011 23:58:03 15 C 76 % 10.81 C
1780 21-08-2011 00:10:03 14.8 C 78 % 11 C
1781 21-08-2011 00:22:03 14.6 C 78 % 10.81 C
1782 21-08-2011 00:34:03 14.2 C 79 % 10.61 C
1783 21-08-2011 00:46:03 14.1 C 79 % 10.52 C
1784 21-08-2011 00:58:03 14 C 79 % 10.42 C
1785 21-08-2011 01:10:03 14.2 C 80 % 10.8 C
1786 21-08-2011 01:22:03 14.1 C 81 % 10.89 C
1787 21-08-2011 01:34:03 13.9 C 82 % 10.88 C
1788 21-08-2011 01:46:03 13.9 C 82 % 10.88 C
1789 21-08-2011 01:58:03 13.6 C 81 % 10.4 C
1790 21-08-2011 02:10:03 13.3 C 80 % 9.93 C
1791 21-08-2011 02:22:03 13.3 C 80 % 9.93 C
1792 21-08-2011 02:34:03 13.2 C 81 % 10.01 C
1793 21-08-2011 02:46:04 13.1 C 81 % 9.92 C
1794 21-08-2011 02:58:04 13.1 C 82 % 10.1 C
1795 21-08-2011 03:10:04 13.1 C 82 % 10.1 C
1796 21-08-2011 03:22:04 13.1 C 83 % 10.28 C
1797 21-08-2011 03:34:04 13.1 C 83 % 10.28 C
1798 21-08-2011 03:46:04 13.3 C 83 % 10.48 C
1799 21-08-2011 03:58:04 13.5 C 84 % 10.85 C
1800 21-08-2011 04:10:04 13.1 C 84 % 10.46 C
Sensor: Nr:Datum:Temp:Feuchte:Taupunkt:
Aussen-T/F 1801 21-08-2011 04:22:04 13.2 C 84 % 10.56 C
1802 21-08-2011 04:34:04 13.7 C 86 % 11.4 C
1803 21-08-2011 04:46:04 14.1 C 85 % 11.62 C
1804 21-08-2011 04:58:04 14.4 C 85 % 11.91 C
1805 21-08-2011 05:10:04 14.6 C 84 % 11.93 C
1806 21-08-2011 05:22:04 14.6 C 83 % 11.75 C
1807 21-08-2011 05:34:04 14.8 C 82 % 11.76 C
1808 21-08-2011 05:46:05 14.8 C 81 % 11.57 C
1809 21-08-2011 05:58:05 14.9 C 80 % 11.48 C
1810 21-08-2011 06:10:05 14.4 C 80 % 11 C
1811 21-08-2011 06:22:05 14.2 C 82 % 11.17 C
1812 21-08-2011 06:34:05 14.4 C 83 % 11.55 C
1813 21-08-2011 06:46:05 14.8 C 84 % 12.12 C
1814 21-08-2011 06:58:05 15.3 C 82 % 12.25 C
1815 21-08-2011 07:10:05 15.5 C 80 % 12.07 C
1816 21-08-2011 07:22:05 15.6 C 78 % 11.78 C
1817 21-08-2011 07:34:05 15.7 C 76 % 11.48 C
1818 21-08-2011 07:46:05 15.5 C 77 % 11.49 C
1819 21-08-2011 07:58:05 15.2 C 81 % 11.96 C
1820 21-08-2011 08:10:05 15.4 C 83 % 12.53 C
1821 21-08-2011 08:22:05 15.8 C 83 % 12.92 C
1822 21-08-2011 08:34:05 16.3 C 81 % 13.04 C
1823 21-08-2011 08:46:06 17 C 75 % 12.54 C
1824 21-08-2011 08:58:06 17.2 C 72 % 12.11 C
1825 21-08-2011 09:10:03 17.6 C 74 % 12.91 C
Sensor: Nr:Datum:Temp:Feuchte:Taupunkt:
Aussen-T/F 1826 21-08-2011 09:22:02 18.1 C 70 % 12.55 C
1827 21-08-2011 09:34:02 18.1 C 69 % 12.33 C
1828 21-08-2011 09:46:01 18.4 C 69 % 12.61 C
1829 21-08-2011 09:58:01 18.2 C 71 % 12.86 C
1830 21-08-2011 10:10:02 18.2 C 71 % 12.86 C
1831 21-08-2011 10:22:01 18 C 75 % 13.51 C
1832 21-08-2011 10:34:01 17.9 C 77 % 13.81 C
1833 21-08-2011 10:46:01 17.4 C 80 % 13.92 C
1834 21-08-2011 10:58:01 17.2 C 82 % 14.1 C
1835 21-08-2011 11:10:02 17.2 C 83 % 14.29 C
1836 21-08-2011 11:22:02 17.1 C 84 % 14.38 C
1837 21-08-2011 11:34:01 17.1 C 85 % 14.56 C
1838 21-08-2011 11:46:01 17.1 C 85 % 14.56 C
1839 21-08-2011 11:58:01 17.6 C 85 % 15.05 C
1840 21-08-2011 12:10:01 18.4 C 85 % 15.83 C
1841 21-08-2011 12:22:02 19.7 C 84 % 16.92 C
1842 21-08-2011 12:34:01 21.3 C 79 % 17.51 C
1843 21-08-2011 12:46:02 22.5 C 72 % 17.2 C
1844 21-08-2011 12:58:02 23.5 C 67 % 17.02 C
1845 21-08-2011 13:10:01 23.4 C 65 % 16.45 C
1846 21-08-2011 13:22:01 24 C 64 % 16.77 C
1847 21-08-2011 13:34:01 24 C 64 % 16.77 C
1848 21-08-2011 13:46:02 24.5 C 65 % 17.49 C
1849 21-08-2011 13:58:02 28 C 51 % 16.92 C
1850 21-08-2011 14:10:02 30.4 C 44 % 16.77 C
Sensor: Nr:Datum:Temp:Feuchte:Taupunkt:
Aussen-T/F 1851 21-08-2011 14:22:02 30.7 C 39 % 15.15 C
1852 21-08-2011 14:34:02 31.3 C 38 % 15.28 C
1853 21-08-2011 14:46:02 30.7 C 36 % 13.92 C
1854 21-08-2011 14:58:02 31.9 C 32 % 13.15 C
1855 21-08-2011 15:10:02 32 C 33 % 13.71 C
1856 21-08-2011 15:22:02 31.9 C 31 % 12.67 C
1857 21-08-2011 15:34:02 32.3 C 32 % 13.5 C
1858 21-08-2011 15:46:02 33.2 C 30 % 13.29 C
1859 21-08-2011 15:58:02 32.4 C 31 % 13.1 C
1860 21-08-2011 16:10:02 32.6 C 29 % 12.25 C
1861 21-08-2011 16:22:03 32.8 C 30 % 12.94 C
1862 21-08-2011 16:34:02 31.9 C 34 % 14.09 C
1863 21-08-2011 16:46:03 31.7 C 37 % 15.22 C
1864 21-08-2011 16:58:03 31.9 C 32 % 13.15 C
1865 21-08-2011 17:10:02 31.4 C 38 % 15.37 C
1866 21-08-2011 17:22:02 32 C 35 % 14.62 C
1867 21-08-2011 17:34:02 30.6 C 42 % 16.22 C
1868 21-08-2011 17:46:02 30.9 C 41 % 16.11 C
1869 21-08-2011 17:58:02 30 C 45 % 16.77 C
1870 21-08-2011 18:10:02 27.9 C 53 % 17.43 C
1871 21-08-2011 18:22:02 25.4 C 63 % 17.84 C
1872 21-08-2011 18:34:01 25.2 C 64 % 17.9 C
1873 21-08-2011 18:46:02 24.7 C 66 % 17.92 C
1874 21-08-2011 18:58:02 24.4 C 66 % 17.64 C
1875 21-08-2011 19:10:01 23.9 C 68 % 17.63 C
Sensor: Nr:Datum:Temp:Feuchte:Taupunkt:
Aussen-T/F 1876 21-08-2011 19:22:01 24 C 67 % 17.49 C
1877 21-08-2011 19:34:02 24.7 C 64 % 17.43 C
1878 21-08-2011 19:46:02 25 C 62 % 17.21 C
1879 21-08-2011 19:58:02 24.4 C 64 % 17.15 C
1880 21-08-2011 20:10:02 24.1 C 65 % 17.11 C
1881 21-08-2011 20:22:02 24.1 C 65 % 17.11 C
1882 21-08-2011 20:34:02 24.1 C 65 % 17.11 C
1883 21-08-2011 20:46:02 22.5 C 71 % 16.98 C
1884 21-08-2011 20:58:02 22.3 C 73 % 17.23 C
1885 21-08-2011 21:10:03 22.3 C 73 % 17.23 C
1886 21-08-2011 21:22:02 22.3 C 73 % 17.23 C
1887 21-08-2011 21:34:02 22.3 C 73 % 17.23 C
1888 21-08-2011 21:46:01 22.3 C 73 % 17.23 C
1889 21-08-2011 21:58:01 22.3 C 73 % 17.23 C
1890 21-08-2011 22:10:01 22.3 C 73 % 17.23 C
1891 21-08-2011 22:22:02 22.3 C 73 % 17.23 C
1892 21-08-2011 22:34:02 22.3 C 73 % 17.23 C
1893 21-08-2011 22:46:02 22.3 C 73 % 17.23 C
1894 21-08-2011 22:58:02 22.3 C 73 % 17.23 C
1895 21-08-2011 23:10:02 22.3 C 73 % 17.23 C
1896 21-08-2011 23:22:02 22.3 C 73 % 17.23 C
1897 21-08-2011 23:34:02 22.3 C 73 % 17.23 C
1898 21-08-2011 23:46:02 22.3 C 73 % 17.23 C
1899 21-08-2011 23:58:02 22.3 C 73 % 17.23 C
1900 22-08-2011 00:10:02 22.3 C 73 % 17.23 C
Sensor: Nr:Datum:Temp:Feuchte:Taupunkt:
Aussen-T/F 1901 22-08-2011 00:22:01 22.3 C 73 % 17.23 C
1902 22-08-2011 00:34:02 22.3 C 73 % 17.23 C
1903 22-08-2011 00:46:01 22.3 C 73 % 17.23 C
1904 22-08-2011 00:58:01 22.3 C 73 % 17.23 C
1905 22-08-2011 01:10:02 22.3 C 73 % 17.23 C
1906 22-08-2011 01:23:03 19.6 C 87 % 17.38 C
1907 22-08-2011 01:35:03 19.8 C 87 % 17.57 C
1908 22-08-2011 01:47:03 20 C 86 % 17.59 C
1909 22-08-2011 01:59:03 20 C 86 % 17.59 C
1910 22-08-2011 02:11:04 19.8 C 87 % 17.57 C
1911 22-08-2011 02:23:04 19.7 C 86 % 17.29 C
1912 22-08-2011 02:35:04 19.7 C 86 % 17.29 C
1913 22-08-2011 02:47:04 19.7 C 86 % 17.29 C
1914 22-08-2011 02:59:04 19.3 C 87 % 17.08 C
1915 22-08-2011 03:11:04 19.6 C 87 % 17.38 C
1916 22-08-2011 03:23:04 19.2 C 87 % 16.98 C
1917 22-08-2011 03:35:04 19.7 C 87 % 17.47 C
1918 22-08-2011 03:47:04 20.1 C 86 % 17.68 C
1919 22-08-2011 03:59:04 20.3 C 86 % 17.88 C
1920 22-08-2011 04:11:04 20.4 C 86 % 17.98 C
1921 22-08-2011 04:23:04 20.5 C 87 % 18.26 C
1922 22-08-2011 04:35:04 20.4 C 86 % 17.98 C
1923 22-08-2011 04:47:04 20.2 C 85 % 17.6 C
1924 22-08-2011 04:59:04 19.8 C 86 % 17.39 C
1925 22-08-2011 05:11:04 19.5 C 85 % 16.91 C
Sensor: Nr:Datum:Temp:Feuchte:Taupunkt:
Aussen-T/F 1926 22-08-2011 05:23:04 19.6 C 85 % 17.01 C
1927 22-08-2011 05:35:04 19.6 C 86 % 17.19 C
1928 22-08-2011 05:47:04 19.6 C 85 % 17.01 C
1929 22-08-2011 05:59:04 19.4 C 85 % 16.81 C
1930 22-08-2011 06:11:05 19.4 C 85 % 16.81 C
1931 22-08-2011 06:23:05 19 C 85 % 16.42 C
1932 22-08-2011 06:35:05 18.9 C 87 % 16.69 C
1933 22-08-2011 06:47:05 18.7 C 87 % 16.49 C
1934 22-08-2011 06:59:05 18.8 C 87 % 16.59 C
1935 22-08-2011 07:11:05 18.9 C 87 % 16.69 C
1936 22-08-2011 07:23:05 19.1 C 86 % 16.7 C
1937 22-08-2011 07:35:03 19.1 C 86 % 16.7 C
1938 22-08-2011 07:47:02 19.1 C 86 % 16.7 C
1939 22-08-2011 07:59:02 19.1 C 86 % 16.7 C
1940 22-08-2011 08:11:02 19.1 C 86 % 16.7 C
1941 22-08-2011 08:23:01 19.1 C 86 % 16.7 C
1942 22-08-2011 08:35:02 19.1 C 86 % 16.7 C
1943 22-08-2011 08:47:02 20.7 C 83 % 17.71 C
1944 22-08-2011 08:59:02 21.1 C 79 % 17.32 C
1945 22-08-2011 09:11:02 21.9 C 79 % 18.09 C
1946 22-08-2011 09:23:02 22.2 C 73 % 17.13 C
1947 22-08-2011 09:35:02 22.6 C 73 % 17.51 C
1948 22-08-2011 09:47:01 23 C 67 % 16.54 C
1949 22-08-2011 09:59:01 23 C 66 % 16.31 C
1950 22-08-2011 10:11:02 22.7 C 68 % 16.49 C
Sensor: Nr:Datum:Temp:Feuchte:Taupunkt:
Aussen-T/F 1951 22-08-2011 10:23:02 22.6 C 69 % 16.62 C
1952 22-08-2011 10:35:02 23.2 C 65 % 16.26 C
1953 22-08-2011 10:47:02 23.6 C 62 % 15.89 C
1954 22-08-2011 10:59:02 24 C 58 % 15.23 C
1955 22-08-2011 11:11:02 23.9 C 59 % 15.4 C
1956 22-08-2011 11:23:02 24.6 C 57 % 15.52 C
1957 22-08-2011 11:35:02 24.5 C 57 % 15.42 C
1958 22-08-2011 11:47:03 24.8 C 54 % 14.86 C
1959 22-08-2011 11:59:03 25.7 C 51 % 14.81 C
1960 22-08-2011 12:11:02 26 C 48 % 14.14 C
1961 22-08-2011 12:23:03 25.7 C 50 % 14.5 C
1962 22-08-2011 12:35:02 26.2 C 49 % 14.64 C
1963 22-08-2011 12:47:02 25.7 C 49 % 14.19 C
1964 22-08-2011 12:59:02 26 C 49 % 14.46 C
1965 22-08-2011 13:11:02 26.1 C 48 % 14.23 C
1966 22-08-2011 13:23:02 27 C 46 % 14.39 C
1967 22-08-2011 13:35:02 27 C 46 % 14.39 C
1968 22-08-2011 13:47:02 28.1 C 42 % 13.98 C
1969 22-08-2011 13:59:02 30.9 C 35 % 13.66 C
1970 22-08-2011 14:11:02 31.7 C 30 % 12 C
1971 22-08-2011 14:23:02 31.2 C 30 % 11.57 C
1972 22-08-2011 14:35:02 31.3 C 31 % 12.15 C
1973 22-08-2011 14:47:02 31.4 C 31 % 12.24 C
1974 22-08-2011 14:59:02 31.8 C 26 % 9.93 C
1975 22-08-2011 15:11:02 31.9 C 22 % 7.55 C
Sensor: Nr:Datum:Temp:Feuchte:Taupunkt:
Aussen-T/F 1976 22-08-2011 15:23:02 31.5 C 22 % 7.22 C
1977 22-08-2011 15:35:01 31.6 C 25 % 9.18 C
1978 22-08-2011 15:47:02 31.2 C 25 % 8.84 C
1979 22-08-2011 15:59:02 31.9 C 25 % 9.43 C
1980 22-08-2011 16:11:01 33.3 C 20 % 7.3 C
1981 22-08-2011 16:23:01 32.4 C 20 % 6.57 C
1982 22-08-2011 16:35:02 32.5 C 20 % 6.65 C
1983 22-08-2011 16:47:02 32.8 C 20 % 6.9 C
1984 22-08-2011 16:59:02 31.9 C 30 % 12.17 C
1985 22-08-2011 17:11:01 32.5 C 25 % 9.94 C
1986 22-08-2011 17:23:02 32.8 C 22 % 8.29 C
1987 22-08-2011 17:35:02 32.5 C 21 % 7.36 C
1988 22-08-2011 17:47:02 33.3 C 23 % 9.36 C
1989 22-08-2011 17:59:02 32.7 C 22 % 8.21 C
1990 22-08-2011 18:11:01 32.7 C 24 % 9.49 C
1991 22-08-2011 18:23:02 32.3 C 21 % 7.2 C
1992 22-08-2011 18:35:01 30.6 C 26 % 8.92 C
1993 22-08-2011 18:47:02 30.1 C 33 % 12.06 C
1994 22-08-2011 18:59:02 28.7 C 39 % 13.38 C
1995 22-08-2011 19:11:02 28.1 C 43 % 14.35 C
1996 22-08-2011 19:23:03 26.8 C 49 % 15.19 C
1997 22-08-2011 19:35:02 26.2 C 48 % 14.32 C
1998 22-08-2011 19:47:03 25.3 C 54 % 15.33 C
1999 22-08-2011 19:59:03 24.6 C 57 % 15.52 C
2000 22-08-2011 20:11:02 24.1 C 58 % 15.32 C
Sensor: Nr:Datum:Temp:Feuchte:Taupunkt:
Aussen-T/F 2001 22-08-2011 20:23:02 23.4 C 59 % 14.93 C
2002 22-08-2011 20:35:02 22.9 C 59 % 14.47 C
2003 22-08-2011 20:47:02 22.4 C 60 % 14.26 C
2004 22-08-2011 20:59:02 21.7 C 62 % 14.1 C
2005 22-08-2011 21:11:02 21.2 C 63 % 13.88 C
2006 22-08-2011 21:23:02 21.1 C 64 % 14.03 C
2007 22-08-2011 21:36:02 20.7 C 67 % 14.36 C
2008 22-08-2011 21:48:02 21 C 65 % 14.17 C
2009 22-08-2011 22:00:02 20 C 69 % 14.14 C
2010 22-08-2011 22:12:02 19.9 C 70 % 14.27 C
2011 22-08-2011 22:24:02 19.9 C 70 % 14.27 C
2012 22-08-2011 22:36:02 19.5 C 73 % 14.53 C
2013 22-08-2011 22:48:02 18.9 C 75 % 14.37 C
2014 22-08-2011 23:00:02 18.9 C 75 % 14.37 C
2015 22-08-2011 23:12:03 18.6 C 74 % 13.88 C
2016 22-08-2011 23:24:03 18.4 C 75 % 13.89 C
2017 22-08-2011 23:36:03 18.4 C 77 % 14.3 C
2018 22-08-2011 23:48:03 18.4 C 78 % 14.5 C
2019 23-08-2011 00:00:03 18.1 C 78 % 14.21 C
2020 23-08-2011 00:12:03 18.3 C 78 % 14.4 C
2021 23-08-2011 00:24:03 18 C 79 % 14.31 C
2022 23-08-2011 00:36:03 17.7 C 80 % 14.21 C
2023 23-08-2011 00:48:03 17.4 C 81 % 14.11 C
2024 23-08-2011 01:00:03 17.6 C 82 % 14.49 C
2025 23-08-2011 01:12:03 17.3 C 83 % 14.39 C
Sensor: Nr:Datum:Temp:Feuchte:Taupunkt:
Aussen-T/F 2026 23-08-2011 01:24:03 17.3 C 83 % 14.39 C
2027 23-08-2011 01:36:03 17.2 C 83 % 14.29 C
2028 23-08-2011 01:48:03 17.1 C 83 % 14.19 C
2029 23-08-2011 02:00:03 17.2 C 84 % 14.47 C
2030 23-08-2011 02:12:03 17.4 C 84 % 14.67 C
2031 23-08-2011 02:24:03 17.1 C 84 % 14.38 C
2032 23-08-2011 02:36:03 17.5 C 84 % 14.77 C
2033 23-08-2011 02:48:03 17.7 C 84 % 14.96 C
2034 23-08-2011 03:00:03 17.8 C 84 % 15.06 C
2035 23-08-2011 03:12:03 17.9 C 84 % 15.16 C
2036 23-08-2011 03:24:04 17.7 C 83 % 14.78 C
2037 23-08-2011 03:36:04 18.5 C 80 % 14.99 C
2038 23-08-2011 03:48:04 18.4 C 75 % 13.89 C
2039 23-08-2011 04:00:04 18.2 C 76 % 13.9 C
2040 23-08-2011 04:12:04 18 C 76 % 13.71 C
2041 23-08-2011 04:24:04 17.7 C 77 % 13.62 C
2042 23-08-2011 04:36:04 17.5 C 79 % 13.82 C
2043 23-08-2011 04:48:04 17.1 C 80 % 13.62 C
2044 23-08-2011 05:00:04 16.9 C 82 % 13.81 C
2045 23-08-2011 05:12:04 17.3 C 82 % 14.2 C
2046 23-08-2011 05:24:04 17.4 C 81 % 14.11 C
2047 23-08-2011 05:36:04 17.3 C 81 % 14.01 C
2048 23-08-2011 05:48:04 17.3 C 81 % 14.01 C
2049 23-08-2011 06:00:04 17.1 C 82 % 14 C
2050 23-08-2011 06:12:04 17 C 82 % 13.91 C
Sensor: Nr:Datum:Temp:Feuchte:Taupunkt:
Aussen-T/F 2051 23-08-2011 06:24:04 16.8 C 83 % 13.9 C
2052 23-08-2011 06:36:04 16.8 C 83 % 13.9 C
2053 23-08-2011 06:48:04 16.8 C 84 % 14.08 C
2054 23-08-2011 07:00:04 17.2 C 84 % 14.47 C
2055 23-08-2011 07:12:04 17.6 C 84 % 14.87 C
2056 23-08-2011 07:24:04 18 C 81 % 14.69 C
2057 23-08-2011 07:36:02 18.3 C 79 % 14.6 C
2058 23-08-2011 07:48:02 18.7 C 78 % 14.79 C
2059 23-08-2011 08:00:02 19.1 C 76 % 14.77 C
2060 23-08-2011 08:12:02 19.3 C 73 % 14.34 C
2061 23-08-2011 08:24:02 19.5 C 73 % 14.53 C
2062 23-08-2011 08:36:02 19.7 C 74 % 14.94 C
2063 23-08-2011 08:48:01 20.1 C 69 % 14.24 C
2064 23-08-2011 09:00:01 20.3 C 68 % 14.2 C
2065 23-08-2011 09:12:02 20.4 C 69 % 14.52 C
2066 23-08-2011 09:24:01 19.8 C 73 % 14.82 C
2067 23-08-2011 09:36:02 20.3 C 73 % 15.3 C
2068 23-08-2011 09:48:02 21 C 71 % 15.54 C
2069 23-08-2011 10:00:02 21.8 C 69 % 15.86 C
2070 23-08-2011 10:12:02 22.2 C 65 % 15.31 C
2071 23-08-2011 10:24:02 22.8 C 62 % 15.14 C
2072 23-08-2011 10:36:02 22.8 C 63 % 15.39 C
2073 23-08-2011 10:48:02 23.2 C 63 % 15.77 C
2074 23-08-2011 11:00:02 23.5 C 62 % 15.8 C
2075 23-08-2011 11:12:03 23.1 C 64 % 15.92 C
Sensor: Nr:Datum:Temp:Feuchte:Taupunkt:
Aussen-T/F 2076 23-08-2011 11:24:02 23.6 C 65 % 16.64 C
2077 23-08-2011 11:36:02 23.9 C 63 % 16.43 C
2078 23-08-2011 11:48:01 25.2 C 59 % 16.62 C
2079 23-08-2011 12:00:01 25.9 C 54 % 15.88 C
2080 23-08-2011 12:12:02 27.7 C 47 % 15.36 C
2081 23-08-2011 12:24:01 28 C 49 % 16.29 C
2082 23-08-2011 12:36:01 27.7 C 49 % 16.01 C
2083 23-08-2011 12:48:01 28.1 C 47 % 15.73 C
2084 23-08-2011 13:00:01 29.2 C 43 % 15.33 C
2085 23-08-2011 13:12:02 29.5 C 44 % 15.96 C
2086 23-08-2011 13:24:02 29.9 C 46 % 17.02 C
2087 23-08-2011 13:36:01 29.4 C 45 % 16.23 C
2088 23-08-2011 13:48:01 30.3 C 39 % 14.8 C
2089 23-08-2011 14:00:01 32.4 C 34 % 14.52 C
2090 23-08-2011 14:12:01 33 C 26 % 10.94 C
2091 23-08-2011 14:24:02 31.3 C 29 % 11.14 C
2092 23-08-2011 14:36:01 30.9 C 31 % 11.81 C
2093 23-08-2011 14:48:02 31.3 C 28 % 10.62 C
2094 23-08-2011 15:00:02 31.7 C 28 % 10.96 C
2095 23-08-2011 15:12:01 31.8 C 27 % 10.49 C
2096 23-08-2011 15:24:02 32.3 C 25 % 9.77 C
2097 23-08-2011 15:36:01 32.7 C 23 % 8.86 C
2098 23-08-2011 15:48:02 32.9 C 23 % 9.03 C
2099 23-08-2011 16:00:02 33 C 22 % 8.46 C
2100 23-08-2011 16:12:02 33.5 C 22 % 8.87 C
Sensor: Nr:Datum:Temp:Feuchte:Taupunkt:
Aussen-T/F 2101 23-08-2011 16:24:02 33.3 C 23 % 9.36 C
2102 23-08-2011 16:36:02 32.9 C 26 % 10.86 C
2103 23-08-2011 16:48:01 32.3 C 27 % 10.92 C
2104 23-08-2011 17:00:01 33.3 C 25 % 10.61 C
2105 23-08-2011 17:12:01 32.7 C 25 % 10.1 C
2106 23-08-2011 17:24:01 32.9 C 24 % 9.66 C
2107 23-08-2011 17:36:01 33 C 25 % 10.35 C
2108 23-08-2011 17:48:01 31.4 C 30 % 11.74 C
2109 23-08-2011 18:00:01 30.4 C 36 % 13.65 C
2110 23-08-2011 18:12:01 29.6 C 42 % 15.33 C
2111 23-08-2011 18:24:02 30 C 40 % 14.93 C
2112 23-08-2011 18:36:01 31.3 C 35 % 14.01 C
2113 23-08-2011 18:48:01 31 C 37 % 14.6 C
2114 23-08-2011 19:00:01 30.7 C 40 % 15.55 C
2115 23-08-2011 19:12:01 30.6 C 33 % 12.5 C
2116 23-08-2011 19:24:02 30.6 C 35 % 13.39 C
2117 23-08-2011 19:36:01 28.9 C 42 % 14.7 C
2118 23-08-2011 19:48:03 27.7 C 48 % 15.69 C
2119 23-08-2011 20:00:03 26.5 C 53 % 16.14 C
2120 23-08-2011 20:12:02 25.5 C 57 % 16.36 C
2121 23-08-2011 20:24:02 24.6 C 60 % 16.32 C
2122 23-08-2011 20:36:02 24.1 C 64 % 16.86 C
2123 23-08-2011 20:48:02 23.7 C 66 % 16.97 C
2124 23-08-2011 21:00:02 23.4 C 66 % 16.69 C
2125 23-08-2011 21:12:02 23.3 C 60 % 15.1 C
Sensor: Nr:Datum:Temp:Feuchte:Taupunkt:
Aussen-T/F 2126 23-08-2011 21:24:02 23.2 C 61 % 15.26 C
2127 23-08-2011 21:36:02 22.8 C 65 % 15.88 C
2128 23-08-2011 21:48:02 22.5 C 65 % 15.59 C
2129 23-08-2011 22:00:02 21.8 C 67 % 15.4 C
2130 23-08-2011 22:12:02 21.6 C 69 % 15.67 C
2131 23-08-2011 22:24:01 21.2 C 70 % 15.51 C
2132 23-08-2011 22:36:02 20.9 C 71 % 15.45 C
2133 23-08-2011 22:48:02 20.6 C 72 % 15.38 C
2134 23-08-2011 23:00:02 20.4 C 73 % 15.4 C
2135 23-08-2011 23:12:02 20.5 C 74 % 15.71 C
2136 23-08-2011 23:25:03 20.1 C 75 % 15.53 C
2137 23-08-2011 23:37:03 20 C 75 % 15.43 C
2138 23-08-2011 23:49:03 20.3 C 76 % 15.93 C
2139 24-08-2011 00:01:03 20.3 C 74 % 15.51 C
2140 24-08-2011 00:13:03 20.8 C 73 % 15.78 C
2141 24-08-2011 00:25:03 20.9 C 72 % 15.66 C
2142 24-08-2011 00:37:03 20.7 C 70 % 15.03 C
2143 24-08-2011 00:49:03 20.5 C 71 % 15.06 C
2144 24-08-2011 01:01:03 20.3 C 71 % 14.87 C
2145 24-08-2011 01:13:03 20.4 C 70 % 14.75 C
2146 24-08-2011 01:25:03 20.1 C 71 % 14.68 C
2147 24-08-2011 01:37:04 20.7 C 69 % 14.81 C
2148 24-08-2011 01:49:04 20.4 C 68 % 14.3 C
2149 24-08-2011 02:01:04 20.5 C 68 % 14.39 C
2150 24-08-2011 02:13:04 20.7 C 68 % 14.58 C
Sensor: Nr:Datum:Temp:Feuchte:Taupunkt:
Aussen-T/F 2151 24-08-2011 02:25:04 20.4 C 68 % 14.3 C
2152 24-08-2011 02:37:04 20.3 C 69 % 14.43 C
2153 24-08-2011 02:49:04 19.9 C 73 % 14.92 C
2154 24-08-2011 03:01:04 19.9 C 73 % 14.92 C
2155 24-08-2011 03:13:04 19.5 C 74 % 14.74 C
2156 24-08-2011 03:25:04 18.9 C 77 % 14.78 C
2157 24-08-2011 03:37:04 18.9 C 78 % 14.98 C
2158 24-08-2011 03:49:04 19.1 C 77 % 14.97 C
2159 24-08-2011 04:01:04 19.1 C 76 % 14.77 C
2160 24-08-2011 04:13:04 19.2 C 76 % 14.87 C
2161 24-08-2011 04:25:04 19.1 C 75 % 14.57 C
2162 24-08-2011 04:37:04 18.7 C 77 % 14.59 C
2163 24-08-2011 04:49:04 18.6 C 79 % 14.89 C
2164 24-08-2011 05:01:04 18.2 C 80 % 14.69 C
2165 24-08-2011 05:13:04 17.8 C 82 % 14.69 C
2166 24-08-2011 05:25:04 17.5 C 82 % 14.39 C
2167 24-08-2011 05:37:04 17.4 C 82 % 14.3 C
2168 24-08-2011 05:49:05 17.2 C 83 % 14.29 C
2169 24-08-2011 06:01:05 17.2 C 83 % 14.29 C
2170 24-08-2011 06:13:05 17.2 C 84 % 14.47 C
2171 24-08-2011 06:25:05 17 C 84 % 14.28 C
2172 24-08-2011 06:37:05 16.8 C 84 % 14.08 C
2173 24-08-2011 06:49:05 16.9 C 85 % 14.36 C
2174 24-08-2011 07:01:05 16.8 C 85 % 14.26 C
2175 24-08-2011 07:13:05 17.2 C 85 % 14.66 C
Sensor: Nr:Datum:Temp:Feuchte:Taupunkt:
Aussen-T/F 2176 24-08-2011 07:25:02 17.7 C 85 % 15.15 C
2177 24-08-2011 07:37:03 17.7 C 84 % 14.96 C
2178 24-08-2011 07:49:03 17.6 C 84 % 14.87 C
2179 24-08-2011 08:01:02 18.3 C 84 % 15.55 C
2180 24-08-2011 08:13:02 19.2 C 78 % 15.27 C
2181 24-08-2011 08:25:02 19.3 C 75 % 14.76 C
2182 24-08-2011 08:37:02 19.5 C 74 % 14.74 C
2183 24-08-2011 08:49:02 19.6 C 73 % 14.63 C
2184 24-08-2011 09:01:02 19.2 C 76 % 14.87 C
2185 24-08-2011 09:13:02 19 C 78 % 15.08 C
2186 24-08-2011 09:25:02 19.2 C 79 % 15.47 C
2187 24-08-2011 09:37:02 19.3 C 79 % 15.57 C
2188 24-08-2011 09:49:02 19.3 C 79 % 15.57 C
2189 24-08-2011 10:01:02 19.9 C 78 % 15.95 C
2190 24-08-2011 10:13:02 20.4 C 73 % 15.4 C
2191 24-08-2011 10:25:01 20.9 C 71 % 15.45 C
2192 24-08-2011 10:37:02 21.3 C 70 % 15.61 C
2193 24-08-2011 10:49:02 22.7 C 65 % 15.78 C
2194 24-08-2011 11:01:02 22.6 C 64 % 15.45 C
2195 24-08-2011 11:13:02 22.9 C 61 % 14.98 C
2196 24-08-2011 11:25:02 23.1 C 59 % 14.65 C
2197 24-08-2011 11:37:02 24.7 C 53 % 14.48 C
2198 24-08-2011 11:49:02 25.6 C 47 % 13.45 C
2199 24-08-2011 12:01:02 25.4 C 47 % 13.27 C
2200 24-08-2011 12:13:03 25.7 C 47 % 13.55 C
Sensor: Nr:Datum:Temp:Feuchte:Taupunkt:
Aussen-T/F 2201 24-08-2011 12:25:02 25.5 C 49 % 14 C
2202 24-08-2011 12:37:02 25.6 C 48 % 13.78 C
2203 24-08-2011 12:49:01 26 C 47 % 13.82 C
2204 24-08-2011 13:01:01 26.1 C 45 % 13.24 C
2205 24-08-2011 13:13:01 26.6 C 44 % 13.35 C
2206 24-08-2011 13:25:02 27.1 C 43 % 13.45 C
2207 24-08-2011 13:37:01 27.4 C 40 % 12.61 C
2208 24-08-2011 13:49:02 28.3 C 39 % 13.02 C
2209 24-08-2011 14:01:02 30.1 C 31 % 11.12 C
2210 24-08-2011 14:13:02 31.5 C 28 % 10.79 C
2211 24-08-2011 14:25:02 28.6 C 36 % 12.07 C
2212 24-08-2011 14:37:02 26.8 C 44 % 13.53 C
2213 24-08-2011 14:49:01 25.7 C 49 % 14.19 C
2214 24-08-2011 15:01:01 24.8 C 54 % 14.86 C
2215 24-08-2011 15:13:01 23.8 C 61 % 15.83 C
2216 24-08-2011 15:25:02 24.1 C 51 % 13.34 C
2217 24-08-2011 15:37:01 24 C 50 % 12.94 C
2218 24-08-2011 15:49:03 24.5 C 49 % 13.09 C
2219 24-08-2011 16:01:02 25.6 C 40 % 11 C
2220 24-08-2011 16:13:02 24.9 C 43 % 11.47 C
2221 24-08-2011 16:25:02 23.8 C 50 % 12.76 C
2222 24-08-2011 16:37:02 21.5 C 62 % 13.92 C
2223 24-08-2011 16:49:02 22.2 C 64 % 15.07 C
2224 24-08-2011 17:01:02 22.5 C 59 % 14.09 C
2225 24-08-2011 17:13:02 22.9 C 54 % 13.1 C
Sensor: Nr:Datum:Temp:Feuchte:Taupunkt:
Aussen-T/F 2226 24-08-2011 17:25:02 21.9 C 62 % 14.29 C
2227 24-08-2011 17:37:02 23.7 C 49 % 12.36 C
2228 24-08-2011 17:49:02 22.4 C 57 % 13.47 C
2229 24-08-2011 18:01:02 22.3 C 60 % 14.16 C
2230 24-08-2011 18:13:02 21.6 C 65 % 14.74 C
2231 24-08-2011 18:25:02 21.1 C 70 % 15.42 C
2232 24-08-2011 18:37:02 21.2 C 70 % 15.51 C
2233 24-08-2011 18:49:02 21.7 C 68 % 15.54 C
2234 24-08-2011 19:01:02 21.8 C 61 % 13.95 C
2235 24-08-2011 19:13:02 21.6 C 59 % 13.25 C
2236 24-08-2011 19:25:02 21.6 C 60 % 13.51 C
2237 24-08-2011 19:37:02 21.7 C 59 % 13.34 C
2238 24-08-2011 19:49:02 20.7 C 63 % 13.41 C
2239 24-08-2011 20:01:02 20.2 C 67 % 13.88 C
2240 24-08-2011 20:13:02 20 C 67 % 13.69 C
2241 24-08-2011 20:25:03 20 C 67 % 13.69 C
2242 24-08-2011 20:37:02 19.6 C 69 % 13.76 C
2243 24-08-2011 20:49:02 19.8 C 67 % 13.5 C
2244 24-08-2011 21:01:02 19.1 C 70 % 13.5 C
2245 24-08-2011 21:13:02 18.8 C 73 % 13.86 C
2246 24-08-2011 21:25:02 18.8 C 73 % 13.86 C
2247 24-08-2011 21:37:02 18.1 C 76 % 13.81 C
2248 24-08-2011 21:49:01 18 C 78 % 14.11 C
2249 24-08-2011 22:01:02 17.8 C 80 % 14.31 C
2250 24-08-2011 22:13:02 17.8 C 81 % 14.5 C
Sensor: Nr:Datum:Temp:Feuchte:Taupunkt:
Aussen-T/F 2251 24-08-2011 22:26:03 17.8 C 81 % 14.5 C
2252 24-08-2011 22:38:03 18.2 C 79 % 14.5 C
2253 24-08-2011 22:50:03 17.7 C 80 % 14.21 C
2254 24-08-2011 23:02:03 17.6 C 82 % 14.49 C
2255 24-08-2011 23:14:03 17.7 C 82 % 14.59 C
2256 24-08-2011 23:26:03 17.5 C 82 % 14.39 C
2257 24-08-2011 23:38:03 17.3 C 82 % 14.2 C
2258 24-08-2011 23:50:03 17.2 C 83 % 14.29 C
2259 25-08-2011 00:02:03 17.5 C 83 % 14.58 C
2260 25-08-2011 00:14:03 17.2 C 83 % 14.29 C
2261 25-08-2011 00:26:03 17.1 C 83 % 14.19 C
2262 25-08-2011 00:38:03 17.3 C 83 % 14.39 C
2263 25-08-2011 00:50:03 16.5 C 83 % 13.6 C
2264 25-08-2011 01:02:03 16.2 C 84 % 13.5 C
2265 25-08-2011 01:14:03 16.1 C 84 % 13.4 C
2266 25-08-2011 01:26:04 15.5 C 85 % 12.99 C
2267 25-08-2011 01:38:04 15.2 C 85 % 12.7 C
2268 25-08-2011 01:50:04 15.4 C 86 % 13.07 C
2269 25-08-2011 02:02:04 15.6 C 87 % 13.45 C
2270 25-08-2011 02:14:04 15.2 C 87 % 13.05 C
2271 25-08-2011 02:26:04 15.2 C 87 % 13.05 C
2272 25-08-2011 02:38:04 14.8 C 88 % 12.83 C
2273 25-08-2011 02:50:04 14.7 C 88 % 12.73 C
2274 25-08-2011 03:02:04 14.7 C 88 % 12.73 C
2275 25-08-2011 03:14:04 14.6 C 88 % 12.64 C
Sensor: Nr:Datum:Temp:Feuchte:Taupunkt:
Aussen-T/F 2276 25-08-2011 03:26:04 14.5 C 88 % 12.54 C
2277 25-08-2011 03:38:04 14.4 C 88 % 12.44 C
2278 25-08-2011 03:50:04 14.7 C 88 % 12.73 C
2279 25-08-2011 04:02:04 14.4 C 88 % 12.44 C
2280 25-08-2011 04:14:04 14.3 C 88 % 12.34 C
2281 25-08-2011 04:26:04 14.4 C 88 % 12.44 C
2282 25-08-2011 04:38:04 14.8 C 89 % 13.01 C
2283 25-08-2011 04:50:04 14.9 C 89 % 13.1 C
2284 25-08-2011 05:02:04 14.8 C 89 % 13.01 C
2285 25-08-2011 05:14:04 14.7 C 89 % 12.91 C
2286 25-08-2011 05:26:04 14.3 C 89 % 12.51 C
2287 25-08-2011 05:38:05 14.4 C 89 % 12.61 C
2288 25-08-2011 05:50:05 14.1 C 89 % 12.32 C
2289 25-08-2011 06:02:05 13.9 C 89 % 12.12 C
2290 25-08-2011 06:14:05 14.2 C 89 % 12.41 C
2291 25-08-2011 06:26:05 14.6 C 89 % 12.81 C
2292 25-08-2011 06:38:05 15.1 C 89 % 13.3 C
2293 25-08-2011 06:50:05 15.4 C 89 % 13.6 C
2294 25-08-2011 07:02:05 15.6 C 89 % 13.79 C
2295 25-08-2011 07:14:05 15.8 C 90 % 14.16 C
2296 25-08-2011 07:26:05 15.8 C 90 % 14.16 C
2297 25-08-2011 07:38:03 16.1 C 89 % 14.29 C
2298 25-08-2011 07:50:02 16.2 C 89 % 14.39 C
2299 25-08-2011 08:02:02 16.2 C 89 % 14.39 C
2300 25-08-2011 08:14:02 16.6 C 89 % 14.78 C
Sensor: Nr:Datum:Temp:Feuchte:Taupunkt:
Aussen-T/F 2301 25-08-2011 08:26:01 16.7 C 89 % 14.88 C
2302 25-08-2011 08:38:02 16.8 C 89 % 14.98 C
2303 25-08-2011 08:50:02 16.9 C 88 % 14.9 C
2304 25-08-2011 09:02:02 17.5 C 87 % 15.31 C
2305 25-08-2011 09:14:02 18.1 C 82 % 14.98 C
2306 25-08-2011 09:26:02 18.3 C 78 % 14.4 C
2307 25-08-2011 09:38:02 18.5 C 75 % 13.99 C
2308 25-08-2011 09:50:02 18.9 C 75 % 14.37 C
2309 25-08-2011 10:02:02 19.1 C 72 % 13.94 C
2310 25-08-2011 10:14:03 19.4 C 70 % 13.79 C
2311 25-08-2011 10:26:02 19.8 C 67 % 13.5 C
2312 25-08-2011 10:38:02 19.8 C 66 % 13.27 C
2313 25-08-2011 10:50:01 20.4 C 64 % 13.37 C
2314 25-08-2011 11:02:01 20.8 C 63 % 13.5 C
2315 25-08-2011 11:14:01 21.3 C 59 % 12.97 C
2316 25-08-2011 11:26:01 20.3 C 64 % 13.27 C
2317 25-08-2011 11:38:01 20.1 C 65 % 13.32 C
2318 25-08-2011 11:50:01 20.2 C 67 % 13.88 C
2319 25-08-2011 12:02:01 20.8 C 65 % 13.98 C
2320 25-08-2011 12:14:01 21.2 C 64 % 14.12 C
2321 25-08-2011 12:26:02 22 C 60 % 13.88 C
2322 25-08-2011 12:38:01 22.4 C 60 % 14.26 C
2323 25-08-2011 12:50:03 23.3 C 58 % 14.58 C
2324 25-08-2011 13:02:02 24.1 C 55 % 14.5 C
2325 25-08-2011 13:14:02 24.7 C 53 % 14.48 C
Sensor: Nr:Datum:Temp:Feuchte:Taupunkt:
Aussen-T/F 2326 25-08-2011 13:26:03 25.3 C 50 % 14.13 C
2327 25-08-2011 13:38:02 25.4 C 50 % 14.22 C
2328 25-08-2011 13:50:01 27.2 C 44 % 13.89 C
2329 25-08-2011 14:02:01 29.6 C 38 % 13.78 C
2330 25-08-2011 14:14:01 31.2 C 32 % 12.55 C
2331 25-08-2011 14:26:02 31.2 C 33 % 13.02 C
2332 25-08-2011 14:38:01 31.4 C 31 % 12.24 C
2333 25-08-2011 14:50:02 31.5 C 29 % 11.31 C
2334 25-08-2011 15:02:02 30.7 C 30 % 11.14 C
2335 25-08-2011 15:14:02 31.1 C 31 % 11.98 C
2336 25-08-2011 15:26:02 30.7 C 33 % 12.58 C
2337 25-08-2011 15:38:02 30.7 C 32 % 12.11 C
2338 25-08-2011 15:50:02 30.2 C 32 % 11.68 C
2339 25-08-2011 16:02:02 29.8 C 36 % 13.12 C
2340 25-08-2011 16:14:02 29.3 C 36 % 12.68 C
2341 25-08-2011 16:26:02 28.3 C 40 % 13.41 C
2342 25-08-2011 16:38:01 27.9 C 43 % 14.17 C
2343 25-08-2011 16:50:02 27.2 C 44 % 13.89 C
2344 25-08-2011 17:02:01 27.1 C 45 % 14.15 C
2345 25-08-2011 17:14:01 26.5 C 46 % 13.94 C
2346 25-08-2011 17:26:02 25.7 C 51 % 14.81 C
2347 25-08-2011 17:38:02 25.3 C 54 % 15.33 C
2348 25-08-2011 17:50:02 25.1 C 56 % 15.71 C
2349 25-08-2011 18:02:02 25.6 C 56 % 16.17 C
2350 25-08-2011 18:14:02 27.6 C 45 % 14.6 C
Sensor: Nr:Datum:Temp:Feuchte:Taupunkt:
Aussen-T/F 2351 25-08-2011 18:26:02 28.4 C 40 % 13.5 C
2352 25-08-2011 18:38:03 27.8 C 44 % 14.43 C
2353 25-08-2011 18:50:02 26.8 C 50 % 15.51 C
2354 25-08-2011 19:02:02 25.6 C 52 % 15.02 C
2355 25-08-2011 19:14:02 25.3 C 54 % 15.33 C
2356 25-08-2011 19:26:02 24.7 C 57 % 15.61 C
2357 25-08-2011 19:38:01 24.4 C 58 % 15.6 C
2358 25-08-2011 19:50:02 23.7 C 62 % 15.99 C
2359 25-08-2011 20:02:01 23.3 C 65 % 16.35 C
2360 25-08-2011 20:14:01 23 C 64 % 15.82 C
2361 25-08-2011 20:26:02 22.7 C 67 % 16.26 C
2362 25-08-2011 20:38:02 22.3 C 68 % 16.11 C
2363 25-08-2011 20:50:02 21.9 C 71 % 16.4 C
2364 25-08-2011 21:02:02 21.1 C 73 % 16.07 C
2365 25-08-2011 21:14:02 20.7 C 76 % 16.32 C
2366 25-08-2011 21:26:02 21.2 C 75 % 16.59 C
2367 25-08-2011 21:38:02 21.2 C 74 % 16.38 C
2368 25-08-2011 21:50:02 20.8 C 78 % 16.82 C
2369 25-08-2011 22:02:02 20.5 C 80 % 16.93 C
2370 25-08-2011 22:14:03 20.4 C 82 % 17.22 C
2371 25-08-2011 22:27:03 20.4 C 82 % 17.22 C
2372 25-08-2011 22:39:03 20.3 C 83 % 17.32 C
2373 25-08-2011 22:51:03 20.1 C 83 % 17.12 C
2374 25-08-2011 23:03:03 20.1 C 83 % 17.12 C
2375 25-08-2011 23:15:03 20.1 C 83 % 17.12 C
Sensor: Nr:Datum:Temp:Feuchte:Taupunkt:
Aussen-T/F 2376 25-08-2011 23:27:03 20 C 83 % 17.02 C
2377 25-08-2011 23:39:03 19.8 C 84 % 17.02 C
2378 25-08-2011 23:51:03 20 C 84 % 17.21 C
2379 26-08-2011 00:03:03 19.6 C 84 % 16.82 C
2380 26-08-2011 00:15:03 19.5 C 85 % 16.91 C
2381 26-08-2011 00:27:04 19.6 C 85 % 17.01 C
2382 26-08-2011 00:39:04 19.8 C 86 % 17.39 C
2383 26-08-2011 00:51:04 20 C 85 % 17.4 C
2384 26-08-2011 01:03:04 19.8 C 86 % 17.39 C
2385 26-08-2011 01:15:04 19.7 C 85 % 17.11 C
2386 26-08-2011 01:27:04 19.6 C 85 % 17.01 C
2387 26-08-2011 01:39:04 19.6 C 85 % 17.01 C
2388 26-08-2011 01:51:04 19.4 C 85 % 16.81 C
2389 26-08-2011 02:03:04 19.1 C 85 % 16.52 C
2390 26-08-2011 02:15:04 19.1 C 85 % 16.52 C
2391 26-08-2011 02:27:04 19.1 C 85 % 16.52 C
2392 26-08-2011 02:39:04 19 C 86 % 16.6 C
2393 26-08-2011 02:51:04 19 C 86 % 16.6 C
2394 26-08-2011 03:03:04 18.8 C 87 % 16.59 C
2395 26-08-2011 03:15:04 19.1 C 86 % 16.7 C
2396 26-08-2011 03:27:04 19.1 C 86 % 16.7 C
2397 26-08-2011 03:39:04 19.3 C 87 % 17.08 C
2398 26-08-2011 03:51:04 19.1 C 87 % 16.89 C
2399 26-08-2011 04:03:04 18.9 C 87 % 16.69 C
2400 26-08-2011 04:15:04 18.5 C 87 % 16.3 C
Sensor: Nr:Datum:Temp:Feuchte:Taupunkt:
Aussen-T/F 2401 26-08-2011 04:27:04 18.3 C 87 % 16.1 C
2402 26-08-2011 04:39:04 18.3 C 87 % 16.1 C
2403 26-08-2011 04:51:05 18.2 C 87 % 16 C
2404 26-08-2011 05:03:05 18.1 C 87 % 15.9 C
2405 26-08-2011 05:15:05 18 C 87 % 15.8 C
2406 26-08-2011 05:27:05 18.2 C 87 % 16 C
2407 26-08-2011 05:39:05 17.9 C 88 % 15.88 C
2408 26-08-2011 05:51:05 17.9 C 88 % 15.88 C
2409 26-08-2011 06:03:05 17.7 C 88 % 15.69 C
2410 26-08-2011 06:15:05 17.5 C 88 % 15.49 C
2411 26-08-2011 06:27:05 17.8 C 88 % 15.79 C
2412 26-08-2011 06:39:05 17.7 C 88 % 15.69 C
2413 26-08-2011 06:51:05 17.9 C 88 % 15.88 C
2414 26-08-2011 07:03:05 17.7 C 89 % 15.86 C
2415 26-08-2011 07:15:05 18 C 88 % 15.98 C
2416 26-08-2011 07:27:05 18.1 C 88 % 16.08 C
2417 26-08-2011 07:39:02 18.2 C 88 % 16.18 C
2418 26-08-2011 07:51:01 18.3 C 88 % 16.28 C
2419 26-08-2011 08:03:01 18.8 C 88 % 16.77 C
2420 26-08-2011 08:15:01 18.5 C 87 % 16.3 C
2421 26-08-2011 08:27:01 18.6 C 87 % 16.39 C
2422 26-08-2011 08:39:02 18.7 C 87 % 16.49 C
2423 26-08-2011 08:51:02 18.9 C 86 % 16.51 C
2424 26-08-2011 09:03:02 19.1 C 84 % 16.33 C
2425 26-08-2011 09:15:01 19.2 C 84 % 16.43 C
Sensor: Nr:Datum:Temp:Feuchte:Taupunkt:
Aussen-T/F 2426 26-08-2011 09:27:01 19.6 C 83 % 16.63 C
2427 26-08-2011 09:39:02 20.2 C 82 % 17.03 C
2428 26-08-2011 09:51:02 21.4 C 81 % 18 C
2429 26-08-2011 10:03:02 22.7 C 73 % 17.61 C
2430 26-08-2011 10:15:02 23.3 C 71 % 17.75 C
2431 26-08-2011 10:27:02 24.8 C 63 % 17.28 C
2432 26-08-2011 10:39:02 25.3 C 58 % 16.44 C
2433 26-08-2011 10:51:02 25.3 C 57 % 16.17 C
2434 26-08-2011 11:03:02 25.4 C 57 % 16.26 C
2435 26-08-2011 11:15:02 25.8 C 54 % 15.79 C
2436 26-08-2011 11:27:02 27 C 49 % 15.38 C
2437 26-08-2011 11:39:02 27.4 C 48 % 15.42 C
2438 26-08-2011 11:51:02 26.4 C 50 % 15.14 C
2439 26-08-2011 12:03:02 24.7 C 64 % 17.43 C
2440 26-08-2011 12:15:02 25 C 65 % 17.96 C
2441 26-08-2011 12:27:02 25.8 C 58 % 16.91 C
2442 26-08-2011 12:39:02 26.6 C 54 % 16.53 C
2443 26-08-2011 12:51:02 27.2 C 50 % 15.87 C
2444 26-08-2011 13:03:02 27.7 C 46 % 15.03 C
2445 26-08-2011 13:15:03 28.7 C 49 % 16.93 C
2446 26-08-2011 13:27:03 29.5 C 37 % 13.28 C
2447 26-08-2011 13:39:02 28.8 C 47 % 16.36 C
2448 26-08-2011 13:51:03 30.6 C 33 % 12.5 C
2449 26-08-2011 14:03:02 31.3 C 33 % 13.1 C
2450 26-08-2011 14:15:02 30.8 C 36 % 14 C
Sensor: Nr:Datum:Temp:Feuchte:Taupunkt:
Aussen-T/F 2451 26-08-2011 14:27:02 30.1 C 39 % 14.62 C
2452 26-08-2011 14:39:02 30 C 36 % 13.3 C
2453 26-08-2011 14:51:02 31.3 C 26 % 9.51 C
2454 26-08-2011 15:03:02 31.7 C 24 % 8.66 C
2455 26-08-2011 15:15:02 31.9 C 25 % 9.43 C
2456 26-08-2011 15:27:02 30.8 C 30 % 11.22 C
2457 26-08-2011 15:39:02 29.6 C 35 % 12.52 C
2458 26-08-2011 15:51:02 28.5 C 41 % 13.97 C
2459 26-08-2011 16:03:01 27.1 C 48 % 15.15 C
2460 26-08-2011 16:15:36 21.9 C 54 % 12.18 C
2461 26-08-2011 16:27:36 19.1 C 71 % 13.72 C
2462 26-08-2011 16:39:36 18.6 C 80 % 15.08 C
2463 26-08-2011 16:51:36 21.3 C 76 % 16.9 C
2464 26-08-2011 17:03:37 26.6 C 48 % 14.69 C
2465 26-08-2011 17:15:01 25.2 C 49 % 13.73 C
2466 26-08-2011 17:27:01 22.2 C 63 % 14.82 C
2467 26-08-2011 17:39:01 21 C 71 % 15.54 C
2468 26-08-2011 17:51:02 20.5 C 75 % 15.92 C
2469 26-08-2011 18:03:02 20.2 C 76 % 15.83 C
2470 26-08-2011 18:15:02 19.8 C 78 % 15.85 C
2471 26-08-2011 18:27:02 19.3 C 79 % 15.57 C
2472 26-08-2011 18:39:02 19.3 C 81 % 15.96 C
2473 26-08-2011 18:51:01 18.9 C 83 % 15.95 C
2474 26-08-2011 19:03:01 18.6 C 84 % 15.84 C
2475 26-08-2011 19:15:02 18.5 C 85 % 15.93 C
Sensor: Nr:Datum:Temp:Feuchte:Taupunkt:
Aussen-T/F 2476 26-08-2011 19:27:02 18.3 C 85 % 15.74 C
2477 26-08-2011 19:39:01 18.2 C 85 % 15.64 C
2478 26-08-2011 19:51:03 18.2 C 86 % 15.82 C
2479 26-08-2011 20:03:02 18.1 C 86 % 15.72 C
2480 26-08-2011 20:15:02 17.4 C 87 % 15.21 C
2481 26-08-2011 20:27:02 16.4 C 84 % 13.69 C
2482 26-08-2011 20:39:02 16.1 C 85 % 13.58 C
2483 26-08-2011 20:51:02 16 C 84 % 13.3 C
2484 26-08-2011 21:03:02 15.8 C 86 % 13.46 C
2485 26-08-2011 21:15:02 15.8 C 86 % 13.46 C
2486 26-08-2011 21:27:02 15.6 C 86 % 13.27 C
2487 26-08-2011 21:40:03 15.5 C 86 % 13.17 C
2488 26-08-2011 21:52:03 15.3 C 87 % 13.15 C
2489 26-08-2011 22:04:03 15.4 C 87 % 13.25 C
2490 26-08-2011 22:16:03 15.4 C 88 % 13.42 C
2491 26-08-2011 22:28:03 15.5 C 88 % 13.52 C
2492 26-08-2011 22:40:03 15.5 C 88 % 13.52 C
2493 26-08-2011 22:52:03 15.5 C 88 % 13.52 C
2494 26-08-2011 23:04:03 15.4 C 88 % 13.42 C
2495 26-08-2011 23:16:03 15.4 C 88 % 13.42 C
2496 26-08-2011 23:28:03 15.4 C 88 % 13.42 C
2497 26-08-2011 23:40:03 15.4 C 88 % 13.42 C
2498 26-08-2011 23:52:03 15.2 C 88 % 13.23 C
2499 27-08-2011 00:04:03 15.2 C 88 % 13.23 C
2500 27-08-2011 00:16:03 15.2 C 87 % 13.05 C
Sensor: Nr:Datum:Temp:Feuchte:Taupunkt:
Aussen-T/F 2501 27-08-2011 00:28:03 15.2 C 87 % 13.05 C
2502 27-08-2011 00:40:03 15.1 C 87 % 12.95 C
2503 27-08-2011 00:52:03 15 C 87 % 12.86 C
2504 27-08-2011 01:04:03 14.8 C 88 % 12.83 C
2505 27-08-2011 01:16:04 14.8 C 88 % 12.83 C
2506 27-08-2011 01:28:04 14.7 C 88 % 12.73 C
2507 27-08-2011 01:40:04 14.5 C 88 % 12.54 C
2508 27-08-2011 01:52:04 14.5 C 88 % 12.54 C
2509 27-08-2011 02:04:04 14.4 C 87 % 12.27 C
2510 27-08-2011 02:16:04 14.2 C 88 % 12.24 C
2511 27-08-2011 02:28:04 14.2 C 88 % 12.24 C
2512 27-08-2011 02:40:04 14 C 88 % 12.05 C
2513 27-08-2011 02:52:04 14 C 88 % 12.05 C
2514 27-08-2011 03:04:04 13.8 C 88 % 11.85 C
2515 27-08-2011 03:16:04 13.8 C 88 % 11.85 C
2516 27-08-2011 03:28:04 13.8 C 88 % 11.85 C
2517 27-08-2011 03:40:04 13.9 C 89 % 12.12 C
2518 27-08-2011 03:52:04 13.7 C 89 % 11.92 C
2519 27-08-2011 04:04:04 13.7 C 89 % 11.92 C
2520 27-08-2011 04:16:04 13.7 C 89 % 11.92 C
2521 27-08-2011 04:28:04 13.6 C 89 % 11.82 C
2522 27-08-2011 04:40:04 13.5 C 89 % 11.72 C
2523 27-08-2011 04:52:04 13.4 C 89 % 11.63 C
2524 27-08-2011 05:04:04 13.3 C 89 % 11.53 C
2525 27-08-2011 05:16:04 13.3 C 89 % 11.53 C
Sensor: Nr:Datum:Temp:Feuchte:Taupunkt:
Aussen-T/F 2526 27-08-2011 05:28:04 13.3 C 89 % 11.53 C
2527 27-08-2011 05:40:04 13.2 C 89 % 11.43 C
2528 27-08-2011 05:52:05 13.3 C 89 % 11.53 C
2529 27-08-2011 06:04:05 13.2 C 89 % 11.43 C
2530 27-08-2011 06:16:05 13 C 89 % 11.23 C
2531 27-08-2011 06:28:05 13 C 89 % 11.23 C
2532 27-08-2011 06:40:05 13 C 89 % 11.23 C
2533 27-08-2011 06:52:05 12.8 C 90 % 11.2 C
2534 27-08-2011 07:04:05 12.8 C 90 % 11.2 C
2535 27-08-2011 07:16:05 12.8 C 90 % 11.2 C
2536 27-08-2011 07:28:05 12.8 C 90 % 11.2 C
2537 27-08-2011 07:40:05 12.8 C 90 % 11.2 C
2538 27-08-2011 07:52:05 12.9 C 90 % 11.3 C
2539 27-08-2011 08:04:05 12.8 C 90 % 11.2 C
2540 27-08-2011 08:16:05 12.8 C 90 % 11.2 C
2541 27-08-2011 08:28:05 12.8 C 90 % 11.2 C
2542 27-08-2011 08:40:03 12.9 C 90 % 11.3 C
2543 27-08-2011 08:52:02 12.9 C 89 % 11.13 C
2544 27-08-2011 09:04:03 13.1 C 89 % 11.33 C
2545 27-08-2011 09:16:02 13.1 C 88 % 11.16 C
2546 27-08-2011 09:28:02 13.2 C 88 % 11.26 C
2547 27-08-2011 09:40:02 13.4 C 87 % 11.28 C
2548 27-08-2011 09:52:02 13 C 86 % 10.72 C
2549 27-08-2011 10:04:02 13.1 C 86 % 10.81 C
2550 27-08-2011 10:16:01 13.4 C 86 % 11.11 C
Sensor: Nr:Datum:Temp:Feuchte:Taupunkt:
Aussen-T/F 2551 27-08-2011 10:28:01 14.2 C 84 % 11.54 C
2552 27-08-2011 10:40:02 14.4 C 79 % 10.81 C
2553 27-08-2011 10:52:02 15.6 C 73 % 10.78 C
2554 27-08-2011 11:04:02 15.6 C 73 % 10.78 C
2555 27-08-2011 11:16:01 15.1 C 72 % 10.09 C
2556 27-08-2011 11:28:01 15 C 74 % 10.41 C
2557 27-08-2011 11:40:02 14.8 C 75 % 10.42 C
2558 27-08-2011 11:52:02 14.4 C 77 % 10.42 C
2559 27-08-2011 12:04:01 14.6 C 75 % 10.22 C
2560 27-08-2011 12:16:02 15.3 C 72 % 10.29 C
2561 27-08-2011 12:28:02 15.7 C 72 % 10.67 C
2562 27-08-2011 12:40:03 16.8 C 66 % 10.42 C
2563 27-08-2011 12:52:02 17.5 C 62 % 10.15 C
2564 27-08-2011 13:04:02 17.3 C 60 % 9.47 C
2565 27-08-2011 13:16:03 17.1 C 63 % 10.01 C
2566 27-08-2011 13:28:03 16.8 C 60 % 9 C
2567 27-08-2011 13:40:03 17.1 C 59 % 9.03 C
2568 27-08-2011 13:52:02 19.3 C 53 % 9.49 C
2569 27-08-2011 14:04:02 17.4 C 58 % 9.06 C
2570 27-08-2011 14:16:03 16.6 C 66 % 10.23 C
2571 27-08-2011 14:28:03 16.9 C 63 % 9.82 C
2572 27-08-2011 14:40:02 17.6 C 59 % 9.5 C
2573 27-08-2011 14:52:02 20.5 C 49 % 9.43 C
2574 27-08-2011 15:04:01 21.2 C 44 % 8.47 C
2575 27-08-2011 15:16:02 22.9 C 40 % 8.59 C
Sensor: Nr:Datum:Temp:Feuchte:Taupunkt:
Aussen-T/F 2576 27-08-2011 15:28:02 18.7 C 49 % 7.78 C
2577 27-08-2011 15:40:02 19.7 C 46 % 7.77 C
2578 27-08-2011 15:52:02 21.9 C 40 % 7.7 C
2579 27-08-2011 16:04:02 18.7 C 50 % 8.08 C
2580 27-08-2011 16:16:02 22.3 C 38 % 7.31 C
2581 27-08-2011 16:28:02 22.6 C 38 % 7.57 C
2582 27-08-2011 16:40:03 19.4 C 46 % 7.49 C
2583 27-08-2011 16:52:02 17.9 C 54 % 8.47 C
2584 27-08-2011 17:04:02 20.8 C 46 % 8.77 C
2585 27-08-2011 17:16:02 18.5 C 52 % 8.47 C
2586 27-08-2011 17:28:02 18.2 C 52 % 8.19 C
2587 27-08-2011 17:40:02 21.3 C 41 % 7.53 C
2588 27-08-2011 17:52:02 19.4 C 48 % 8.12 C
2589 27-08-2011 18:04:02 18.1 C 55 % 8.93 C
2590 27-08-2011 18:16:02 19.5 C 51 % 9.1 C
2591 27-08-2011 18:28:02 18.6 C 52 % 8.56 C
2592 27-08-2011 18:40:02 17.5 C 60 % 9.66 C
2593 27-08-2011 18:52:02 16.2 C 65 % 9.62 C
2594 27-08-2011 19:04:02 14.9 C 78 % 11.1 C
2595 27-08-2011 19:16:03 15 C 78 % 11.2 C
2596 27-08-2011 19:28:03 14.4 C 81 % 11.18 C
2597 27-08-2011 19:40:02 14 C 82 % 10.98 C
2598 27-08-2011 19:52:01 13.2 C 84 % 10.56 C
2599 27-08-2011 20:04:01 13.5 C 86 % 11.21 C
2600 27-08-2011 20:16:02 13.6 C 87 % 11.48 C
Sensor: Nr:Datum:Temp:Feuchte:Taupunkt:
Aussen-T/F 2601 27-08-2011 20:28:02 13.6 C 87 % 11.48 C
2602 27-08-2011 20:40:01 13.5 C 86 % 11.21 C
2603 27-08-2011 20:52:03 13.4 C 86 % 11.11 C
2604 27-08-2011 21:04:02 13.2 C 85 % 10.74 C
2605 27-08-2011 21:16:02 13.2 C 85 % 10.74 C
2606 27-08-2011 21:28:03 13.1 C 84 % 10.46 C
2607 27-08-2011 21:40:02 12.9 C 84 % 10.26 C
2608 27-08-2011 21:52:02 13 C 81 % 9.82 C
2609 27-08-2011 22:04:02 12.8 C 80 % 9.44 C
2610 27-08-2011 22:16:02 12.5 C 82 % 9.51 C
2611 27-08-2011 22:28:02 12.1 C 84 % 9.48 C
2612 27-08-2011 22:40:02 11.9 C 86 % 9.64 C
2613 27-08-2011 22:53:03 11.9 C 86 % 9.64 C
2614 27-08-2011 23:05:03 11.6 C 87 % 9.51 C
2615 27-08-2011 23:17:03 11.9 C 87 % 9.81 C
2616 27-08-2011 23:29:03 12.4 C 87 % 10.3 C
2617 27-08-2011 23:41:04 12.4 C 87 % 10.3 C
2618 27-08-2011 23:53:04 12.5 C 87 % 10.4 C
2619 28-08-2011 00:05:04 12.5 C 87 % 10.4 C
2620 28-08-2011 00:17:04 12.4 C 87 % 10.3 C
2621 28-08-2011 00:29:04 12.4 C 87 % 10.3 C
2622 28-08-2011 00:41:04 12.8 C 87 % 10.69 C
2623 28-08-2011 00:53:04 12.5 C 85 % 10.05 C
2624 28-08-2011 01:05:04 12.7 C 86 % 10.42 C
2625 28-08-2011 01:17:04 12.7 C 85 % 10.25 C
Sensor: Nr:Datum:Temp:Feuchte:Taupunkt:
Aussen-T/F 2626 28-08-2011 01:29:04 12.5 C 84 % 9.87 C
2627 28-08-2011 01:41:04 12.8 C 83 % 9.99 C
2628 28-08-2011 01:53:04 13.2 C 81 % 10.01 C
2629 28-08-2011 02:05:04 13 C 80 % 9.63 C
2630 28-08-2011 02:17:04 13.2 C 79 % 9.64 C
2631 28-08-2011 02:29:04 13 C 79 % 9.45 C
2632 28-08-2011 02:41:04 12.6 C 81 % 9.43 C
2633 28-08-2011 02:53:04 12.7 C 82 % 9.71 C
2634 28-08-2011 03:05:04 12.9 C 79 % 9.35 C
2635 28-08-2011 03:17:05 13 C 77 % 9.07 C
2636 28-08-2011 03:29:05 13.1 C 77 % 9.16 C
2637 28-08-2011 03:41:05 13 C 77 % 9.07 C
2638 28-08-2011 03:53:05 12.8 C 79 % 9.25 C
2639 28-08-2011 04:05:05 12.9 C 79 % 9.35 C
2640 28-08-2011 04:17:05 13.1 C 77 % 9.16 C
2641 28-08-2011 04:29:05 12.5 C 79 % 8.96 C
2642 28-08-2011 04:41:05 12.4 C 81 % 9.23 C
2643 28-08-2011 04:53:05 12.6 C 80 % 9.25 C
2644 28-08-2011 05:05:05 12.7 C 81 % 9.53 C
2645 28-08-2011 05:17:05 12.7 C 81 % 9.53 C
2646 28-08-2011 05:29:05 12.1 C 82 % 9.12 C
2647 28-08-2011 05:41:06 11.9 C 84 % 9.29 C
2648 28-08-2011 05:53:06 11.8 C 85 % 9.36 C
2649 28-08-2011 06:05:06 11.7 C 86 % 9.44 C
2650 28-08-2011 06:17:06 11.9 C 86 % 9.64 C
Sensor: Nr:Datum:Temp:Feuchte:Taupunkt:
Aussen-T/F 2651 28-08-2011 06:29:06 12 C 85 % 9.56 C
2652 28-08-2011 06:41:06 11.9 C 84 % 9.29 C
2653 28-08-2011 06:53:06 11.4 C 84 % 8.8 C
2654 28-08-2011 07:05:06 11.6 C 85 % 9.17 C
2655 28-08-2011 07:17:06 11.7 C 84 % 9.09 C
2656 28-08-2011 07:29:06 12 C 82 % 9.03 C
2657 28-08-2011 07:41:06 11.9 C 82 % 8.93 C
2658 28-08-2011 07:53:06 12.1 C 80 % 8.76 C
2659 28-08-2011 08:05:06 12.4 C 78 % 8.68 C
2660 28-08-2011 08:17:06 12.1 C 78 % 8.38 C
2661 28-08-2011 08:29:06 12.4 C 78 % 8.68 C
2662 28-08-2011 08:41:02 12.8 C 75 % 8.48 C
2663 28-08-2011 08:53:02 13 C 70 % 7.66 C
2664 28-08-2011 09:05:01 13.4 C 70 % 8.05 C
2665 28-08-2011 09:17:02 13.8 C 68 % 8 C
2666 28-08-2011 09:29:02 14.2 C 66 % 7.95 C
2667 28-08-2011 09:41:02 14.4 C 65 % 7.91 C
2668 28-08-2011 09:53:02 14.7 C 64 % 7.97 C
2669 28-08-2011 10:05:03 14.7 C 63 % 7.74 C
2670 28-08-2011 10:17:02 14.6 C 65 % 8.1 C
2671 28-08-2011 10:29:02 15 C 60 % 7.31 C
2672 28-08-2011 10:41:02 16.1 C 59 % 8.09 C
2673 28-08-2011 10:53:01 16.6 C 55 % 7.53 C
2674 28-08-2011 11:05:02 16.6 C 53 % 6.99 C
2675 28-08-2011 11:17:01 17.2 C 50 % 6.7 C
Sensor: Nr:Datum:Temp:Feuchte:Taupunkt:
Aussen-T/F 2676 28-08-2011 11:29:01 17.2 C 51 % 6.98 C
2677 28-08-2011 11:41:02 17.4 C 51 % 7.17 C
2678 28-08-2011 11:53:02 17.4 C 51 % 7.17 C
2679 28-08-2011 12:05:02 17.7 C 50 % 7.16 C
2680 28-08-2011 12:17:01 18.3 C 47 % 6.8 C
2681 28-08-2011 12:29:01 18.3 C 45 % 6.17 C
2682 28-08-2011 12:41:02 18.3 C 45 % 6.17 C
2683 28-08-2011 12:53:02 17.9 C 47 % 6.44 C
2684 28-08-2011 13:05:02 19 C 45 % 6.81 C
2685 28-08-2011 13:17:02 18.7 C 42 % 5.54 C
2686 28-08-2011 13:29:02 17.9 C 46 % 6.13 C
2687 28-08-2011 13:41:02 18.1 C 45 % 5.99 C
2688 28-08-2011 13:53:01 18.7 C 44 % 6.21 C
2689 28-08-2011 14:05:02 18.8 C 42 % 5.63 C
2690 28-08-2011 14:17:02 18.3 C 47 % 6.8 C
2691 28-08-2011 14:29:02 18.1 C 50 % 7.52 C
2692 28-08-2011 14:41:02 18.6 C 45 % 6.45 C
2693 28-08-2011 14:53:02 19 C 41 % 5.46 C
2694 28-08-2011 15:05:02 18.4 C 44 % 5.94 C
2695 28-08-2011 15:17:02 18.2 C 48 % 7.02 C
2696 28-08-2011 15:29:02 18.5 C 47 % 6.99 C
2697 28-08-2011 15:41:01 19.1 C 42 % 5.9 C
2698 28-08-2011 15:53:02 19.9 C 46 % 7.95 C
2699 28-08-2011 16:05:01 20.5 C 41 % 6.81 C
2700 28-08-2011 16:17:01 19.3 C 41 % 5.73 C
Sensor: Nr:Datum:Temp:Feuchte:Taupunkt:
Aussen-T/F 2701 28-08-2011 16:29:01 19.4 C 45 % 7.17 C
2702 28-08-2011 16:41:02 20.5 C 37 % 5.32 C
2703 28-08-2011 16:53:02 21.2 C 38 % 6.33 C
2704 28-08-2011 17:05:02 23.8 C 29 % 4.71 C
2705 28-08-2011 17:17:01 22 C 30 % 3.64 C
2706 28-08-2011 17:29:01 22.5 C 30 % 4.08 C
2707 28-08-2011 17:41:02 22.5 C 30 % 4.08 C
2708 28-08-2011 17:53:02 22 C 29 % 3.17 C
2709 28-08-2011 18:05:02 20.2 C 37 % 5.06 C
2710 28-08-2011 18:17:02 19.8 C 43 % 6.87 C
2711 28-08-2011 18:29:02 18.9 C 40 % 5.02 C
2712 28-08-2011 18:41:02 18.3 C 44 % 5.85 C
2713 28-08-2011 18:53:02 18.5 C 42 % 5.36 C
2714 28-08-2011 19:05:02 20.7 C 37 % 5.5 C
2715 28-08-2011 19:17:02 18 C 43 % 5.25 C
2716 28-08-2011 19:29:02 17.7 C 45 % 5.63 C
2717 28-08-2011 19:41:02 17.1 C 47 % 5.71 C
2718 28-08-2011 19:53:02 16.7 C 55 % 7.62 C
2719 28-08-2011 20:05:02 16.3 C 51 % 6.16 C
2720 28-08-2011 20:17:02 15.9 C 54 % 6.61 C
2721 28-08-2011 20:29:02 15.4 C 55 % 6.42 C
2722 28-08-2011 20:41:03 14.8 C 60 % 7.12 C
2723 28-08-2011 20:53:02 14.3 C 63 % 7.36 C
2724 28-08-2011 21:05:02 14.7 C 59 % 6.78 C
2725 28-08-2011 21:17:02 14 C 64 % 7.31 C
Sensor: Nr:Datum:Temp:Feuchte:Taupunkt:
Aussen-T/F 2726 28-08-2011 21:29:02 13.2 C 70 % 7.86 C
2727 28-08-2011 21:41:02 13.3 C 70 % 7.95 C
2728 28-08-2011 21:53:02 12.7 C 72 % 7.79 C
2729 28-08-2011 22:05:02 12.3 C 75 % 8 C
2730 28-08-2011 22:17:02 12.2 C 76 % 8.1 C
2731 28-08-2011 22:29:02 12.2 C 75 % 7.91 C
2732 28-08-2011 22:41:02 12.1 C 76 % 8 C
2733 28-08-2011 22:54:03 12 C 77 % 8.1 C
2734 28-08-2011 23:06:03 12.1 C 78 % 8.38 C
2735 28-08-2011 23:18:03 12.3 C 78 % 8.58 C
2736 28-08-2011 23:30:03 12.5 C 78 % 8.77 C
2737 28-08-2011 23:42:03 12.3 C 77 % 8.39 C
2738 28-08-2011 23:54:03 12 C 78 % 8.29 C
2739 29-08-2011 00:06:03 11.6 C 79 % 8.09 C
2740 29-08-2011 00:18:03 10.7 C 81 % 7.58 C
2741 29-08-2011 00:30:03 10.8 C 82 % 7.85 C
2742 29-08-2011 00:42:04 10.8 C 84 % 8.21 C
2743 29-08-2011 00:54:04 11.6 C 84 % 8.99 C
2744 29-08-2011 01:06:04 11.5 C 83 % 8.72 C
2745 29-08-2011 01:18:04 11.3 C 82 % 8.34 C
2746 29-08-2011 01:30:04 11.5 C 80 % 8.17 C
2747 29-08-2011 01:42:04 12.1 C 75 % 7.81 C
2748 29-08-2011 01:54:04 11.9 C 76 % 7.81 C
2749 29-08-2011 02:06:04 12.2 C 74 % 7.71 C
2750 29-08-2011 02:18:04 12.2 C 73 % 7.51 C
Sensor: Nr:Datum:Temp:Feuchte:Taupunkt:
Aussen-T/F 2751 29-08-2011 02:30:04 12.2 C 74 % 7.71 C
2752 29-08-2011 02:42:04 12.2 C 74 % 7.71 C
2753 29-08-2011 02:54:04 12.3 C 73 % 7.61 C
2754 29-08-2011 03:06:04 12.3 C 73 % 7.61 C
2755 29-08-2011 03:18:04 12.4 C 74 % 7.9 C
2756 29-08-2011 03:30:04 12.5 C 75 % 8.19 C
2757 29-08-2011 03:42:04 12.7 C 73 % 7.99 C
2758 29-08-2011 03:54:04 13 C 70 % 7.66 C
2759 29-08-2011 04:06:04 13 C 70 % 7.66 C
2760 29-08-2011 04:18:04 12.7 C 71 % 7.58 C
2761 29-08-2011 04:30:04 12.6 C 72 % 7.69 C
2762 29-08-2011 04:42:04 12.1 C 74 % 7.61 C
2763 29-08-2011 04:54:04 11.8 C 78 % 8.09 C
2764 29-08-2011 05:06:05 11.5 C 79 % 7.99 C
2765 29-08-2011 05:18:05 11.4 C 80 % 8.08 C
2766 29-08-2011 05:30:05 11.3 C 81 % 8.16 C
2767 29-08-2011 05:42:05 11 C 82 % 8.05 C
2768 29-08-2011 05:54:05 10.8 C 83 % 8.03 C
2769 29-08-2011 06:06:05 10.7 C 84 % 8.11 C
2770 29-08-2011 06:18:05 10.2 C 84 % 7.62 C
2771 29-08-2011 06:30:05 10.2 C 85 % 7.79 C
2772 29-08-2011 06:42:05 10.2 C 85 % 7.79 C
2773 29-08-2011 06:54:05 10.1 C 86 % 7.87 C
2774 29-08-2011 07:06:05 10 C 86 % 7.77 C
2775 29-08-2011 07:18:03 9.7 C 87 % 7.64 C
Sensor: Nr:Datum:Temp:Feuchte:Taupunkt:
Aussen-T/F 2776 29-08-2011 07:30:03 10 C 87 % 7.94 C
2777 29-08-2011 07:42:03 10.2 C 87 % 8.14 C
2778 29-08-2011 07:54:03 10.4 C 87 % 8.33 C
2779 29-08-2011 08:06:02 10.5 C 87 % 8.43 C
2780 29-08-2011 08:18:02 10.8 C 87 % 8.73 C
2781 29-08-2011 08:30:02 11.4 C 85 % 8.97 C
2782 29-08-2011 08:42:02 11.9 C 83 % 9.11 C
2783 29-08-2011 08:54:02 12 C 79 % 8.48 C
2784 29-08-2011 09:06:02 12.5 C 75 % 8.19 C
2785 29-08-2011 09:18:03 13.1 C 71 % 7.97 C
2786 29-08-2011 09:30:03 13.6 C 66 % 7.38 C
2787 29-08-2011 09:42:02 13.9 C 66 % 7.66 C
2788 29-08-2011 09:54:03 14.2 C 63 % 7.27 C
2789 29-08-2011 10:06:02 14.4 C 62 % 7.22 C
2790 29-08-2011 10:18:02 14.7 C 60 % 7.03 C
2791 29-08-2011 10:30:02 15.2 C 57 % 6.75 C
2792 29-08-2011 10:42:02 15.2 C 58 % 7 C
2793 29-08-2011 10:54:02 15.8 C 56 % 7.05 C
2794 29-08-2011 11:06:02 16.4 C 53 % 6.81 C
2795 29-08-2011 11:18:02 16.8 C 51 % 6.62 C
2796 29-08-2011 11:30:02 17 C 49 % 6.22 C
2797 29-08-2011 11:42:02 16.9 C 46 % 5.22 C
2798 29-08-2011 11:54:02 17.2 C 45 % 5.18 C
2799 29-08-2011 12:06:01 17.7 C 43 % 4.98 C
2800 29-08-2011 12:18:02 18.2 C 41 % 4.75 C
Sensor: Nr:Datum:Temp:Feuchte:Taupunkt:
Aussen-T/F 2801 29-08-2011 12:30:02 18 C 40 % 4.21 C
2802 29-08-2011 12:42:02 18 C 41 % 4.57 C
2803 29-08-2011 12:54:02 18 C 42 % 4.91 C
2804 29-08-2011 13:06:02 17.8 C 44 % 5.4 C
2805 29-08-2011 13:18:02 18.2 C 41 % 4.75 C
2806 29-08-2011 13:30:02 18.3 C 40 % 4.48 C
2807 29-08-2011 13:42:03 18 C 40 % 4.21 C
2808 29-08-2011 13:54:02 19.3 C 38 % 4.64 C
2809 29-08-2011 14:06:01 18.3 C 38 % 3.75 C
2810 29-08-2011 14:18:02 19.3 C 37 % 4.26 C
2811 29-08-2011 14:30:02 18.2 C 38 % 3.66 C
2812 29-08-2011 14:42:02 17.9 C 38 % 3.4 C
2813 29-08-2011 14:54:02 18.5 C 35 % 2.77 C
2814 29-08-2011 15:06:01 18.7 C 35 % 2.94 C
2815 29-08-2011 15:18:01 19.1 C 34 % 2.89 C
2816 29-08-2011 15:30:01 20.8 C 30 % 2.61 C
2817 29-08-2011 15:42:02 21.9 C 30 % 3.56 C
2818 29-08-2011 15:54:02 20.6 C 30 % 2.44 C
2819 29-08-2011 16:06:02 22.5 C 28 % 3.1 C
2820 29-08-2011 16:18:02 20.7 C 29 % 2.05 C
2821 29-08-2011 16:30:02 21.8 C 25 % 0.92 C
2822 29-08-2011 16:42:02 20.2 C 27 % 0.63 C
2823 29-08-2011 16:54:02 19.4 C 28 % 0.44 C
2824 29-08-2011 17:06:02 20.7 C 26 % 0.53 C
2825 29-08-2011 17:18:02 19.5 C 31 % 1.94 C
Sensor: Nr:Datum:Temp:Feuchte:Taupunkt:
Aussen-T/F 2826 29-08-2011 17:30:02 19.5 C 32 % 2.39 C
2827 29-08-2011 17:42:02 19 C 34 % 2.8 C
2828 29-08-2011 17:54:01 19.5 C 33 % 2.82 C
2829 29-08-2011 18:06:01 20.6 C 29 % 1.96 C
2830 29-08-2011 18:18:01 22 C 26 % 1.63 C
2831 29-08-2011 18:30:01 19.3 C 31 % 1.77 C
2832 29-08-2011 18:42:01 19.5 C 33 % 2.82 C
2833 29-08-2011 18:54:02 18.7 C 35 % 2.94 C
2834 29-08-2011 19:06:02 18.1 C 36 % 2.81 C
2835 29-08-2011 19:18:01 17.5 C 39 % 3.41 C
2836 29-08-2011 19:30:01 16.1 C 50 % 5.69 C
2837 29-08-2011 19:42:01 15.9 C 49 % 5.21 C
2838 29-08-2011 19:54:01 15.9 C 49 % 5.21 C
2839 29-08-2011 20:06:02 13.9 C 60 % 6.27 C
2840 29-08-2011 20:18:01 13.9 C 60 % 6.27 C
2841 29-08-2011 20:30:01 13.3 C 63 % 6.41 C
2842 29-08-2011 20:42:02 13.3 C 63 % 6.41 C
2843 29-08-2011 20:54:01 13.1 C 59 % 5.28 C
2844 29-08-2011 21:06:02 13 C 63 % 6.13 C
2845 29-08-2011 21:18:02 13 C 63 % 6.13 C
2846 29-08-2011 21:30:02 13 C 63 % 6.13 C
2847 29-08-2011 21:43:02 13.3 C 62 % 6.18 C
2848 29-08-2011 21:55:02 13.7 C 58 % 5.6 C
2849 29-08-2011 22:07:02 13.4 C 58 % 5.32 C
2850 29-08-2011 22:19:02 13.3 C 59 % 5.47 C
Sensor: Nr:Datum:Temp:Feuchte:Taupunkt:
Aussen-T/F 2851 29-08-2011 22:31:02 13.1 C 59 % 5.28 C
2852 29-08-2011 22:43:02 13.4 C 56 % 4.81 C
2853 29-08-2011 22:55:02 13.1 C 58 % 5.03 C
2854 29-08-2011 23:07:02 12.6 C 64 % 5.98 C
2855 29-08-2011 23:19:02 12.3 C 64 % 5.69 C
2856 29-08-2011 23:31:02 12.1 C 64 % 5.51 C
2857 29-08-2011 23:43:02 11.7 C 68 % 6 C
2858 29-08-2011 23:55:02 11.5 C 69 % 6.02 C
2859 30-08-2011 00:07:02 11.3 C 69 % 5.83 C
2860 30-08-2011 00:19:02 11.2 C 71 % 6.14 C
2861 30-08-2011 00:31:03 11 C 72 % 6.15 C
2862 30-08-2011 00:43:03 10.6 C 74 % 6.17 C
2863 30-08-2011 00:55:03 10.7 C 74 % 6.26 C
2864 30-08-2011 01:07:03 10.3 C 75 % 6.07 C
2865 30-08-2011 01:19:03 9.9 C 78 % 6.25 C
2866 30-08-2011 01:31:03 9.3 C 79 % 5.85 C
2867 30-08-2011 01:43:03 9 C 81 % 5.92 C
2868 30-08-2011 01:55:03 9 C 82 % 6.1 C
2869 30-08-2011 02:07:03 8.6 C 84 % 6.05 C
2870 30-08-2011 02:19:03 8.9 C 85 % 6.52 C
2871 30-08-2011 02:31:03 8.9 C 85 % 6.52 C
2872 30-08-2011 02:43:03 9 C 84 % 6.45 C
2873 30-08-2011 02:55:03 8.7 C 85 % 6.32 C
2874 30-08-2011 03:07:03 8.5 C 85 % 6.13 C
2875 30-08-2011 03:19:03 7.8 C 86 % 5.61 C
Sensor: Nr:Datum:Temp:Feuchte:Taupunkt:
Aussen-T/F 2876 30-08-2011 03:31:03 8 C 86 % 5.81 C
2877 30-08-2011 03:43:03 7.8 C 88 % 5.94 C
2878 30-08-2011 03:55:03 8 C 88 % 6.14 C
2879 30-08-2011 04:07:03 7.7 C 89 % 6 C
2880 30-08-2011 04:19:03 8.1 C 88 % 6.24 C
2881 30-08-2011 04:31:03 7.7 C 89 % 6 C
2882 30-08-2011 04:43:04 7.6 C 89 % 5.91 C
2883 30-08-2011 04:55:04 7.5 C 90 % 5.97 C
2884 30-08-2011 05:07:04 7.4 C 90 % 5.87 C
2885 30-08-2011 05:19:04 7.4 C 90 % 5.87 C
2886 30-08-2011 05:31:04 7.1 C 90 % 5.57 C
2887 30-08-2011 05:43:04 7.3 C 90 % 5.77 C
2888 30-08-2011 05:55:04 6.9 C 91 % 5.54 C
2889 30-08-2011 06:07:04 7 C 90 % 5.48 C
2890 30-08-2011 06:19:04 7.2 C 90 % 5.67 C
2891 30-08-2011 06:31:04 7 C 91 % 5.63 C
2892 30-08-2011 06:43:04 6.9 C 92 % 5.69 C
2893 30-08-2011 06:55:04 6.9 C 92 % 5.69 C
2894 30-08-2011 07:07:04 6.9 C 92 % 5.69 C
2895 30-08-2011 07:19:02 6.7 C 92 % 5.49 C
2896 30-08-2011 07:31:02 7.1 C 91 % 5.73 C
2897 30-08-2011 07:43:02 7.3 C 92 % 6.09 C
2898 30-08-2011 07:55:02 7.3 C 92 % 6.09 C
2899 30-08-2011 08:07:02 7.1 C 92 % 5.89 C
2900 30-08-2011 08:19:02 7.5 C 92 % 6.29 C
Sensor: Nr:Datum:Temp:Feuchte:Taupunkt:
Aussen-T/F 2901 30-08-2011 08:31:02 7.6 C 92 % 6.39 C
2902 30-08-2011 08:43:02 7.7 C 92 % 6.48 C
2903 30-08-2011 08:55:02 7.8 C 92 % 6.58 C
2904 30-08-2011 09:07:02 8.2 C 91 % 6.82 C
2905 30-08-2011 09:19:02 8.4 C 91 % 7.02 C
2906 30-08-2011 09:31:01 8.9 C 91 % 7.51 C
2907 30-08-2011 09:43:01 9.5 C 90 % 7.94 C
2908 30-08-2011 09:55:01 10 C 89 % 8.27 C
2909 30-08-2011 10:07:01 10.5 C 89 % 8.77 C
2910 30-08-2011 10:19:02 10.7 C 88 % 8.8 C
2911 30-08-2011 10:31:01 11.1 C 86 % 8.85 C
2912 30-08-2011 10:43:01 12 C 80 % 8.66 C
2913 30-08-2011 10:55:02 12.8 C 68 % 7.05 C
2914 30-08-2011 11:07:01 13.4 C 63 % 6.51 C
2915 30-08-2011 11:19:01 14 C 59 % 6.12 C
2916 30-08-2011 11:31:01 14.3 C 55 % 5.39 C
2917 30-08-2011 11:43:01 14.8 C 51 % 4.77 C
2918 30-08-2011 11:55:02 16.6 C 44 % 4.31 C
2919 30-08-2011 12:07:02 16.5 C 39 % 2.51 C
2920 30-08-2011 12:19:02 16.5 C 47 % 5.16 C
2921 30-08-2011 12:31:02 15.9 C 55 % 6.88 C
2922 30-08-2011 12:43:02 16.2 C 55 % 7.16 C
2923 30-08-2011 12:55:02 17.3 C 41 % 3.94 C
2924 30-08-2011 13:07:02 18 C 42 % 4.91 C
2925 30-08-2011 13:19:01 17.5 C 41 % 4.12 C
Sensor: Nr:Datum:Temp:Feuchte:Taupunkt:
Aussen-T/F 2926 30-08-2011 13:31:02 18.2 C 36 % 2.9 C
2927 30-08-2011 13:43:02 18.4 C 38 % 3.84 C
2928 30-08-2011 13:55:02 21 C 32 % 3.69 C
2929 30-08-2011 14:07:02 19.7 C 33 % 2.99 C
2930 30-08-2011 14:19:02 18.4 C 36 % 3.08 C
2931 30-08-2011 14:31:02 18.2 C 41 % 4.75 C
2932 30-08-2011 14:43:03 18.1 C 40 % 4.3 C
2933 30-08-2011 14:55:02 18.2 C 39 % 4.03 C
2934 30-08-2011 15:07:02 18.1 C 38 % 3.57 C
2935 30-08-2011 15:19:02 17.5 C 39 % 3.41 C
2936 30-08-2011 15:31:02 17.4 C 40 % 3.68 C
2937 30-08-2011 15:43:02 17.4 C 41 % 4.03 C
2938 30-08-2011 15:55:02 17.2 C 41 % 3.85 C
2939 30-08-2011 16:07:02 17 C 43 % 4.34 C
2940 30-08-2011 16:19:02 16.8 C 45 % 4.81 C
2941 30-08-2011 16:31:03 16.8 C 45 % 4.81 C
2942 30-08-2011 16:43:03 16.7 C 42 % 3.74 C
2943 30-08-2011 16:55:02 16.6 C 43 % 3.98 C
2944 30-08-2011 17:07:02 16.8 C 42 % 3.83 C
2945 30-08-2011 17:19:02 16.9 C 42 % 3.92 C
2946 30-08-2011 17:31:02 17.1 C 43 % 4.43 C
2947 30-08-2011 17:43:02 16.9 C 51 % 6.71 C
2948 30-08-2011 17:55:02 16.9 C 54 % 7.54 C
2949 30-08-2011 18:07:03 17 C 55 % 7.9 C
2950 30-08-2011 18:19:02 21.3 C 33 % 4.39 C
Sensor: Nr:Datum:Temp:Feuchte:Taupunkt:
Aussen-T/F 2951 30-08-2011 18:31:02 22.1 C 28 % 2.76 C
2952 30-08-2011 18:43:02 22 C 30 % 3.64 C
2953 30-08-2011 18:55:01 21 C 32 % 3.69 C
2954 30-08-2011 19:07:02 21 C 32 % 3.69 C
2955 30-08-2011 19:19:01 18.4 C 45 % 6.26 C
2956 30-08-2011 19:31:01 15.9 C 57 % 7.4 C
2957 30-08-2011 19:43:01 14.7 C 63 % 7.74 C
2958 30-08-2011 19:55:01 13.9 C 67 % 7.88 C
2959 30-08-2011 20:07:02 13.3 C 68 % 7.53 C
2960 30-08-2011 20:19:02 12.4 C 71 % 7.3 C
2961 30-08-2011 20:31:01 11.8 C 73 % 7.12 C
2962 30-08-2011 20:43:01 11.6 C 73 % 6.93 C
2963 30-08-2011 20:55:01 11.7 C 75 % 7.42 C
2964 30-08-2011 21:07:01 11.2 C 76 % 7.13 C
2965 30-08-2011 21:19:02 11 C 78 % 7.32 C
2966 30-08-2011 21:32:02 10.6 C 79 % 7.11 C
2967 30-08-2011 21:44:02 10.5 C 81 % 7.38 C
2968 30-08-2011 21:56:02 10.1 C 81 % 6.99 C
2969 30-08-2011 22:08:02 9.8 C 83 % 7.05 C
2970 30-08-2011 22:20:02 9.3 C 84 % 6.74 C
2971 30-08-2011 22:32:02 9 C 84 % 6.45 C
2972 30-08-2011 22:44:02 8.9 C 86 % 6.69 C
2973 30-08-2011 22:56:02 9 C 85 % 6.62 C
2974 30-08-2011 23:08:02 9.1 C 86 % 6.89 C
2975 30-08-2011 23:20:02 8.6 C 87 % 6.56 C
Sensor: Nr:Datum:Temp:Feuchte:Taupunkt:
Aussen-T/F 2976 30-08-2011 23:32:02 8.5 C 87 % 6.46 C
2977 30-08-2011 23:44:02 8.4 C 88 % 6.53 C
2978 30-08-2011 23:56:02 8.3 C 88 % 6.43 C
2979 31-08-2011 00:08:02 8.5 C 88 % 6.63 C
2980 31-08-2011 00:20:02 8.2 C 88 % 6.33 C
2981 31-08-2011 00:32:02 8.2 C 88 % 6.33 C
2982 31-08-2011 00:44:02 7.8 C 90 % 6.27 C
2983 31-08-2011 00:56:03 7.9 C 90 % 6.36 C
2984 31-08-2011 01:08:03 7.8 C 90 % 6.27 C
2985 31-08-2011 01:20:03 7.8 C 90 % 6.27 C
2986 31-08-2011 01:32:03 7.6 C 90 % 6.07 C
2987 31-08-2011 01:44:03 7.8 C 90 % 6.27 C
2988 31-08-2011 01:56:03 7.4 C 90 % 5.87 C
2989 31-08-2011 02:08:03 7.3 C 90 % 5.77 C
2990 31-08-2011 02:20:03 7.4 C 90 % 5.87 C
2991 31-08-2011 02:32:03 7.5 C 91 % 6.13 C
2992 31-08-2011 02:44:03 7.5 C 91 % 6.13 C
2993 31-08-2011 02:56:03 7.7 C 91 % 6.33 C
2994 31-08-2011 03:08:03 7.4 C 91 % 6.03 C
2995 31-08-2011 03:20:03 7.1 C 91 % 5.73 C
2996 31-08-2011 03:32:03 6.7 C 91 % 5.34 C
2997 31-08-2011 03:44:03 6.6 C 92 % 5.4 C
2998 31-08-2011 03:56:03 6.5 C 92 % 5.3 C
2999 31-08-2011 04:08:03 6.3 C 92 % 5.1 C
3000 31-08-2011 04:20:03 6.3 C 92 % 5.1 C
Sensor: Nr:Datum:Temp:Feuchte:Taupunkt:
Aussen-T/F 3001 31-08-2011 04:32:03 7.3 C 92 % 6.09 C
3002 31-08-2011 04:44:03 7.1 C 92 % 5.89 C
3003 31-08-2011 04:56:04 7.2 C 92 % 5.99 C
3004 31-08-2011 05:08:04 7.1 C 92 % 5.89 C
3005 31-08-2011 05:20:04 7.3 C 92 % 6.09 C
3006 31-08-2011 05:32:04 7 C 92 % 5.79 C
3007 31-08-2011 05:44:04 6.9 C 93 % 5.85 C
3008 31-08-2011 05:56:04 6.7 C 93 % 5.65 C
3009 31-08-2011 06:08:04 6.8 C 93 % 5.75 C
3010 31-08-2011 06:20:04 7.1 C 92 % 5.89 C
3011 31-08-2011 06:32:04 7 C 92 % 5.79 C
3012 31-08-2011 06:44:04 7 C 92 % 5.79 C
3013 31-08-2011 06:56:03 7.2 C 93 % 6.15 C
3014 31-08-2011 07:08:02 7.2 C 93 % 6.15 C
3015 31-08-2011 07:20:02 7.2 C 93 % 6.15 C
3016 31-08-2011 07:32:02 7.2 C 93 % 6.15 C
3017 31-08-2011 07:44:02 7.2 C 93 % 6.15 C
3018 31-08-2011 07:56:02 7.4 C 93 % 6.34 C
3019 31-08-2011 08:08:02 7.3 C 93 % 6.25 C
3020 31-08-2011 08:20:03 7.8 C 93 % 6.74 C
3021 31-08-2011 08:32:02 8 C 92 % 6.78 C
3022 31-08-2011 08:44:02 8.1 C 92 % 6.88 C
3023 31-08-2011 08:56:02 8.4 C 92 % 7.18 C
3024 31-08-2011 09:08:01 8.5 C 92 % 7.28 C
3025 31-08-2011 09:20:02 8.7 C 91 % 7.32 C
Sensor: Nr:Datum:Temp:Feuchte:Taupunkt:
Aussen-T/F 3026 31-08-2011 09:32:02 8.7 C 91 % 7.32 C
3027 31-08-2011 09:44:02 9 C 89 % 7.29 C
3028 31-08-2011 09:56:01 9.7 C 88 % 7.81 C
3029 31-08-2011 10:08:01 9.5 C 86 % 7.28 C
3030 31-08-2011 10:20:01 9.3 C 85 % 6.91 C
3031 31-08-2011 10:32:02 9.7 C 85 % 7.3 C
3032 31-08-2011 10:44:02 10.1 C 83 % 7.35 C
3033 31-08-2011 10:56:02 10.6 C 83 % 7.84 C
3034 31-08-2011 11:08:02 11 C 81 % 7.87 C
3035 31-08-2011 11:20:02 11.5 C 81 % 8.36 C
3036 31-08-2011 11:32:02 12 C 79 % 8.48 C
3037 31-08-2011 11:44:03 12.2 C 80 % 8.86 C
3038 31-08-2011 11:56:02 12.7 C 76 % 8.58 C
3039 31-08-2011 12:08:02 13.1 C 74 % 8.58 C
3040 31-08-2011 12:20:02 13.7 C 68 % 7.91 C
3041 31-08-2011 12:32:02 14 C 65 % 7.53 C
3042 31-08-2011 12:44:02 14.6 C 57 % 6.19 C
3043 31-08-2011 12:56:01 15 C 51 % 4.96 C
3044 31-08-2011 13:08:01 15.8 C 49 % 5.12 C
3045 31-08-2011 13:20:01 16.6 C 46 % 4.95 C
3046 31-08-2011 13:32:01 17.1 C 42 % 4.1 C
3047 31-08-2011 13:44:01 17.7 C 40 % 3.95 C
3048 31-08-2011 13:56:01 20.1 C 34 % 3.77 C
3049 31-08-2011 14:08:01 21 C 28 % 1.81 C
3050 31-08-2011 14:20:02 22.7 C 26 % 2.23 C
Sensor: Nr:Datum:Temp:Feuchte:Taupunkt:
Aussen-T/F 3051 31-08-2011 14:32:01 20.7 C 30 % 2.52 C
3052 31-08-2011 14:44:01 21.9 C 25 % 1 C
3053 31-08-2011 14:56:03 24.6 C 20 % 0.17 C
3054 31-08-2011 15:08:02 26.2 C 20 % 1.49 C
3055 31-08-2011 15:20:02 26.9 C 20 % 2.06 C
3056 31-08-2011 15:32:02 25.7 C 20 % 1.08 C
3057 31-08-2011 15:44:02 27.5 C 20 % 2.56 C
3058 31-08-2011 15:56:02 26.9 C 20 % 2.06 C
3059 31-08-2011 16:08:02 25.5 C 22 % 2.24 C
3060 31-08-2011 16:20:02 27.2 C 21 % 3 C
3061 31-08-2011 16:32:02 27 C 20 % 2.15 C
3062 31-08-2011 16:44:02 25.2 C 20 % 0.67 C
3063 31-08-2011 16:56:03 25.5 C 20 % 0.91 C
3064 31-08-2011 17:08:03 24 C 24 % 2.21 C
3065 31-08-2011 17:20:02 21.8 C 39 % 7.24 C
3066 31-08-2011 17:32:03 22.8 C 34 % 6.13 C
3067 31-08-2011 17:44:03 24.9 C 23 % 2.36 C
3068 31-08-2011 17:56:02 24.6 C 23 % 2.11 C
3069 31-08-2011 18:08:02 22.7 C 35 % 6.46 C
3070 31-08-2011 18:20:02 22.2 C 31 % 4.28 C
3071 31-08-2011 18:32:02 21.2 C 33 % 4.3 C
3072 31-08-2011 18:44:02 22.4 C 32 % 4.91 C
3073 31-08-2011 18:56:02 21.5 C 35 % 5.41 C
3074 31-08-2011 19:08:03 20 C 45 % 7.72 C
3075 31-08-2011 19:20:02 18.2 C 53 % 8.47 C
Sensor: Nr:Datum:Temp:Feuchte:Taupunkt:
Aussen-T/F 3076 31-08-2011 19:32:02 16.4 C 59 % 8.38 C
3077 31-08-2011 19:44:02 15.6 C 62 % 8.35 C
3078 31-08-2011 19:56:01 15 C 62 % 7.79 C
3079 31-08-2011 20:08:02 14.7 C 64 % 7.97 C
3080 31-08-2011 20:20:01 14.4 C 63 % 7.45 C
3081 31-08-2011 20:32:01 14 C 64 % 7.31 C
3082 31-08-2011 20:44:01 13.6 C 66 % 7.38 C
3083 31-08-2011 20:56:01 13.3 C 68 % 7.53 C
3084 31-08-2011 21:08:02 13.4 C 68 % 7.62 C
3085 31-08-2011 21:20:01 13.2 C 68 % 7.43 C
3086 31-08-2011 21:32:02 12.5 C 70 % 7.18 C
3087 31-08-2011 21:44:02 12.5 C 70 % 7.18 C
3088 31-08-2011 21:57:48 12.7 C 70 % 7.38 C
3089 31-08-2011 22:09:48 12.4 C 73 % 7.7 C
3090 31-08-2011 22:21:48 12 C 73 % 7.32 C
3091 31-08-2011 22:33:48 11.8 C 76 % 7.71 C
3092 31-08-2011 22:45:48 11.6 C 78 % 7.9 C
3093 31-08-2011 22:57:48 11.3 C 79 % 7.8 C
3094 31-08-2011 23:09:48 11 C 80 % 7.69 C
3095 31-08-2011 23:21:48 10.7 C 81 % 7.58 C
3096 31-08-2011 23:33:48 10.5 C 82 % 7.56 C
3097 31-08-2011 23:45:48 10.4 C 83 % 7.64 C
3098 31-08-2011 23:57:48 10.4 C 83 % 7.64 C
3099 01-09-2011 00:09:49 10.2 C 83 % 7.45 C
3100 01-09-2011 00:21:49 9.8 C 85 % 7.4 C
Sensor: Nr:Datum:Temp:Feuchte:Taupunkt:
Aussen-T/F 3101 01-09-2011 00:33:49 9.4 C 84 % 6.84 C
3102 01-09-2011 00:45:49 9.2 C 84 % 6.64 C
3103 01-09-2011 00:57:49 9.3 C 85 % 6.91 C
3104 01-09-2011 01:09:49 9.2 C 86 % 6.98 C
3105 01-09-2011 01:21:49 8.8 C 87 % 6.76 C
3106 01-09-2011 01:33:49 8.8 C 87 % 6.76 C
3107 01-09-2011 01:45:49 8.7 C 88 % 6.83 C
3108 01-09-2011 01:57:49 8.6 C 88 % 6.73 C
3109 01-09-2011 02:09:49 8.7 C 88 % 6.83 C
3110 01-09-2011 02:21:49 8.5 C 88 % 6.63 C
3111 01-09-2011 02:33:49 8.4 C 88 % 6.53 C
3112 01-09-2011 02:45:49 8.4 C 88 % 6.53 C
3113 01-09-2011 02:57:49 8.3 C 89 % 6.6 C
3114 01-09-2011 03:09:49 8.4 C 89 % 6.7 C
3115 01-09-2011 03:21:49 8.3 C 89 % 6.6 C
3116 01-09-2011 03:33:49 8 C 89 % 6.3 C
3117 01-09-2011 03:45:49 7.9 C 90 % 6.36 C
3118 01-09-2011 03:57:49 7.7 C 90 % 6.17 C
3119 01-09-2011 04:09:49 7.9 C 90 % 6.36 C
3120 01-09-2011 04:21:50 7.9 C 90 % 6.36 C
3121 01-09-2011 04:33:50 7.8 C 90 % 6.27 C
3122 01-09-2011 04:45:50 7.6 C 90 % 6.07 C
3123 01-09-2011 04:57:50 7.8 C 90 % 6.27 C
3124 01-09-2011 05:09:50 7.5 C 90 % 5.97 C
3125 01-09-2011 05:21:50 7.7 C 90 % 6.17 C
Sensor: Nr:Datum:Temp:Feuchte:Taupunkt:
Aussen-T/F 3126 01-09-2011 05:33:50 7.4 C 90 % 5.87 C
3127 01-09-2011 05:45:50 7.9 C 91 % 6.52 C
3128 01-09-2011 05:57:50 7.4 C 91 % 6.03 C
3129 01-09-2011 06:09:50 7.3 C 91 % 5.93 C
3130 01-09-2011 06:21:50 7.2 C 91 % 5.83 C
3131 01-09-2011 06:33:50 7.2 C 91 % 5.83 C
3132 01-09-2011 06:45:50 7.2 C 91 % 5.83 C
3133 01-09-2011 06:57:50 7.2 C 91 % 5.83 C
3134 01-09-2011 07:09:04 7.6 C 91 % 6.23 C
3135 01-09-2011 07:21:03 7.5 C 91 % 6.13 C
3136 01-09-2011 07:33:02 7.9 C 92 % 6.68 C
3137 01-09-2011 07:45:02 8.4 C 91 % 7.02 C
3138 01-09-2011 07:57:02 8.7 C 91 % 7.32 C
3139 01-09-2011 08:09:01 9 C 90 % 7.45 C
3140 01-09-2011 08:21:02 9.1 C 90 % 7.55 C
3141 01-09-2011 08:33:02 9.4 C 90 % 7.85 C
3142 01-09-2011 08:45:01 9.3 C 90 % 7.75 C
3143 01-09-2011 08:57:01 9.7 C 90 % 8.14 C
3144 01-09-2011 09:09:02 9.7 C 89 % 7.98 C
3145 01-09-2011 09:21:01 10.1 C 88 % 8.21 C
3146 01-09-2011 09:33:02 10.2 C 87 % 8.14 C
3147 01-09-2011 09:45:02 10.4 C 86 % 8.16 C
3148 01-09-2011 09:57:02 10.7 C 86 % 8.46 C
3149 01-09-2011 10:09:02 10.9 C 85 % 8.48 C
3150 01-09-2011 10:21:02 11.2 C 84 % 8.6 C
Sensor: Nr:Datum:Temp:Feuchte:Taupunkt:
Aussen-T/F 3151 01-09-2011 10:33:02 11.4 C 84 % 8.8 C
3152 01-09-2011 10:45:02 11.6 C 85 % 9.17 C
3153 01-09-2011 10:57:02 12 C 85 % 9.56 C
3154 01-09-2011 11:09:02 12.3 C 85 % 9.85 C
3155 01-09-2011 11:21:02 12.7 C 85 % 10.25 C
3156 01-09-2011 11:33:02 13.1 C 84 % 10.46 C
3157 01-09-2011 11:45:02 14.2 C 82 % 11.17 C
3158 01-09-2011 11:57:02 14.8 C 75 % 10.42 C
3159 01-09-2011 12:09:03 15.4 C 73 % 10.59 C
3160 01-09-2011 12:21:02 16 C 69 % 10.32 C
3161 01-09-2011 12:33:02 16.4 C 65 % 9.81 C
3162 01-09-2011 12:45:02 16.8 C 61 % 9.24 C
3163 01-09-2011 12:57:02 17.3 C 59 % 9.22 C
3164 01-09-2011 13:09:02 17.9 C 54 % 8.47 C
3165 01-09-2011 13:21:01 18.6 C 46 % 6.77 C
3166 01-09-2011 13:33:02 19.1 C 44 % 6.57 C
3167 01-09-2011 13:45:02 19.6 C 42 % 6.35 C
3168 01-09-2011 13:57:02 21.8 C 35 % 5.67 C
3169 01-09-2011 14:09:02 22.5 C 35 % 6.29 C
3170 01-09-2011 14:21:01 23.1 C 31 % 5.06 C
3171 01-09-2011 14:33:02 21.6 C 35 % 5.5 C
3172 01-09-2011 14:45:02 22.9 C 31 % 4.89 C
3173 01-09-2011 14:57:02 25.6 C 26 % 4.69 C
3174 01-09-2011 15:09:02 28.3 C 20 % 3.21 C
3175 01-09-2011 15:21:01 29.4 C 21 % 4.81 C
Sensor: Nr:Datum:Temp:Feuchte:Taupunkt:
Aussen-T/F 3176 01-09-2011 15:33:02 27.7 C 20 % 2.72 C
3177 01-09-2011 15:45:01 29 C 20 % 3.79 C
3178 01-09-2011 15:57:01 28.9 C 22 % 5.06 C
3179 01-09-2011 16:09:02 30.4 C 22 % 6.31 C
3180 01-09-2011 16:21:02 29.7 C 20 % 4.36 C
3181 01-09-2011 16:33:02 29.4 C 20 % 4.11 C
3182 01-09-2011 16:45:02 28.7 C 20 % 3.54 C
3183 01-09-2011 16:57:02 28.7 C 20 % 3.54 C
3184 01-09-2011 17:09:02 30.4 C 22 % 6.31 C
3185 01-09-2011 17:21:02 30.3 C 20 % 4.85 C
3186 01-09-2011 17:33:02 28.7 C 20 % 3.54 C
3187 01-09-2011 17:45:03 29.6 C 20 % 4.28 C
3188 01-09-2011 17:57:03 28.5 C 20 % 3.38 C
3189 01-09-2011 18:09:02 28.3 C 21 % 3.9 C
3190 01-09-2011 18:21:02 27.7 C 28 % 7.55 C
3191 01-09-2011 18:33:02 27.4 C 30 % 8.3 C
3192 01-09-2011 18:45:02 26.6 C 31 % 8.09 C
3193 01-09-2011 18:57:02 26.6 C 31 % 8.09 C
3194 01-09-2011 19:09:02 26.6 C 31 % 8.09 C
3195 01-09-2011 19:21:01 26.6 C 31 % 8.09 C
3196 01-09-2011 19:33:02 19.7 C 52 % 9.58 C
3197 01-09-2011 19:45:02 19 C 53 % 9.21 C
3198 01-09-2011 19:57:02 18.7 C 54 % 9.21 C
3199 01-09-2011 20:09:02 18.7 C 54 % 9.21 C
3200 01-09-2011 20:21:02 18.7 C 54 % 9.21 C
Sensor: Nr:Datum:Temp:Feuchte:Taupunkt:
Aussen-T/F 3201 01-09-2011 20:33:02 18.7 C 54 % 9.21 C
3202 01-09-2011 20:45:02 16.4 C 61 % 8.87 C
3203 01-09-2011 20:57:02 15.7 C 62 % 8.45 C
3204 01-09-2011 21:09:02 15.5 C 64 % 8.73 C
3205 01-09-2011 21:21:02 15.3 C 68 % 9.43 C
3206 01-09-2011 21:34:04 14.5 C 70 % 9.1 C
3207 01-09-2011 21:46:04 14.2 C 72 % 9.23 C
3208 01-09-2011 21:58:04 13.9 C 75 % 9.55 C
3209 01-09-2011 22:10:04 13.5 C 75 % 9.16 C
3210 01-09-2011 22:22:04 13.1 C 76 % 8.97 C
3211 01-09-2011 22:34:04 13.2 C 77 % 9.26 C
3212 01-09-2011 22:46:04 13 C 79 % 9.45 C
3213 01-09-2011 22:58:04 12.9 C 80 % 9.54 C
3214 01-09-2011 23:10:04 13 C 80 % 9.63 C
3215 01-09-2011 23:22:04 12.9 C 81 % 9.72 C
3216 01-09-2011 23:34:04 12.6 C 81 % 9.43 C
3217 01-09-2011 23:46:04 12.4 C 81 % 9.23 C
3218 01-09-2011 23:58:04 12.1 C 82 % 9.12 C
3219 02-09-2011 00:10:04 12.1 C 83 % 9.3 C
3220 02-09-2011 00:22:04 11.8 C 84 % 9.19 C
3221 02-09-2011 00:34:05 11.7 C 84 % 9.09 C
3222 02-09-2011 00:46:05 11.8 C 84 % 9.19 C
3223 02-09-2011 00:58:05 11.8 C 85 % 9.36 C
3224 02-09-2011 01:10:05 11.5 C 85 % 9.07 C
3225 02-09-2011 01:22:05 11.5 C 85 % 9.07 C
Sensor: Nr:Datum:Temp:Feuchte:Taupunkt:
Aussen-T/F 3226 02-09-2011 01:34:05 11.3 C 85 % 8.87 C
3227 02-09-2011 01:46:05 11.4 C 86 % 9.14 C
3228 02-09-2011 01:58:05 11.1 C 86 % 8.85 C
3229 02-09-2011 02:10:05 10.9 C 86 % 8.65 C
3230 02-09-2011 02:22:05 10.9 C 86 % 8.65 C
3231 02-09-2011 02:34:05 10.7 C 86 % 8.46 C
3232 02-09-2011 02:46:05 10.7 C 86 % 8.46 C
3233 02-09-2011 02:58:05 10.8 C 86 % 8.56 C
3234 02-09-2011 03:10:05 10.8 C 87 % 8.73 C
3235 02-09-2011 03:22:05 10.9 C 87 % 8.82 C
3236 02-09-2011 03:34:05 11.1 C 87 % 9.02 C
3237 02-09-2011 03:46:05 11.3 C 87 % 9.22 C
3238 02-09-2011 03:58:05 11.5 C 88 % 9.58 C
3239 02-09-2011 04:10:05 11.5 C 88 % 9.58 C
3240 02-09-2011 04:22:05 11.9 C 88 % 9.98 C
3241 02-09-2011 04:34:05 11.9 C 88 % 9.98 C
3242 02-09-2011 04:46:06 11.8 C 88 % 9.88 C
3243 02-09-2011 04:58:06 11.8 C 88 % 9.88 C
3244 02-09-2011 05:10:06 11.5 C 87 % 9.41 C
3245 02-09-2011 05:22:06 11.3 C 87 % 9.22 C
3246 02-09-2011 05:34:06 11.5 C 88 % 9.58 C
3247 02-09-2011 05:46:06 11.7 C 88 % 9.78 C
3248 02-09-2011 05:58:06 11.6 C 88 % 9.68 C
3249 02-09-2011 06:10:06 11.6 C 88 % 9.68 C
3250 02-09-2011 06:22:06 11.9 C 88 % 9.98 C
Sensor: Nr:Datum:Temp:Feuchte:Taupunkt:
Aussen-T/F 3251 02-09-2011 06:34:06 12.1 C 88 % 10.17 C
3252 02-09-2011 06:46:06 12.2 C 87 % 10.1 C
3253 02-09-2011 06:58:06 12.2 C 87 % 10.1 C
3254 02-09-2011 07:10:06 12.3 C 87 % 10.2 C
3255 02-09-2011 07:22:06 12.5 C 87 % 10.4 C
3256 02-09-2011 07:34:04 12.5 C 87 % 10.4 C
3257 02-09-2011 07:46:02 12.5 C 87 % 10.4 C
3258 02-09-2011 07:58:02 12.7 C 87 % 10.59 C
3259 02-09-2011 08:10:02 12.8 C 87 % 10.69 C
3260 02-09-2011 08:22:02 13.1 C 87 % 10.99 C
3261 02-09-2011 08:34:02 13.1 C 86 % 10.81 C
3262 02-09-2011 08:46:01 13.3 C 86 % 11.01 C
3263 02-09-2011 08:58:01 13.3 C 86 % 11.01 C
3264 02-09-2011 09:10:02 13.8 C 86 % 11.5 C
3265 02-09-2011 09:22:02 14.4 C 85 % 11.91 C
3266 02-09-2011 09:34:01 14.8 C 82 % 11.76 C
3267 02-09-2011 09:46:02 14.7 C 78 % 10.91 C
3268 02-09-2011 09:58:02 15 C 77 % 11 C
3269 02-09-2011 10:10:01 15.1 C 75 % 10.71 C
3270 02-09-2011 10:22:02 15.2 C 75 % 10.8 C
3271 02-09-2011 10:34:01 15.6 C 76 % 11.39 C
3272 02-09-2011 10:46:02 15.6 C 76 % 11.39 C
3273 02-09-2011 10:58:02 15.6 C 76 % 11.39 C
3274 02-09-2011 11:10:01 16.2 C 71 % 10.94 C
3275 02-09-2011 11:22:02 16.5 C 69 % 10.8 C
Sensor: Nr:Datum:Temp:Feuchte:Taupunkt:
Aussen-T/F 3276 02-09-2011 11:34:01 16.4 C 70 % 10.92 C
3277 02-09-2011 11:46:01 17 C 68 % 11.06 C
3278 02-09-2011 11:58:01 17.9 C 65 % 11.23 C
3279 02-09-2011 12:10:01 19 C 59 % 10.81 C
3280 02-09-2011 12:22:02 19.5 C 58 % 11.02 C
3281 02-09-2011 12:34:01 20.4 C 56 % 11.33 C
3282 02-09-2011 12:46:03 21 C 54 % 11.34 C
3283 02-09-2011 12:58:03 20.5 C 55 % 11.16 C
3284 02-09-2011 13:10:02 20 C 56 % 10.96 C
3285 02-09-2011 13:22:02 21.7 C 52 % 11.42 C
3286 02-09-2011 13:34:02 22.4 C 49 % 11.17 C
3287 02-09-2011 13:46:02 22.2 C 50 % 11.29 C
3288 02-09-2011 13:58:02 23.4 C 49 % 12.08 C
3289 02-09-2011 14:10:02 25.2 C 44 % 12.09 C
3290 02-09-2011 14:22:02 24.4 C 43 % 11.02 C
3291 02-09-2011 14:34:01 23.2 C 47 % 11.27 C
3292 02-09-2011 14:46:02 24.8 C 45 % 12.06 C
3293 02-09-2011 14:58:02 28.8 C 36 % 12.25 C
3294 02-09-2011 15:10:01 31 C 31 % 11.89 C
3295 02-09-2011 15:22:01 31.3 C 30 % 11.65 C
3296 02-09-2011 15:34:02 30.9 C 28 % 10.27 C
3297 02-09-2011 15:46:02 31.7 C 26 % 9.85 C
3298 02-09-2011 15:58:02 32 C 22 % 7.63 C
3299 02-09-2011 16:10:01 32 C 23 % 8.28 C
3300 02-09-2011 16:22:02 29.5 C 31 % 10.6 C
Sensor: Nr:Datum:Temp:Feuchte:Taupunkt:
Aussen-T/F 3301 02-09-2011 16:34:02 27.6 C 45 % 14.6 C
3302 02-09-2011 16:46:02 31 C 33 % 12.84 C
3303 02-09-2011 16:58:02 31.4 C 28 % 10.7 C
3304 02-09-2011 17:10:01 29.4 C 38 % 13.6 C
3305 02-09-2011 17:22:02 25.5 C 46 % 13.03 C
3306 02-09-2011 17:34:02 24.3 C 53 % 14.11 C
3307 02-09-2011 17:46:02 24.1 C 53 % 13.93 C
3308 02-09-2011 17:58:03 23.8 C 57 % 14.77 C
3309 02-09-2011 18:10:02 23.5 C 56 % 14.22 C
3310 02-09-2011 18:22:02 23 C 58 % 14.29 C
3311 02-09-2011 18:34:02 22.5 C 60 % 14.35 C
3312 02-09-2011 18:46:01 22 C 62 % 14.39 C
3313 02-09-2011 18:58:01 22 C 61 % 14.14 C
3314 02-09-2011 19:10:02 21.9 C 62 % 14.29 C
3315 02-09-2011 19:22:01 21 C 69 % 15.1 C
3316 02-09-2011 19:34:02 21 C 71 % 15.54 C
3317 02-09-2011 19:46:02 20.8 C 73 % 15.78 C
3318 02-09-2011 19:58:02 20.3 C 73 % 15.3 C
3319 02-09-2011 20:10:02 19.6 C 76 % 15.26 C
3320 02-09-2011 20:22:01 19.4 C 77 % 15.27 C
3321 02-09-2011 20:34:02 19.3 C 75 % 14.76 C
3322 02-09-2011 20:46:02 19.3 C 73 % 14.34 C
3323 02-09-2011 20:58:02 18.9 C 75 % 14.37 C
3324 02-09-2011 21:10:02 18.5 C 76 % 14.19 C
3325 02-09-2011 21:22:02 18.2 C 77 % 14.1 C
Sensor: Nr:Datum:Temp:Feuchte:Taupunkt:
Aussen-T/F 3326 02-09-2011 21:34:02 17.7 C 79 % 14.01 C
3327 02-09-2011 21:46:02 17.6 C 80 % 14.11 C
3328 02-09-2011 21:58:02 17.6 C 82 % 14.49 C
3329 02-09-2011 22:10:01 17.3 C 82 % 14.2 C
3330 02-09-2011 22:22:01 17 C 82 % 13.91 C
3331 02-09-2011 22:34:02 17.3 C 83 % 14.39 C
3332 02-09-2011 22:46:03 17.1 C 83 % 14.19 C
3333 02-09-2011 22:58:03 16.8 C 84 % 14.08 C
3334 02-09-2011 23:10:02 16.6 C 84 % 13.89 C
3335 02-09-2011 23:22:02 16.5 C 84 % 13.79 C
3336 02-09-2011 23:34:02 16.1 C 84 % 13.4 C
3337 02-09-2011 23:46:02 16 C 84 % 13.3 C
3338 02-09-2011 23:58:02 16 C 84 % 13.3 C
3339 03-09-2011 00:10:02 15.8 C 85 % 13.28 C
3340 03-09-2011 00:22:02 15.8 C 86 % 13.46 C
3341 03-09-2011 00:34:01 15.6 C 86 % 13.27 C
3342 03-09-2011 00:46:02 15.5 C 86 % 13.17 C
3343 03-09-2011 00:58:02 15.5 C 86 % 13.17 C
3344 03-09-2011 01:10:01 15.6 C 87 % 13.45 C
3345 03-09-2011 01:22:02 15.3 C 87 % 13.15 C
3346 03-09-2011 01:34:02 15.2 C 87 % 13.05 C
3347 03-09-2011 01:46:02 15.2 C 87 % 13.05 C
3348 03-09-2011 01:58:03 15.2 C 87 % 13.05 C
3349 03-09-2011 02:10:02 15.1 C 87 % 12.95 C
3350 03-09-2011 02:22:02 15 C 87 % 12.86 C
Sensor: Nr:Datum:Temp:Feuchte:Taupunkt:
Aussen-T/F 3351 03-09-2011 02:34:03 15.1 C 88 % 13.13 C
3352 03-09-2011 02:47:03 15 C 88 % 13.03 C
3353 03-09-2011 02:59:03 14.9 C 89 % 13.1 C
3354 03-09-2011 03:11:04 14.8 C 89 % 13.01 C
3355 03-09-2011 03:23:04 14.8 C 89 % 13.01 C
3356 03-09-2011 03:35:02 14.7 C 89 % 12.91 C
3357 03-09-2011 03:47:02 14.7 C 89 % 12.91 C
3358 03-09-2011 03:59:02 14.6 C 89 % 12.81 C
3359 03-09-2011 04:11:02 14.7 C 89 % 12.91 C
3360 03-09-2011 04:23:02 14.5 C 89 % 12.71 C
3361 03-09-2011 04:35:02 14.5 C 89 % 12.71 C
3362 03-09-2011 04:47:02 14.7 C 90 % 13.08 C
3363 03-09-2011 04:59:02 14.1 C 89 % 12.32 C
3364 03-09-2011 05:11:01 14.3 C 89 % 12.51 C
3365 03-09-2011 05:23:02 14.3 C 89 % 12.51 C
3366 03-09-2011 05:35:02 14.1 C 89 % 12.32 C
3367 03-09-2011 05:47:02 14.4 C 90 % 12.78 C
3368 03-09-2011 05:59:02 14 C 89 % 12.22 C
3369 03-09-2011 06:11:02 14.4 C 90 % 12.78 C
3370 03-09-2011 06:23:02 13.8 C 90 % 12.19 C
3371 03-09-2011 06:35:03 13.7 C 90 % 12.09 C
3372 03-09-2011 06:47:02 14 C 90 % 12.39 C
3373 03-09-2011 06:59:02 14.1 C 90 % 12.49 C
3374 03-09-2011 07:11:02 14.5 C 90 % 12.88 C
3375 03-09-2011 07:23:01 14.5 C 90 % 12.88 C
Sensor: Nr:Datum:Temp:Feuchte:Taupunkt:
Aussen-T/F 3376 03-09-2011 07:35:02 14.8 C 90 % 13.18 C
3377 03-09-2011 07:47:02 14.8 C 90 % 13.18 C
3378 03-09-2011 07:59:02 14.8 C 90 % 13.18 C
3379 03-09-2011 08:11:02 14.9 C 90 % 13.28 C
3380 03-09-2011 08:23:02 15.1 C 90 % 13.47 C
3381 03-09-2011 08:35:02 15.4 C 90 % 13.77 C
3382 03-09-2011 08:47:02 15.4 C 90 % 13.77 C
3383 03-09-2011 08:59:02 15.5 C 90 % 13.87 C
3384 03-09-2011 09:11:01 15.7 C 89 % 13.89 C
3385 03-09-2011 09:23:02 15.4 C 89 % 13.6 C
3386 03-09-2011 09:35:01 15.5 C 89 % 13.7 C
3387 03-09-2011 09:47:03 15.9 C 89 % 14.09 C
3388 03-09-2011 09:59:03 16 C 88 % 14.01 C
3389 03-09-2011 10:11:02 16.6 C 89 % 14.78 C
3390 03-09-2011 10:23:02 17 C 88 % 15 C
3391 03-09-2011 10:35:03 17.4 C 89 % 15.57 C
3392 03-09-2011 10:47:02 17.8 C 89 % 15.96 C
3393 03-09-2011 10:59:03 18.2 C 88 % 16.18 C
3394 03-09-2011 11:11:01 18.6 C 88 % 16.57 C
3395 03-09-2011 11:23:02 19 C 87 % 16.79 C
3396 03-09-2011 11:35:01 19.4 C 88 % 17.36 C
3397 03-09-2011 11:47:02 19.8 C 88 % 17.75 C
3398 03-09-2011 11:59:03 20.4 C 87 % 18.16 C
3399 03-09-2011 12:11:02 21.3 C 86 % 18.86 C
3400 03-09-2011 12:23:02 22.2 C 84 % 19.37 C
Sensor: Nr:Datum:Temp:Feuchte:Taupunkt:
Aussen-T/F 3401 03-09-2011 12:35:03 23.3 C 80 % 19.65 C
3402 03-09-2011 12:47:02 24.6 C 68 % 18.3 C
3403 03-09-2011 12:59:02 25.4 C 56 % 15.99 C
3404 03-09-2011 13:11:02 26.4 C 52 % 15.75 C
3405 03-09-2011 13:23:02 26.3 C 49 % 14.74 C
3406 03-09-2011 13:35:02 25.4 C 59 % 16.81 C
3407 03-09-2011 13:47:02 26.2 C 51 % 15.27 C
3408 03-09-2011 13:59:02 28.1 C 46 % 15.39 C
3409 03-09-2011 14:11:02 28 C 49 % 16.29 C
3410 03-09-2011 14:23:02 28.7 C 39 % 13.38 C
3411 03-09-2011 14:35:02 27.5 C 42 % 13.44 C
3412 03-09-2011 14:47:02 29.1 C 41 % 14.51 C
3413 03-09-2011 14:59:02 32.1 C 30 % 12.34 C
3414 03-09-2011 15:11:02 32.5 C 28 % 11.64 C
3415 03-09-2011 15:23:02 31.7 C 28 % 10.96 C
3416 03-09-2011 15:35:02 32.8 C 25 % 10.19 C
3417 03-09-2011 15:47:02 32.4 C 27 % 11 C
3418 03-09-2011 15:59:02 31.9 C 25 % 9.43 C
3419 03-09-2011 16:11:02 33 C 21 % 7.77 C
3420 03-09-2011 16:23:02 31.9 C 30 % 12.17 C
3421 03-09-2011 16:35:02 31.7 C 28 % 10.96 C
3422 03-09-2011 16:47:02 30.4 C 35 % 13.22 C
3423 03-09-2011 16:59:02 31.7 C 28 % 10.96 C
3424 03-09-2011 17:11:01 31.5 C 29 % 11.31 C
3425 03-09-2011 17:23:02 31.9 C 26 % 10.02 C
Sensor: Nr:Datum:Temp:Feuchte:Taupunkt:
Aussen-T/F 3426 03-09-2011 17:35:01 32.3 C 26 % 10.35 C
3427 03-09-2011 17:47:03 31.3 C 31 % 12.15 C
3428 03-09-2011 17:59:03 31.9 C 31 % 12.67 C
3429 03-09-2011 18:11:02 31.6 C 32 % 12.89 C
3430 03-09-2011 18:23:03 30.8 C 35 % 13.57 C
3431 03-09-2011 18:35:02 30 C 39 % 14.53 C
3432 03-09-2011 18:47:01 28 C 45 % 14.96 C
3433 03-09-2011 18:59:01 28.4 C 43 % 14.62 C
3434 03-09-2011 19:11:01 26.6 C 47 % 14.36 C
3435 03-09-2011 19:23:02 24.6 C 55 % 14.96 C
3436 03-09-2011 19:35:01 23.9 C 58 % 15.14 C
3437 03-09-2011 19:47:02 23.2 C 60 % 15.01 C
3438 03-09-2011 19:59:02 22.6 C 61 % 14.7 C
3439 03-09-2011 20:11:01 22.3 C 62 % 14.67 C
3440 03-09-2011 20:23:02 21.9 C 63 % 14.54 C
3441 03-09-2011 20:35:02 21.6 C 63 % 14.26 C
3442 03-09-2011 20:47:02 21.7 C 63 % 14.35 C
3443 03-09-2011 20:59:02 21.4 C 63 % 14.07 C
3444 03-09-2011 21:11:02 21.4 C 63 % 14.07 C
3445 03-09-2011 21:23:02 21 C 64 % 13.93 C
3446 03-09-2011 21:35:03 20.9 C 65 % 14.08 C
3447 03-09-2011 21:47:03 20.9 C 64 % 13.84 C
3448 03-09-2011 21:59:03 20.9 C 64 % 13.84 C
3449 03-09-2011 22:11:02 20.7 C 64 % 13.65 C
3450 03-09-2011 22:23:02 20.6 C 65 % 13.79 C
Sensor: Nr:Datum:Temp:Feuchte:Taupunkt:
Aussen-T/F 3451 03-09-2011 22:35:03 20.4 C 67 % 14.07 C
3452 03-09-2011 22:48:03 20.3 C 67 % 13.97 C
3453 03-09-2011 23:00:03 19.7 C 70 % 14.08 C
3454 03-09-2011 23:12:03 19.7 C 71 % 14.3 C
3455 03-09-2011 23:24:03 19.4 C 72 % 14.22 C
3456 03-09-2011 23:36:03 19 C 73 % 14.05 C
3457 03-09-2011 23:48:04 18.8 C 75 % 14.28 C
3458 04-09-2011 00:00:04 19.1 C 75 % 14.57 C
3459 04-09-2011 00:12:04 19.4 C 73 % 14.44 C
3460 04-09-2011 00:24:04 19.2 C 73 % 14.25 C
3461 04-09-2011 00:36:04 19.1 C 74 % 14.36 C
3462 04-09-2011 00:48:04 19 C 75 % 14.47 C
3463 04-09-2011 01:00:04 19.1 C 77 % 14.97 C
3464 04-09-2011 01:12:04 20.7 C 67 % 14.36 C
3465 04-09-2011 01:24:04 20.2 C 69 % 14.33 C
3466 04-09-2011 01:36:04 20 C 71 % 14.58 C
3467 04-09-2011 01:48:04 19.8 C 74 % 15.03 C
3468 04-09-2011 02:00:04 19.6 C 76 % 15.26 C
3469 04-09-2011 02:12:04 19.6 C 77 % 15.46 C
3470 04-09-2011 02:24:04 19.5 C 77 % 15.36 C
3471 04-09-2011 02:36:05 19.3 C 79 % 15.57 C
3472 04-09-2011 02:48:05 19.3 C 82 % 16.15 C
3473 04-09-2011 03:00:05 19.3 C 83 % 16.34 C
3474 04-09-2011 03:12:05 19.1 C 84 % 16.33 C
3475 04-09-2011 03:24:05 19.2 C 84 % 16.43 C
Sensor: Nr:Datum:Temp:Feuchte:Taupunkt:
Aussen-T/F 3476 04-09-2011 03:36:05 19.2 C 84 % 16.43 C
3477 04-09-2011 03:48:05 19.2 C 85 % 16.62 C
3478 04-09-2011 04:00:05 19.3 C 84 % 16.53 C
3479 04-09-2011 04:12:05 19.3 C 84 % 16.53 C
3480 04-09-2011 04:24:05 19.3 C 84 % 16.53 C
3481 04-09-2011 04:36:05 19.4 C 84 % 16.63 C
3482 04-09-2011 04:48:05 19.4 C 83 % 16.44 C
3483 04-09-2011 05:00:05 19.3 C 83 % 16.34 C
3484 04-09-2011 05:12:05 19.2 C 83 % 16.24 C
3485 04-09-2011 05:24:05 19.3 C 83 % 16.34 C
3486 04-09-2011 05:36:05 19.3 C 82 % 16.15 C
3487 04-09-2011 05:48:05 19.3 C 82 % 16.15 C
3488 04-09-2011 06:00:05 19.3 C 82 % 16.15 C
3489 04-09-2011 06:12:05 19.3 C 81 % 15.96 C
3490 04-09-2011 06:24:05 19.2 C 81 % 15.86 C
3491 04-09-2011 06:36:05 19.2 C 81 % 15.86 C
3492 04-09-2011 06:48:05 19.3 C 81 % 15.96 C
3493 04-09-2011 07:00:05 19.4 C 81 % 16.06 C
3494 04-09-2011 07:12:06 19.7 C 79 % 15.96 C
3495 04-09-2011 07:24:06 19.8 C 76 % 15.45 C
3496 04-09-2011 07:36:06 20.3 C 74 % 15.51 C
3497 04-09-2011 07:48:06 20.4 C 73 % 15.4 C
3498 04-09-2011 08:00:06 20.5 C 73 % 15.5 C
3499 04-09-2011 08:12:03 20.6 C 72 % 15.38 C
3500 04-09-2011 08:24:03 20.6 C 73 % 15.59 C
Sensor: Nr:Datum:Temp:Feuchte:Taupunkt:
Aussen-T/F 3501 04-09-2011 08:36:03 20.5 C 74 % 15.71 C
3502 04-09-2011 08:48:02 20.8 C 73 % 15.78 C
3503 04-09-2011 09:00:02 21.2 C 70 % 15.51 C
3504 04-09-2011 09:12:03 21.6 C 69 % 15.67 C
3505 04-09-2011 09:24:02 21.8 C 68 % 15.63 C
3506 04-09-2011 09:36:02 22.1 C 68 % 15.92 C
3507 04-09-2011 09:48:01 22.1 C 68 % 15.92 C
3508 04-09-2011 10:00:01 22.1 C 67 % 15.69 C
3509 04-09-2011 10:12:02 22.5 C 67 % 16.07 C
3510 04-09-2011 10:24:01 23.2 C 64 % 16.01 C
3511 04-09-2011 10:36:02 23.3 C 62 % 15.61 C
3512 04-09-2011 10:48:02 23.5 C 62 % 15.8 C
3513 04-09-2011 11:00:02 23.5 C 63 % 16.05 C
3514 04-09-2011 11:12:02 23.9 C 59 % 15.4 C
3515 04-09-2011 11:24:02 24.4 C 55 % 14.78 C
3516 04-09-2011 11:36:02 24.4 C 54 % 14.49 C
3517 04-09-2011 11:48:02 24.5 C 53 % 14.3 C
3518 04-09-2011 12:00:02 24.9 C 54 % 14.95 C
3519 04-09-2011 12:12:02 25.3 C 49 % 13.82 C
3520 04-09-2011 12:24:02 25.6 C 50 % 14.41 C
3521 04-09-2011 12:36:02 25.8 C 49 % 14.28 C
3522 04-09-2011 12:48:01 25.8 C 48 % 13.96 C
3523 04-09-2011 13:00:01 26 C 47 % 13.82 C
3524 04-09-2011 13:12:01 26.7 C 45 % 13.78 C
3525 04-09-2011 13:24:01 26.9 C 44 % 13.62 C
Sensor: Nr:Datum:Temp:Feuchte:Taupunkt:
Aussen-T/F 3526 04-09-2011 13:36:01 26.4 C 45 % 13.51 C
3527 04-09-2011 13:48:01 26.6 C 45 % 13.69 C
3528 04-09-2011 14:00:01 26.2 C 44 % 12.99 C
3529 04-09-2011 14:12:02 26.9 C 43 % 13.27 C
3530 04-09-2011 14:24:01 27.4 C 40 % 12.61 C
3531 04-09-2011 14:36:01 27.5 C 41 % 13.08 C
3532 04-09-2011 14:48:01 27.3 C 41 % 12.9 C
3533 04-09-2011 15:00:01 27.2 C 40 % 12.43 C
3534 04-09-2011 15:12:02 27 C 41 % 12.63 C
3535 04-09-2011 15:24:02 26.6 C 41 % 12.27 C
3536 04-09-2011 15:36:01 26.5 C 45 % 13.6 C
3537 04-09-2011 15:48:02 26 C 41 % 11.73 C
3538 04-09-2011 16:00:02 25.9 C 43 % 12.37 C
3539 04-09-2011 16:12:01 25.7 C 45 % 12.88 C
3540 04-09-2011 16:24:02 24.6 C 47 % 12.54 C
3541 04-09-2011 16:36:01 24.7 C 47 % 12.64 C
3542 04-09-2011 16:48:02 22.9 C 57 % 13.93 C
3543 04-09-2011 17:00:02 22 C 62 % 14.39 C
3544 04-09-2011 17:12:02 22.3 C 62 % 14.67 C
3545 04-09-2011 17:24:02 22.3 C 64 % 15.16 C
3546 04-09-2011 17:36:02 22.3 C 65 % 15.4 C
3547 04-09-2011 17:48:02 22.2 C 66 % 15.55 C
3548 04-09-2011 18:00:02 21.9 C 69 % 15.96 C
3549 04-09-2011 18:12:02 22 C 67 % 15.59 C
3550 04-09-2011 18:24:01 22.2 C 65 % 15.31 C
Sensor: Nr:Datum:Temp:Feuchte:Taupunkt:
Aussen-T/F 3551 04-09-2011 18:36:02 21.9 C 66 % 15.26 C
3552 04-09-2011 18:48:02 21.8 C 65 % 14.93 C
3553 04-09-2011 19:00:02 21.6 C 65 % 14.74 C
3554 04-09-2011 19:12:02 21.3 C 67 % 14.93 C
3555 04-09-2011 19:24:02 21.4 C 66 % 14.79 C
3556 04-09-2011 19:36:02 21.1 C 68 % 14.97 C
3557 04-09-2011 19:48:02 20.9 C 69 % 15 C
3558 04-09-2011 20:00:02 20.8 C 69 % 14.91 C
3559 04-09-2011 20:12:02 20.4 C 70 % 14.75 C
3560 04-09-2011 20:24:02 20.5 C 70 % 14.84 C
3561 04-09-2011 20:36:02 20.4 C 71 % 14.97 C
3562 04-09-2011 20:48:02 20.5 C 70 % 14.84 C
3563 04-09-2011 21:00:02 20.6 C 67 % 14.26 C
3564 04-09-2011 21:12:02 20.6 C 67 % 14.26 C
3565 04-09-2011 21:24:02 20.4 C 68 % 14.3 C
3566 04-09-2011 21:36:02 20.3 C 67 % 13.97 C
3567 04-09-2011 21:48:02 20 C 68 % 13.92 C
3568 04-09-2011 22:00:02 19.5 C 71 % 14.1 C
3569 04-09-2011 22:12:02 19.6 C 72 % 14.42 C
3570 04-09-2011 22:25:03 19.4 C 72 % 14.22 C
3571 04-09-2011 22:37:03 19.3 C 73 % 14.34 C
3572 04-09-2011 22:49:03 19.1 C 74 % 14.36 C
3573 04-09-2011 23:01:03 18.9 C 75 % 14.37 C
3574 04-09-2011 23:13:03 18.8 C 75 % 14.28 C
3575 04-09-2011 23:25:03 18.6 C 76 % 14.29 C
Sensor: Nr:Datum:Temp:Feuchte:Taupunkt:
Aussen-T/F 3576 04-09-2011 23:37:03 18.5 C 76 % 14.19 C
3577 04-09-2011 23:49:03 18.2 C 77 % 14.1 C
3578 05-09-2011 00:01:03 17.9 C 79 % 14.21 C
3579 05-09-2011 00:13:03 17.8 C 79 % 14.11 C
3580 05-09-2011 00:25:03 17.4 C 80 % 13.92 C
3581 05-09-2011 00:37:03 17.3 C 81 % 14.01 C
3582 05-09-2011 00:49:03 17.2 C 82 % 14.1 C
3583 05-09-2011 01:01:03 17.4 C 82 % 14.3 C
3584 05-09-2011 01:13:03 18 C 78 % 14.11 C
3585 05-09-2011 01:25:03 17.3 C 78 % 13.43 C
3586 05-09-2011 01:37:03 16.9 C 81 % 13.62 C
3587 05-09-2011 01:49:03 16.9 C 82 % 13.81 C
3588 05-09-2011 02:01:03 17 C 82 % 13.91 C
3589 05-09-2011 02:13:03 17.3 C 82 % 14.2 C
3590 05-09-2011 02:25:03 17.4 C 81 % 14.11 C
3591 05-09-2011 02:37:03 17.5 C 80 % 14.01 C
3592 05-09-2011 02:49:03 17.4 C 79 % 13.72 C
3593 05-09-2011 03:01:04 17.1 C 80 % 13.62 C
3594 05-09-2011 03:13:04 17 C 81 % 13.72 C
3595 05-09-2011 03:25:04 16.7 C 82 % 13.61 C
3596 05-09-2011 03:37:04 16.2 C 82 % 13.13 C
3597 05-09-2011 03:49:04 16 C 83 % 13.12 C
3598 05-09-2011 04:01:04 16 C 84 % 13.3 C
3599 05-09-2011 04:13:04 16.5 C 85 % 13.97 C
3600 05-09-2011 04:25:04 16.6 C 85 % 14.07 C
Sensor: Nr:Datum:Temp:Feuchte:Taupunkt:
Aussen-T/F 3601 05-09-2011 04:37:04 16.9 C 85 % 14.36 C
3602 05-09-2011 04:49:04 17.4 C 82 % 14.3 C
3603 05-09-2011 05:01:04 17.7 C 79 % 14.01 C
3604 05-09-2011 05:13:04 17.9 C 72 % 12.78 C
3605 05-09-2011 05:25:04 17.8 C 68 % 11.82 C
3606 05-09-2011 05:37:04 17.7 C 64 % 10.81 C
3607 05-09-2011 05:49:04 17.5 C 62 % 10.15 C
3608 05-09-2011 06:01:04 17.5 C 54 % 8.1 C
3609 05-09-2011 06:13:04 17.2 C 48 % 6.11 C
3610 05-09-2011 06:25:04 16.6 C 46 % 4.95 C
3611 05-09-2011 06:37:04 16.4 C 43 % 3.8 C
3612 05-09-2011 06:49:04 16 C 44 % 3.77 C
3613 05-09-2011 07:01:04 15.4 C 47 % 4.16 C
3614 05-09-2011 07:13:04 14.8 C 51 % 4.77 C
3615 05-09-2011 07:25:03 14.4 C 55 % 5.49 C
3616 05-09-2011 07:37:03 14.3 C 56 % 5.65 C
3617 05-09-2011 07:49:02 14.2 C 56 % 5.56 C
3618 05-09-2011 08:01:03 13.8 C 60 % 6.18 C
3619 05-09-2011 08:13:03 13.7 C 61 % 6.32 C
3620 05-09-2011 08:25:02 14 C 60 % 6.37 C
3621 05-09-2011 08:37:02 14 C 62 % 6.84 C
3622 05-09-2011 08:49:01 14.3 C 60 % 6.65 C
3623 05-09-2011 09:01:02 14.1 C 62 % 6.94 C
3624 05-09-2011 09:13:02 14.2 C 63 % 7.27 C
3625 05-09-2011 09:25:01 14.8 C 60 % 7.12 C
Sensor: Nr:Datum:Temp:Feuchte:Taupunkt:
Aussen-T/F 3626 05-09-2011 09:37:01 14.8 C 63 % 7.83 C
3627 05-09-2011 09:49:01 15.4 C 59 % 7.44 C
3628 05-09-2011 10:01:01 16 C 55 % 6.97 C
3629 05-09-2011 10:13:01 16.2 C 55 % 7.16 C
3630 05-09-2011 10:25:02 16.6 C 53 % 6.99 C
3631 05-09-2011 10:37:01 17.1 C 51 % 6.89 C
3632 05-09-2011 10:49:03 17.6 C 47 % 6.17 C
3633 05-09-2011 11:01:02 17.5 C 48 % 6.38 C
3634 05-09-2011 11:13:02 17.7 C 46 % 5.95 C
3635 05-09-2011 11:25:02 18.2 C 45 % 6.08 C
3636 05-09-2011 11:37:02 18.5 C 45 % 6.36 C
3637 05-09-2011 11:49:02 18.5 C 45 % 6.36 C
3638 05-09-2011 12:01:01 19.3 C 43 % 6.42 C
3639 05-09-2011 12:13:01 19.3 C 44 % 6.75 C
3640 05-09-2011 12:25:02 19.1 C 43 % 6.24 C
3641 05-09-2011 12:37:02 19.1 C 43 % 6.24 C
3642 05-09-2011 12:49:02 19.7 C 43 % 6.78 C
3643 05-09-2011 13:01:02 20 C 41 % 6.36 C
3644 05-09-2011 13:13:02 19.3 C 42 % 6.08 C
3645 05-09-2011 13:25:02 20.3 C 40 % 6.27 C
3646 05-09-2011 13:37:02 19.6 C 40 % 5.64 C
3647 05-09-2011 13:49:01 21.2 C 36 % 5.55 C
3648 05-09-2011 14:01:02 20.4 C 40 % 6.36 C
3649 05-09-2011 14:13:03 20.2 C 36 % 4.67 C
3650 05-09-2011 14:25:01 21.2 C 33 % 4.3 C
Sensor: Nr:Datum:Temp:Feuchte:Taupunkt:
Aussen-T/F 3651 05-09-2011 14:37:01 22 C 30 % 3.64 C
3652 05-09-2011 14:49:01 21.9 C 32 % 4.48 C
3653 05-09-2011 15:01:01 20.4 C 36 % 4.84 C
3654 05-09-2011 15:13:01 20.3 C 41 % 6.63 C
3655 05-09-2011 15:25:02 19.3 C 42 % 6.08 C
3656 05-09-2011 15:37:01 19.2 C 36 % 3.78 C
3657 05-09-2011 15:49:03 19.8 C 37 % 4.7 C
3658 05-09-2011 16:01:02 22.4 C 30 % 3.99 C
3659 05-09-2011 16:13:02 20.9 C 33 % 4.04 C
3660 05-09-2011 16:25:02 22.7 C 28 % 3.27 C
3661 05-09-2011 16:37:02 22.8 C 26 % 2.31 C
3662 05-09-2011 16:49:02 22.9 C 25 % 1.85 C
3663 05-09-2011 17:01:02 23.2 C 25 % 2.1 C
3664 05-09-2011 17:13:02 22.7 C 25 % 1.68 C
3665 05-09-2011 17:25:02 22.4 C 25 % 1.43 C
3666 05-09-2011 17:37:02 23.9 C 25 % 2.69 C
3667 05-09-2011 17:49:02 23.3 C 23 % 1.03 C
3668 05-09-2011 18:01:02 22.7 C 25 % 1.68 C
3669 05-09-2011 18:13:02 22.6 C 26 % 2.14 C
3670 05-09-2011 18:25:01 22.4 C 25 % 1.43 C
3671 05-09-2011 18:37:02 21.9 C 26 % 1.55 C
3672 05-09-2011 18:49:02 19.7 C 31 % 2.12 C
3673 05-09-2011 19:01:02 20.9 C 28 % 1.73 C
3674 05-09-2011 19:13:02 19.8 C 30 % 1.74 C
3675 05-09-2011 19:25:01 19.3 C 32 % 2.21 C
Sensor: Nr:Datum:Temp:Feuchte:Taupunkt:
Aussen-T/F 3676 05-09-2011 19:37:02 18.9 C 35 % 3.12 C
3677 05-09-2011 19:49:02 17.9 C 39 % 3.76 C
3678 05-09-2011 20:01:02 17.7 C 39 % 3.59 C
3679 05-09-2011 20:13:02 16.8 C 43 % 4.16 C
3680 05-09-2011 20:25:01 17.1 C 41 % 3.76 C
3681 05-09-2011 20:37:02 17.5 C 41 % 4.12 C
3682 05-09-2011 20:49:02 17 C 42 % 4.01 C
3683 05-09-2011 21:01:02 16.6 C 44 % 4.31 C
3684 05-09-2011 21:13:02 16.8 C 42 % 3.83 C
3685 05-09-2011 21:25:02 16.7 C 41 % 3.4 C
3686 05-09-2011 21:37:03 16.4 C 42 % 3.47 C
3687 05-09-2011 21:49:02 15.9 C 45 % 4 C
3688 05-09-2011 22:01:02 15.1 C 48 % 4.18 C
3689 05-09-2011 22:13:02 14.4 C 52 % 4.68 C
3690 05-09-2011 22:26:01 14.1 C 55 % 5.21 C
3691 05-09-2011 22:38:01 15 C 51 % 4.96 C
3692 05-09-2011 22:50:01 14.6 C 53 % 5.14 C
3693 05-09-2011 23:02:01 14.5 C 54 % 5.31 C
3694 05-09-2011 23:14:01 14 C 56 % 5.37 C
3695 05-09-2011 23:26:02 13.5 C 61 % 6.14 C
3696 05-09-2011 23:38:02 13.7 C 62 % 6.56 C
3697 05-09-2011 23:50:02 13.8 C 63 % 6.89 C

Legende:
   Min
   Max


Maximal/Minimal-Werte vom 06.08.2011 - 05.09.2011

Sensor Min Max Avg
Temp
(Aussen-T/F)
6.3 °C
31-08-2011  04:08:03
33.5 °C
23-08-2011  16:12:02
18.15 °C
Feuchte
(Aussen-T/F)
20 %
15-08-2011  15:17:02
93 %
31-08-2011  05:44:04
67.14 %
Taupunkt
(Aussen-T/F)
0.17 C
31-08-2011  14:56:03
19.65 C
03-09-2011  12:35:03
11.02 C

Die Daten stammen von einer Davis Vantage Pro 2 Wetter-Station und werden unter Linux mit der Software wview2wettercgi und aufbereitet. Alle Angaben erfolgen ohne Gewähr für ihre Vollständigkeit oder Richtigkeit.
Kontakt: Rainer Krienke krienke@uni-koblenz.de . Meine Webseiten an der Uni Koblenz oder privat.
Version: $Revision: 0.78 $